Provisional Data: Driftwood Branch Sinnemahoning Creek


Please select a monitoring station.
Please select start date.
Please select start date.

Toggle Unit: C/F Toggle Unit: C/F
Sample Time Temperature (C) Temperature (F) Specific Conductivity (mS/cm) pH   Turbidity (NTU+) DO (mg/L)
6/3/2022 12:00:00 AM 18.86 65.948 0.062 7.09 8.45 8.11
6/3/2022 12:15:00 AM 18.78 65.804 0.067 7.05 5.48 8.13
6/3/2022 12:30:00 AM 18.69 65.642 0.067 7.11 4.65 8.14
6/3/2022 12:45:00 AM 18.6 65.48 0.066 7.11 14.53 8.17
6/3/2022 1:00:00 AM 18.52 65.336 0.064 7.12 13.09 8.19
6/3/2022 1:15:00 AM 18.42 65.156 0.061 7.11 8.67 8.21
6/3/2022 1:30:00 AM 18.3 64.94 0.066 7.1 9.03 8.22
6/3/2022 1:45:00 AM 18.19 64.742 0.065 7.06 5.42 8.24
6/3/2022 2:00:00 AM 18.07 64.526 0.064 7.09 39.74 8.27
6/3/2022 2:15:00 AM 17.95 64.31 0.06 7.09 8.31 8.3
6/3/2022 2:30:00 AM 17.83 64.094 0.064 7.11 20 8.32
6/3/2022 2:45:00 AM 17.71 63.878 0.062 7.11 52.29 8.35
6/3/2022 3:00:00 AM 17.59 63.662 0.065 7.11 19.42 8.37
6/3/2022 3:15:00 AM 17.47 63.446 0.066 7.12 6.77 8.39
6/3/2022 3:30:00 AM 17.35 63.23 0.066 7.11 7.2 8.42
6/3/2022 3:45:00 AM 17.23 63.014 0.067 7.09 5.33 8.45
6/3/2022 4:00:00 AM 17.11 62.798 0.063 7.1 40.8 8.48
6/3/2022 4:15:00 AM 16.99 62.582 0.066 7.04 10.22 8.5
6/3/2022 4:30:00 AM 16.88 62.384 0.062 7.09 15.28 8.53
6/3/2022 4:45:00 AM 16.77 62.186 0.067 7.1 5.71 8.56
6/3/2022 5:00:00 AM 16.67 62.006 0.067 7.1 4.8 8.59
6/3/2022 5:15:00 AM 16.57 61.826 0.067 6.99 12.13 8.61
6/3/2022 5:30:00 AM 16.46 61.628 0.067 7.1 4.49 8.64
6/3/2022 5:45:00 AM 16.36 61.448 0.067 7.11 8.96 8.68
6/3/2022 6:00:00 AM 16.26 61.268 0.063 7.11 9.45 8.72
6/3/2022 6:15:00 AM 16.16 61.088 0.067 7.13 5.16 8.77
6/3/2022 6:30:00 AM 16.07 60.926 0.067 7.15 5.07 8.83
6/3/2022 6:45:00 AM 16 60.8 0.067 7.16 4.87 8.92
6/3/2022 7:00:00 AM 15.94 60.692 0.067 7.18 4.97 9.04
6/3/2022 7:15:00 AM 15.86 60.548 0.067 7.15 4.33 9.11
6/3/2022 7:30:00 AM 15.79 60.422 0.067 7.16 9.29 9.2
6/3/2022 7:45:00 AM 15.79 60.422 0.066 7.18 4.82 9.3
6/3/2022 8:00:00 AM 15.83 60.494 0.066 7.21 6.99 9.39
6/3/2022 8:15:00 AM 15.85 60.53 0.066 7.25 5.06 9.44
6/3/2022 8:30:00 AM 15.9 60.62 0.066 7.29 5.69 9.48
6/3/2022 8:45:00 AM 15.98 60.764 0.066 7.31 5.93 9.53
6/3/2022 9:00:00 AM 16.08 60.944 0.062 7.34 78.31 9.56
6/3/2022 9:15:00 AM 16.21 61.178 0.066 7.36 6.73 9.61
6/3/2022 9:30:00 AM 16.36 61.448 0.066 7.36 5.97 9.64
6/3/2022 9:45:00 AM 16.54 61.772 0.066 7.44 6.99 9.66
6/3/2022 10:00:00 AM 16.73 62.114 0.066 7.46 6.18 9.68
6/3/2022 10:15:00 AM 16.96 62.528 0.066 7.48 7.49 9.69
6/3/2022 10:30:00 AM 17.18 62.924 0.066 7.54 5.73 9.7
6/3/2022 10:45:00 AM 17.45 63.41 0.065 7.53 5.33 9.69
6/3/2022 11:00:00 AM 17.73 63.914 0.065 7.6 5.59 9.69
6/3/2022 11:15:00 AM 18 64.4 0.065 7.67 5.84 9.68
6/3/2022 11:30:00 AM 18.3 64.94 0.065 7.74 126.28 9.67
6/3/2022 11:45:00 AM 18.59 65.462 0.065 7.77 5.87 9.66
6/3/2022 12:00:00 PM 18.72 65.696 0.065 7.64 5.92 9.59
6/3/2022 12:15:00 PM 18.98 66.164 0.065 7.73 6.05 9.57
6/3/2022 12:30:00 PM 18.93 66.074 0.065 7.69 6.56 9.53
6/3/2022 12:45:00 PM 19.23 66.614 0.064 7.7 6.37 9.52
6/3/2022 1:00:00 PM 19.24 66.632 0.064 7.69 57.15 9.47
6/3/2022 1:15:00 PM 19.65 67.37 0.064 7.72 5.54 9.46
6/3/2022 1:30:00 PM 19.87 67.766 0.064 7.69 6.56 9.43
6/3/2022 1:45:00 PM 20.02 68.036 0.064 7.63 49.26 9.37
6/3/2022 2:00:00 PM 20.42 68.756 0.064 7.72 6.89 9.36
6/3/2022 2:15:00 PM 20.64 69.152 0.064 7.72 6.09 9.32
6/3/2022 2:30:00 PM 20.62 69.116 0.064 7.72 5.94 9.25
6/3/2022 2:45:00 PM 20.97 69.746 0.064 7.75 6.12 9.23
6/3/2022 3:00:00 PM 21.12 70.016 0.064 7.72 5.89 9.21
6/3/2022 3:15:00 PM 21.25 70.25 0.064 7.71 6.3 9.16
6/3/2022 3:30:00 PM 21.23 70.214 0.064 7.67 5.76 9.1
6/3/2022 3:45:00 PM 21.25 70.25 0.064 7.67 5.84 9.05
6/3/2022 4:00:00 PM 21.39 70.502 0.064 7.67 5.93 9.02
6/3/2022 4:15:00 PM 21.43 70.574 0.064 7.66 6.24 9.01
6/3/2022 4:30:00 PM 21.48 70.664 0.064 7.59 5.32 8.98
6/3/2022 4:45:00 PM 21.46 70.628 0.064 7.59 5.62 8.94
6/3/2022 5:00:00 PM 21.41 70.538 0.064 7.61 6.1 8.89
6/3/2022 5:15:00 PM 21.34 70.412 0.064 7.59 5.21 8.85
6/3/2022 5:30:00 PM 21.22 70.196 0.063 7.56 6.08 8.79
6/3/2022 5:45:00 PM 21.09 69.962 0.064 7.54 5.82 8.73
6/3/2022 6:00:00 PM 20.98 69.764 0.064 7.48 5.31 8.67
6/3/2022 6:15:00 PM 20.88 69.584 0.064 7.45 5.38 8.62
6/3/2022 6:30:00 PM 20.78 69.404 0.064 7.44 5.25 8.56
6/3/2022 6:45:00 PM 20.72 69.296 0.064 7.42 6.32 8.53
6/3/2022 7:00:00 PM 20.6 69.08 0.064 7.4 5.34 8.48
6/3/2022 7:15:00 PM 20.48 68.864 0.064 7.37 6.04 8.43
6/3/2022 7:30:00 PM 20.37 68.666 0.064 7.36 4.63 8.39
6/3/2022 7:45:00 PM 20.24 68.432 0.064 7.32 6.35 8.34
6/3/2022 8:00:00 PM 20.11 68.198 0.064 7.21 6.35 8.29
6/3/2022 8:15:00 PM 19.96 67.92799 0.064 7.28 4.95 8.24
6/3/2022 8:30:00 PM 19.8 67.64 0.065 7.25 5.3 8.19
6/3/2022 8:45:00 PM 19.65 67.37 0.065 7.25 7.16 8.15
6/3/2022 9:00:00 PM 19.5 67.1 0.065 7.21 6.53 8.12
6/3/2022 9:15:00 PM 19.36 66.848 0.065 7.18 5.77 8.09
6/3/2022 9:30:00 PM 19.23 66.614 0.065 7.07 7.01 8.08
6/3/2022 9:45:00 PM 19.11 66.398 0.065 7.16 6.17 8.07
6/3/2022 10:00:00 PM 18.98 66.164 0.065 7.15 5.78 8.08
6/3/2022 10:15:00 PM 18.85 65.93 0.065 7.12 6.28 8.08
6/3/2022 10:30:00 PM 18.72 65.696 0.065 7.14 6.28 8.11
6/3/2022 10:45:00 PM 18.59 65.462 0.065 7.12 7.53 8.12
6/3/2022 11:00:00 PM 18.45 65.21 0.066 7.12 7.07 8.15
6/3/2022 11:15:00 PM 18.3 64.94 0.066 7.12 6.97 8.17
6/3/2022 11:30:00 PM 18.15 64.67 0.066 7.01 6.17 8.2
6/3/2022 11:45:00 PM 18.01 64.418 0.066 7.12 6 8.23
6/4/2022 12:00:00 AM 17.87 64.166 0.066 7.13 6.2 8.26
6/4/2022 12:15:00 AM 17.73 63.914 0.066 7.1 5.99 8.29
6/4/2022 12:30:00 AM 17.6 63.68 0.066 7.13 37.96 8.31
6/4/2022 12:45:00 AM 17.46 63.428 0.066 7.14 26.7 8.34
6/4/2022 1:00:00 AM 17.32 63.176 0.066 7.15 8.68 8.38
6/4/2022 1:15:00 AM 17.2 62.96 0.066 7.11 13.37 8.41
6/4/2022 1:30:00 AM 17.07 62.726 0.066 7.13 14.04 8.44
6/4/2022 1:45:00 AM 16.95 62.51 0.067 7.11 11.85 8.47
6/4/2022 2:00:00 AM 16.82 62.276 0.067 7.1 19.61 8.5
6/4/2022 2:15:00 AM 16.69 62.042 0.067 7.05 13.78 8.53
6/4/2022 2:30:00 AM 16.57 61.826 0.067 7.1 11.04 8.56
6/4/2022 2:45:00 AM 16.44 61.592 0.067 7.11 10.96 8.59
6/4/2022 3:00:00 AM 16.32 61.376 0.067 7.04 10.55 8.62
6/4/2022 3:15:00 AM 16.19 61.142 0.064 7.1 49.22 8.65
6/4/2022 3:30:00 AM 16.07 60.926 0.067 7.06 7.91 8.68
6/4/2022 3:45:00 AM 15.95 60.71 0.067 7.06 6.97 8.71
6/4/2022 4:00:00 AM 15.82 60.476 0.064 7.08 57.79 8.74
6/4/2022 4:15:00 AM 15.7 60.26 0.066 7.08 58.66 8.77
6/4/2022 4:30:00 AM 15.58 60.044 0.067 7.09 13.7 8.8
6/4/2022 4:45:00 AM 15.47 59.846 0.066 7.06 14.35 8.83
6/4/2022 5:00:00 AM 15.36 59.648 0.06 7.05 87.7 8.86
6/4/2022 5:15:00 AM 15.25 59.45 0.067 7.03 12.17 8.9
6/4/2022 5:30:00 AM 15.15 59.27 0.064 7 81 8.92
6/4/2022 5:45:00 AM 15.05 59.09 0.066 6.96 9.24 8.96
6/4/2022 6:00:00 AM 14.96 58.928 0.066 7.03 14.45 9.01
6/4/2022 6:15:00 AM 14.86 58.748 0.064 7.09 81.57 9.06
6/4/2022 6:30:00 AM 14.8 58.64 0.067 6.99 72.72 9.12
6/4/2022 6:45:00 AM 14.73 58.514 0.067 7.13 13.31 9.2
6/4/2022 7:00:00 AM 14.68 58.424 0.067 7.08 15.92 9.31
6/4/2022 7:15:00 AM 14.63 58.334 0.067 7.18 15.57 9.41
6/4/2022 7:30:00 AM 14.64 58.352 0.067 7.21 13.38 9.53
6/4/2022 7:45:00 AM 14.65 58.37 0.067 7.22 11.56 9.62
6/4/2022 8:00:00 AM 14.66 58.388 0.067 7.21 15.38 9.69
6/4/2022 8:15:00 AM 14.68 58.424 0.067 7.27 14.56 9.73
6/4/2022 8:30:00 AM 14.75 58.55 0.064 7.29 96.46 9.77
6/4/2022 8:45:00 AM 14.84 58.712 0.065 7.32 110.32 9.82
6/4/2022 9:00:00 AM 14.98 58.964 0.066 7.31 129.7 9.86
6/4/2022 9:15:00 AM 15.15 59.27 0.064 7.34 118.06 9.89
6/4/2022 9:30:00 AM 15.34 59.612 0.066 7.28 8.3 9.92
6/4/2022 9:45:00 AM 15.55 59.99 0.066 7.5 22.91 9.94
6/4/2022 10:00:00 AM 15.78 60.404 0.063 7.43 33.91 9.96
6/4/2022 10:15:00 AM 16.01 60.818 0.063 7.37 95.42 9.96
6/4/2022 10:30:00 AM 16.23 61.214 0.059 7.55 100.12 9.95
6/4/2022 10:45:00 AM 16.54 61.772 0.059 7.43 89.87 9.95
6/4/2022 11:00:00 AM 16.82 62.276 0.066 7.6 24.24 9.94
6/4/2022 11:15:00 AM 17.13 62.834 0.063 7.46 36.1 9.93
6/4/2022 11:30:00 AM 17.42 63.356 0.064 7.69 12.09 9.91
6/4/2022 11:45:00 AM 17.73 63.914 0.06 7.55 107.91 9.88
6/4/2022 12:00:00 PM 18.04 64.472 0.062 7.67 38.21 9.85
6/4/2022 12:15:00 PM 18.32 64.976 0.064 7.84 26.76 9.83
6/4/2022 12:30:00 PM 18.62 65.516 0.065 7.75 18.47 9.78
6/4/2022 12:45:00 PM 18.91 66.038 0.065 7.72 70.12 9.75
6/4/2022 1:00:00 PM 19.28 66.704 0.065 7.63 24.2 9.7
6/4/2022 1:15:00 PM 19.57 67.226 0.065 7.75 21.32 9.65
6/4/2022 1:30:00 PM 19.88 67.784 0.065 7.72 25.84 9.6
6/4/2022 1:45:00 PM 20.17 68.306 0.064 7.69 57.22 9.54
6/4/2022 2:00:00 PM 20.46 68.828 0.064 7.61 3.97 9.49
6/4/2022 2:15:00 PM 20.7 69.26 0.064 7.72 4.02 9.43
6/4/2022 2:30:00 PM 20.9 69.62 0.063 7.71 5.59 9.38
6/4/2022 2:45:00 PM 21.1 69.98 0.064 7.72 3.92 9.32
6/4/2022 3:00:00 PM 21.23 70.214 0.062 7.67 4.93 9.28
6/4/2022 3:15:00 PM 21.37 70.466 0.064 7.64 3.76 9.22
6/4/2022 3:30:00 PM 21.42 70.556 0.064 7.65 3.34 9.17
6/4/2022 3:45:00 PM 21.48 70.664 0.064 7.62 3.8 9.12
6/4/2022 4:00:00 PM 21.46 70.628 0.064 7.6 3.52 9.09
6/4/2022 4:15:00 PM 21.46 70.628 0.064 7.6 3.45 9.04
6/4/2022 4:30:00 PM 21.42 70.556 0.064 7.6 3.87 8.99
6/4/2022 4:45:00 PM 21.28 70.304 0.061 7.58 4.8 8.95
6/4/2022 5:00:00 PM 21.16 70.088 0.064 7.58 3.56 8.91
6/4/2022 5:15:00 PM 21.03 69.854 0.064 7.54 3.35 8.86
6/4/2022 5:30:00 PM 20.88 69.584 0.064 7.54 3.43 8.82
6/4/2022 5:45:00 PM 20.74 69.332 0.064 7.54 3.24 8.77
6/4/2022 6:00:00 PM 20.52 68.936 0.064 7.48 3.51 8.72
6/4/2022 6:15:00 PM 20.37 68.666 0.064 7.33 3.29 8.67
6/4/2022 6:30:00 PM 20.26 68.468 0.064 7.42 3.46 8.63
6/4/2022 6:45:00 PM 20.13 68.234 0.064 7.41 2.93 8.6
6/4/2022 7:00:00 PM 19.99 67.982 0.065 7.4 2.63 8.55
6/4/2022 7:15:00 PM 19.83 67.694 0.065 7.37 51.63 8.52
6/4/2022 7:30:00 PM 19.66 67.388 0.065 7.34 2.58 8.49
6/4/2022 7:45:00 PM 19.49 67.082 0.06 7.34 6.36 8.45
6/4/2022 8:00:00 PM 19.31 66.758 0.065 7.31 2.66 8.42
6/4/2022 8:15:00 PM 19.11 66.398 0.065 7.27 2.61 8.37
6/4/2022 8:30:00 PM 18.91 66.038 0.065 7.28 2.54 8.33
6/4/2022 8:45:00 PM 18.72 65.696 0.065 7.29 2.59 8.3
6/4/2022 9:00:00 PM 18.54 65.372 0.065 7.22 3 8.29
6/4/2022 9:15:00 PM 18.37 65.066 0.066 7.24 2.67 8.27
6/4/2022 9:30:00 PM 18.22 64.796 0.066 7.21 3.22 8.26
6/4/2022 9:45:00 PM 18.07 64.526 0.066 7.2 2.9 8.26
6/4/2022 10:00:00 PM 17.93 64.274 0.066 7.2 2.73 8.26
6/4/2022 10:15:00 PM 17.79 64.022 0.063 7.16 3.5 8.28
6/4/2022 10:30:00 PM 17.65 63.77 0.063 7.09 3.19 8.29
6/4/2022 10:45:00 PM 17.5 63.5 0.066 7.2 2.86 8.32
6/4/2022 11:00:00 PM 17.36 63.248 0.065 7.2 2.86 8.34
6/4/2022 11:15:00 PM 17.25 63.05 0.066 7.16 3.24 8.37
6/4/2022 11:30:00 PM 17.1 62.78 0.066 7.12 2.81 8.4
6/4/2022 11:45:00 PM 16.96 62.528 0.066 7.15 3.41 8.44
6/5/2022 12:00:00 AM 16.82 62.276 0.066 7.17 3.05 8.47
6/5/2022 12:15:00 AM 16.67 62.006 0.067 7.18 509.74 8.5
6/5/2022 12:30:00 AM 16.52 61.736 0.067 7.1 2.88 8.54
6/5/2022 12:45:00 AM 16.37 61.466 0.067 7.14 2.93 8.58
6/5/2022 1:00:00 AM 16.22 61.196 0.067 7.15 2.89 8.61
6/5/2022 1:15:00 AM 16.06 60.908 0.067 7.12 2.91 8.65
6/5/2022 1:30:00 AM 15.91 60.638 0.066 7.14 3.33 8.69
6/5/2022 1:45:00 AM 15.75 60.35 0.064 7.14 4.5 8.72
6/5/2022 2:00:00 AM 15.6 60.08 0.064 7.08 4.1 8.76
6/5/2022 2:15:00 AM 15.45 59.81 0.067 7.17 2.96 8.8
6/5/2022 2:30:00 AM 15.3 59.54 0.064 7.11 4.07 8.83
6/5/2022 2:45:00 AM 15.16 59.288 0.064 7.14 3.43 8.87
6/5/2022 3:00:00 AM 15.02 59.036 0.067 7.14 2.84 8.91
6/5/2022 3:15:00 AM 14.88 58.784 0.064 7.02 3.71 8.94
6/5/2022 3:30:00 AM 14.75 58.55 0.067 7.15 2.94 8.98
6/5/2022 3:45:00 AM 14.62 58.316 0.067 7.17 2.92 9.01
6/5/2022 4:00:00 AM 14.51 58.118 0.067 7.18 3 9.04
6/5/2022 4:15:00 AM 14.39 57.902 0.067 7.17 2.96 9.07
6/5/2022 4:30:00 AM 14.28 57.704 0.067 6.96 3.01 9.1
6/5/2022 4:45:00 AM 14.16 57.488 0.065 7.15 3.42 9.14
6/5/2022 5:00:00 AM 14.05 57.29 0.067 7.13 3.02 9.17
6/5/2022 5:15:00 AM 13.98 57.164 0.067 7.13 2.96 9.19
6/5/2022 5:30:00 AM 13.87 56.966 0.067 7.11 2.91 9.22
6/5/2022 5:45:00 AM 13.76 56.768 0.068 7.09 2.87 9.25
6/5/2022 6:00:00 AM 13.66 56.588 0.065 6.94 3.45 9.3
6/5/2022 6:15:00 AM 13.55 56.39 0.067 7.14 2.9 9.36
6/5/2022 6:30:00 AM 13.46 56.228 0.065 7.13 3.27 9.42
6/5/2022 6:45:00 AM 13.37 56.066 0.066 7.09 4.12 9.49
6/5/2022 7:00:00 AM 13.29 55.922 0.063 7.15 3.27 9.56
6/5/2022 7:15:00 AM 13.26 55.868 0.067 7.18 3.24 9.68
6/5/2022 7:30:00 AM 13.24 55.832 0.067 7.17 2.92 9.77
6/5/2022 7:45:00 AM 13.26 55.868 0.067 7.2 2.82 9.87
6/5/2022 8:00:00 AM 13.3 55.94 0.067 7.27 2.83 9.96
6/5/2022 8:15:00 AM 13.39 56.102 0.067 7.25 2.87 10.04
6/5/2022 8:30:00 AM 13.44 56.192 0.067 7.33 2.8 10.1
6/5/2022 8:45:00 AM 13.55 56.39 0.066 7.35 3.94 10.16
6/5/2022 9:00:00 AM 13.66 56.588 0.067 7.42 2.98 10.23
6/5/2022 9:15:00 AM 13.65 56.57 0.067 7.46 2.99 10.27
6/5/2022 9:30:00 AM 13.71 56.678 0.066 7.49 3 10.33
6/5/2022 9:45:00 AM 13.81 56.858 0.066 7.56 2.94 10.38
6/5/2022 10:00:00 AM 13.94 57.092 0.066 7.59 3.03 10.42
6/5/2022 10:15:00 AM 14.06 57.308 0.066 7.63 4.19 10.46
6/5/2022 10:30:00 AM 14.29 57.722 0.066 7.68 3.05 10.48
6/5/2022 10:45:00 AM 14.5 58.1 0.062 7.72 3.28 10.5
6/5/2022 11:00:00 AM 14.67 58.406 0.065 7.76 2.99 10.5
6/5/2022 11:15:00 AM 14.92 58.856 0.065 7.83 2.92 10.48
6/5/2022 11:30:00 AM 15.25 59.45 0.065 7.84 2.78 10.46
6/5/2022 11:45:00 AM 15.56 60.008 0.065 7.9 2.88 10.43
6/5/2022 12:00:00 PM 15.92 60.656 0.065 7.72 2.78 10.4
6/5/2022 12:15:00 PM 16.25 61.25 0.062 7.92 3.1 10.36
6/5/2022 12:30:00 PM 16.72 62.096 0.065 7.91 2.83 10.3
6/5/2022 12:45:00 PM 17.06 62.708 0.062 7.92 3.44 10.24
6/5/2022 1:00:00 PM 17.43 63.374 0.064 7.9 2.9 10.18
6/5/2022 1:15:00 PM 17.58 63.644 0.064 7.92 3.12 10.15
6/5/2022 1:30:00 PM 17.86 64.148 0.064 7.91 2.85 10.08
6/5/2022 1:45:00 PM 18.28 64.904 0.064 7.83 2.82 10.01
6/5/2022 2:00:00 PM 18.54 65.372 0.064 7.88 2.89 9.95
6/5/2022 2:15:00 PM 18.92 66.056 0.064 7.85 2.73 9.87
6/5/2022 2:30:00 PM 19.19 66.542 0.064 7.88 2.6 9.81
6/5/2022 2:45:00 PM 19.5 67.1 0.064 7.83 2.62 9.74
6/5/2022 3:00:00 PM 19.73 67.514 0.064 7.78 2.65 9.67
6/5/2022 3:15:00 PM 19.93 67.874 0.064 7.73 3.37 9.6
6/5/2022 3:30:00 PM 20.05 68.09 0.064 7.74 2.59 9.51
6/5/2022 3:45:00 PM 20.15 68.27 0.064 7.74 2.65 9.45
6/5/2022 4:00:00 PM 20.01 68.018 0.065 7.76 3.18 9.41
6/5/2022 4:15:00 PM 20.14 68.252 0.064 7.73 2.69 9.36
6/5/2022 4:30:00 PM 20.19 68.342 0.064 7.74 2.71 9.33
6/5/2022 4:45:00 PM 20 68 0.061 7.74 3.13 9.32
6/5/2022 5:00:00 PM 20.01 68.018 0.062 7.69 3.08 9.26
6/5/2022 5:15:00 PM 19.95 67.91 0.064 7.67 2.71 9.2
6/5/2022 5:30:00 PM 19.9 67.82 0.064 7.64 2.61 9.14
6/5/2022 5:45:00 PM 19.78 67.604 0.061 7.4 3.74 9.06
6/5/2022 6:00:00 PM 19.67 67.406 0.063 7.54 3.14 8.99
6/5/2022 6:15:00 PM 19.57 67.226 0.064 7.52 2.79 8.91
6/5/2022 6:30:00 PM 19.46 67.028 0.06 7.5 3.15 8.86
6/5/2022 6:45:00 PM 19.41 66.938 0.064 7.48 2.55 8.87
6/5/2022 7:00:00 PM 19.38 66.884 0.064 7.44 2.71 8.86
6/5/2022 7:15:00 PM 19.28 66.704 0.064 7.46 19.67 8.82
6/5/2022 7:30:00 PM 19.17 66.506 0.064 7.41 2.69 8.76
6/5/2022 7:45:00 PM 19.05 66.29 0.064 7.4 2.7 8.7
6/5/2022 8:00:00 PM 18.94 66.092 0.064 7.37 2.73 8.63
6/5/2022 8:15:00 PM 18.81 65.858 0.065 7.33 2.73 8.55
6/5/2022 8:30:00 PM 18.68 65.624 0.065 7.18 2.76 8.49
6/5/2022 8:45:00 PM 18.54 65.372 0.064 7.3 3.25 8.43
6/5/2022 9:00:00 PM 18.4 65.12 0.065 7.26 2.82 8.37
6/5/2022 9:15:00 PM 18.27 64.886 0.065 7.23 2.77 8.34
6/5/2022 9:30:00 PM 18.16 64.688 0.066 7.22 3.14 8.31
6/5/2022 9:45:00 PM 18.06 64.508 0.066 7.2 2.79 8.3
6/5/2022 10:00:00 PM 17.97 64.346 0.066 7.19 2.8 8.29
6/5/2022 10:15:00 PM 17.86 64.148 0.066 7.19 2.88 8.28
6/5/2022 10:30:00 PM 17.75 63.95 0.066 7.17 3.4 8.29
6/5/2022 10:45:00 PM 17.64 63.752 0.066 7.16 3.02 8.3
6/5/2022 11:00:00 PM 17.53 63.554 0.066 7.08 2.92 8.32
6/5/2022 11:15:00 PM 17.41 63.338 0.066 7.16 3.03 8.33
6/5/2022 11:30:00 PM 17.3 63.14 0.066 7.12 2.93 8.35
6/5/2022 11:45:00 PM 17.19 62.942 0.066 7.14 2.93 8.37
6/6/2022 12:00:00 AM 17.08 62.744 0.066 7.1 2.91 8.39
6/6/2022 12:15:00 AM 16.96 62.528 0.066 7.12 3.05 8.42
6/6/2022 12:30:00 AM 16.84 62.312 0.067 7.12 2.87 8.45
6/6/2022 12:45:00 AM 16.72 62.096 0.067 7.11 2.98 8.47
6/6/2022 1:00:00 AM 16.59 61.862 0.067 7.1 2.9 8.5
6/6/2022 1:15:00 AM 16.47 61.646 0.067 7.11 2.89 8.53
6/6/2022 1:30:00 AM 16.35 61.43 0.067 7.09 3.02 8.55
6/6/2022 1:45:00 AM 16.23 61.214 0.067 7.13 2.92 8.59
6/6/2022 2:00:00 AM 16.11 60.998 0.067 7.03 2.96 8.62
6/6/2022 2:15:00 AM 15.99 60.782 0.067 7.06 3.04 8.64
6/6/2022 2:30:00 AM 15.86 60.548 0.067 7.09 2.91 8.68
6/6/2022 2:45:00 AM 15.74 60.332 0.067 7.11 2.81 8.71
6/6/2022 3:00:00 AM 15.62 60.116 0.067 7.1 2.92 8.74
6/6/2022 3:15:00 AM 15.5 59.9 0.067 7.11 2.92 8.77
6/6/2022 3:30:00 AM 15.39 59.702 0.067 7.1 2.85 8.8
6/6/2022 3:45:00 AM 15.27 59.486 0.067 7.1 2.9 8.83
6/6/2022 4:00:00 AM 15.16 59.288 0.068 7.11 3.01 8.86
6/6/2022 4:15:00 AM 15.04 59.072 0.068 7.12 2.86 8.89
6/6/2022 4:30:00 AM 14.93 58.874 0.069 7.12 2.88 8.92
6/6/2022 4:45:00 AM 14.82 58.676 0.069 7.12 2.87 8.95
6/6/2022 5:00:00 AM 14.71 58.478 0.068 7.12 2.84 8.98
6/6/2022 5:15:00 AM 14.59 58.262 0.068 7.12 2.76 9
6/6/2022 5:30:00 AM 14.49 58.082 0.068 7.04 2.87 9.04
6/6/2022 5:45:00 AM 14.39 57.902 0.068 7.12 2.84 9.08
6/6/2022 6:00:00 AM 14.29 57.722 0.068 7.13 2.75 9.13
6/6/2022 6:15:00 AM 14.2 57.56 0.068 7.04 2.84 9.19
6/6/2022 6:30:00 AM 14.11 57.398 0.068 7.15 2.69 9.25
6/6/2022 6:45:00 AM 14.03 57.254 0.067 7.16 2.82 9.32
6/6/2022 7:00:00 AM 14.01 57.218 0.067 7.13 2.74 9.37
6/6/2022 7:15:00 AM 13.97 57.146 0.067 7.2 2.82 9.48
6/6/2022 7:30:00 AM 13.97 57.146 0.067 7.21 2.77 9.57
6/6/2022 7:45:00 AM 14.02 57.236 0.067 7.23 2.81 9.67
6/6/2022 8:00:00 AM 14.08 57.344 0.067 7.25 2.79 9.76
6/6/2022 8:15:00 AM 14.14 57.452 0.067 7.29 2.81 9.83
6/6/2022 8:30:00 AM 14.25 57.65 0.064 7.32 3.37 9.89
6/6/2022 8:45:00 AM 14.38 57.884 0.067 7.35 2.91 9.95
6/6/2022 9:00:00 AM 14.54 58.172 0.067 7.32 2.98 9.99
6/6/2022 9:15:00 AM 14.69 58.442 0.067 7.46 3.03 10.04
6/6/2022 9:30:00 AM 14.82 58.676 0.067 7.48 2.88 10.07
6/6/2022 9:45:00 AM 14.96 58.928 0.066 7.44 2.96 10.11
6/6/2022 10:00:00 AM 15.22 59.396 0.066 7.57 2.9 10.13
6/6/2022 10:15:00 AM 15.5 59.9 0.066 7.6 2.86 10.14
6/6/2022 10:30:00 AM 15.87 60.566 0.066 7.63 2.78 10.15
6/6/2022 10:45:00 AM 16.21 61.178 0.066 7.65 2.98 10.14
6/6/2022 11:00:00 AM 16.58 61.844 0.066 7.69 3.03 10.12
6/6/2022 11:15:00 AM 16.94 62.492 0.066 7.75 3.07 10.1
6/6/2022 11:30:00 AM 17.37 63.266 0.066 7.84 3.09 10.08
6/6/2022 11:45:00 AM 17.51 63.518 0.065 7.82 3.16 10.02
6/6/2022 12:00:00 PM 17.97 64.346 0.065 7.83 2.92 9.99
6/6/2022 12:15:00 PM 18.31 64.958 0.065 7.77 2.83 9.95
6/6/2022 12:30:00 PM 18.71 65.67799 0.065 7.88 2.93 9.9
6/6/2022 12:45:00 PM 19.07 66.326 0.065 7.88 2.96 9.87
6/6/2022 1:00:00 PM 19.42 66.956 0.065 7.86 3.01 9.81
6/6/2022 1:15:00 PM 19.78 67.604 0.065 7.76 3.02 9.77
6/6/2022 1:30:00 PM 20.09 68.162 0.065 7.89 3.91 9.7
6/6/2022 1:45:00 PM 20.15 68.27 0.064 7.72 2.95 9.65
6/6/2022 2:00:00 PM 19.89 67.802 0.064 7.63 2.9 9.54
6/6/2022 2:15:00 PM 20.31 68.558 0.064 7.83 2.91 9.53
6/6/2022 2:30:00 PM 20.44 68.792 0.064 7.83 3.02 9.47
6/6/2022 2:45:00 PM 20.77 69.386 0.064 7.88 2.95 9.42
6/6/2022 3:00:00 PM 20.9 69.62 0.064 7.85 2.87 9.38
6/6/2022 3:15:00 PM 20.98 69.764 0.064 7.88 2.82 9.35
6/6/2022 3:30:00 PM 20.74 69.332 0.064 7.8 2.93 9.29
6/6/2022 3:45:00 PM 20.83 69.494 0.064 7.87 2.98 9.28
6/6/2022 4:00:00 PM 20.99 69.782 0.064 7.82 2.89 9.23
6/6/2022 4:15:00 PM 21.06 69.908 0.064 7.81 4.75 9.2
6/6/2022 4:30:00 PM 21.01 69.818 0.065 7.8 2.9 9.15
6/6/2022 4:45:00 PM 20.89 69.602 0.065 7.77 3 9.05
6/6/2022 5:00:00 PM 20.73 69.314 0.065 7.64 2.85 8.89
6/6/2022 5:15:00 PM 20.71 69.278 0.065 7.68 2.95 8.94
6/6/2022 5:30:00 PM 20.65 69.17 0.065 7.66 2.91 8.88
6/6/2022 5:45:00 PM 20.53 68.954 0.065 7.58 2.81 8.79
6/6/2022 6:00:00 PM 20.45 68.81 0.065 7.58 2.65 8.77
6/6/2022 6:15:00 PM 20.34 68.612 0.065 7.52 2.83 8.67
6/6/2022 6:30:00 PM 20.27 68.486 0.065 7.51 2.78 8.71
6/6/2022 6:45:00 PM 20.21 68.378 0.065 7.51 2.72 8.71
6/6/2022 7:00:00 PM 20.16 68.288 0.065 7.5 2.47 8.69
6/6/2022 7:15:00 PM 20.04 68.07201 0.065 7.28 2.73 8.6
6/6/2022 7:30:00 PM 19.94 67.892 0.065 7.4 2.67 8.51
6/6/2022 7:45:00 PM 19.86 67.748 0.065 7.34 2.78 8.45
6/6/2022 8:00:00 PM 19.77 67.586 0.064 7.36 3.3 8.39
6/6/2022 8:15:00 PM 19.7 67.46 0.065 7.29 2.78 8.32
6/6/2022 8:30:00 PM 19.62 67.316 0.065 7.3 2.92 8.24
6/6/2022 8:45:00 PM 19.54 67.172 0.066 7.27 2.97 8.16
6/6/2022 9:00:00 PM 19.46 67.028 0.066 7.21 2.96 8.1
6/6/2022 9:15:00 PM 19.37 66.866 0.066 7.22 3.05 8.05
6/6/2022 9:30:00 PM 19.31 66.758 0.066 7.11 3.08 8.02
6/6/2022 9:45:00 PM 19.24 66.632 0.066 7.19 2.91 7.99
6/6/2022 10:00:00 PM 19.17 66.506 0.066 7.1 5.29 7.97
6/6/2022 10:15:00 PM 19.11 66.398 0.066 7.16 4.19 7.95
6/6/2022 10:30:00 PM 19.05 66.29 0.066 7.15 3.48 7.96
6/6/2022 10:45:00 PM 18.98 66.164 0.067 7.12 3.03 7.96
6/6/2022 11:00:00 PM 18.92 66.056 0.067 7.13 3.07 7.96
6/6/2022 11:15:00 PM 18.86 65.948 0.067 7.13 3.02 7.97
6/6/2022 11:30:00 PM 18.8 65.84 0.067 7.06 3.04 7.98
6/6/2022 11:45:00 PM 18.73 65.714 0.067 7.13 3.04 7.99
6/7/2022 12:00:00 AM 18.65 65.57 0.067 7.14 3.31 8
6/7/2022 12:15:00 AM 18.58 65.444 0.067 7.15 3.21 8.01
6/7/2022 12:30:00 AM 18.51 65.318 0.067 7.13 3.09 8.01
6/7/2022 12:45:00 AM 18.44 65.192 0.067 7.12 3.32 8.03
6/7/2022 1:00:00 AM 18.37 65.066 0.067 7.13 3.26 8.05
6/7/2022 1:15:00 AM 18.3 64.94 0.068 7.1 3.03 8.07
6/7/2022 1:30:00 AM 18.24 64.832 0.068 7.14 3.08 8.08
6/7/2022 1:45:00 AM 18.18 64.724 0.067 7.12 3.48 8.1
6/7/2022 2:00:00 AM 18.11 64.598 0.068 7.12 3.08 8.11
6/7/2022 2:15:00 AM 18.05 64.49 0.068 7.13 3.07 8.13
6/7/2022 2:30:00 AM 17.99 64.382 0.068 7.13 2.99 8.15
6/7/2022 2:45:00 AM 17.92 64.256 0.068 7.13 2.99 8.16
6/7/2022 3:00:00 AM 17.85 64.13 0.068 7.13 3.08 8.18
6/7/2022 3:15:00 AM 17.78 64.004 0.068 7.12 2.95 8.19
6/7/2022 3:30:00 AM 17.72 63.896 0.068 7.11 3.04 8.21
6/7/2022 3:45:00 AM 17.65 63.77 0.068 7.09 6.33 8.22
6/7/2022 4:00:00 AM 17.58 63.644 0.068 7.1 2.88 8.23
6/7/2022 4:15:00 AM 17.51 63.518 0.068 7.12 2.98 8.25
6/7/2022 4:30:00 AM 17.45 63.41 0.068 7.12 3.02 8.27
6/7/2022 4:45:00 AM 17.39 63.302 0.068 7.11 3.08 8.29
6/7/2022 5:00:00 AM 17.33 63.194 0.068 7.1 2.92 8.3
6/7/2022 5:15:00 AM 17.27 63.086 0.068 7 3.01 8.32
6/7/2022 5:30:00 AM 17.21 62.978 0.068 7.12 2.93 8.34
6/7/2022 5:45:00 AM 17.17 62.906 0.064 7.13 3.01 8.35
6/7/2022 6:00:00 AM 17.11 62.798 0.068 7.11 2.82 8.38
6/7/2022 6:15:00 AM 17.07 62.726 0.066 7.14 4.28 8.43
6/7/2022 6:30:00 AM 17.03 62.654 0.068 7.14 2.81 8.49
6/7/2022 6:45:00 AM 17.01 62.618 0.068 7.18 2.95 8.55
6/7/2022 7:00:00 AM 17 62.6 0.068 7.15 2.86 8.61
6/7/2022 7:15:00 AM 16.98 62.564 0.068 7.15 2.84 8.66
6/7/2022 7:30:00 AM 16.95 62.51 0.068 7.16 2.74 8.62
6/7/2022 7:45:00 AM 16.93 62.474 0.068 7.16 5.31 8.65
6/7/2022 8:00:00 AM 16.91 62.438 0.068 7.19 2.97 8.71
6/7/2022 8:15:00 AM 16.9 62.42 0.068 7.13 2.8 8.76
6/7/2022 8:30:00 AM 16.89 62.402 0.068 7.18 2.98 8.81
6/7/2022 8:45:00 AM 16.87 62.366 0.068 7.19 2.9 8.82
6/7/2022 9:00:00 AM 16.86 62.348 0.068 7.16 2.85 8.89
6/7/2022 9:15:00 AM 16.83 62.294 0.068 7.2 3.07 8.96
6/7/2022 9:30:00 AM 16.84 62.312 0.067 7.24 3.14 9.05
6/7/2022 9:45:00 AM 16.84 62.312 0.067 7.26 3.02 9.07
6/7/2022 10:00:00 AM 16.87 62.366 0.067 7.32 3.12 9.19
6/7/2022 10:15:00 AM 16.9 62.42 0.067 7.33 2.7 9.23
6/7/2022 10:30:00 AM 16.89 62.402 0.067 7.28 4.62 9.26
6/7/2022 10:45:00 AM 16.9 62.42 0.067 7.33 2.81 9.3
6/7/2022 11:00:00 AM 16.85 62.33 0.065 7.28 4.78 9.25
6/7/2022 11:15:00 AM 16.81 62.258 0.066 7.16 3.37 9.21
6/7/2022 11:30:00 AM 16.8 62.24 0.101 7.3 9.48 9.22
6/7/2022 11:45:00 AM 16.78 62.204 0.09 7.34 9.24 9.24
6/7/2022 12:00:00 PM 16.76 62.168 0.101 7.22 17.42 9.22
6/7/2022 12:15:00 PM 16.74 62.132 0.078 7.34 7.54 9.24
6/7/2022 12:30:00 PM 16.73 62.114 0.071 7.32 4.36 9.26
6/7/2022 12:45:00 PM 16.72 62.096 0.063 7.34 5.11 9.29
6/7/2022 1:00:00 PM 16.74 62.132 0.068 7.39 4.11 9.32
6/7/2022 1:15:00 PM 16.79 62.222 0.07 7.4 3.69 9.39
6/7/2022 1:30:00 PM 16.78 62.204 0.069 7.39 3.52 9.34
6/7/2022 1:45:00 PM 16.78 62.204 0.068 7.34 3.33 9.35
6/7/2022 2:00:00 PM 16.79 62.222 0.067 7.38 4.18 9.36
6/7/2022 2:15:00 PM 16.8 62.24 0.067 7.36 3.52 9.36
6/7/2022 2:30:00 PM 16.8 62.24 0.065 7.4 3.89 9.35
6/7/2022 2:45:00 PM 16.82 62.276 0.066 7.24 3.46 9.37
6/7/2022 3:00:00 PM 16.82 62.276 0.065 7.32 3.8 9.36
6/7/2022 3:15:00 PM 16.82 62.276 0.065 7.35 3.91 9.33
6/7/2022 3:30:00 PM 16.81 62.258 0.065 7.39 3.94 9.31
6/7/2022 3:45:00 PM 16.82 62.276 0.065 7.4 3.92 9.31
6/7/2022 4:00:00 PM 16.86 62.348 0.058 7.43 4.23 9.34
6/7/2022 4:15:00 PM 16.84 62.312 0.064 7.39 5.66 9.28
6/7/2022 4:30:00 PM 16.85 62.33 0.064 7.18 5.62 9.3
6/7/2022 4:45:00 PM 16.92 62.456 0.064 7.39 8.96 9.35
6/7/2022 5:00:00 PM 16.93 62.474 0.061 7.39 4.04 9.34
6/7/2022 5:15:00 PM 16.92 62.456 0.064 7.42 5.04 9.29
6/7/2022 5:30:00 PM 16.9 62.42 0.064 7.41 4.42 9.23
6/7/2022 5:45:00 PM 16.87 62.366 0.064 7.29 3.67 9.17
6/7/2022 6:00:00 PM 16.84 62.312 0.065 7.38 4.28 9.11
6/7/2022 6:15:00 PM 16.8 62.24 0.061 7.35 4.42 9.06
6/7/2022 6:30:00 PM 16.76 62.168 0.065 7.33 3.63 9.02
6/7/2022 6:45:00 PM 16.72 62.096 0.065 7.29 4.49 9
6/7/2022 7:00:00 PM 16.68 62.024 0.064 7.22 4.19 8.96
6/7/2022 7:15:00 PM 16.63 61.934 0.06 7.23 4.56 8.94
6/7/2022 7:30:00 PM 16.59 61.862 0.064 7.2 3.81 8.91
6/7/2022 7:45:00 PM 16.54 61.772 0.065 7.22 4.19 8.91
6/7/2022 8:00:00 PM 16.5 61.7 0.06 7.15 4.53 8.91
6/7/2022 8:15:00 PM 16.45 61.61 0.066 7.21 4.4 8.9
6/7/2022 8:30:00 PM 16.39 61.502 0.063 7.13 5 8.89
6/7/2022 8:45:00 PM 16.34 61.412 0.066 7.09 4.44 8.86
6/7/2022 9:00:00 PM 16.28 61.304 0.066 7.09 4.06 8.84
6/7/2022 9:15:00 PM 16.23 61.214 0.063 7.1 4.69 8.83
6/7/2022 9:30:00 PM 16.18 61.124 0.065 7.12 4.48 8.83
6/7/2022 9:45:00 PM 16.14 61.052 0.065 7.17 4.68 8.83
6/7/2022 10:00:00 PM 16.09 60.962 0.064 7.11 5.04 8.83
6/7/2022 10:15:00 PM 16.04 60.872 0.063 7.02 5.2 8.84
6/7/2022 10:30:00 PM 15.99 60.782 0.063 7.06 5.4 8.84
6/7/2022 10:45:00 PM 15.96 60.728 0.065 7.1 4.55 8.84
6/7/2022 11:00:00 PM 15.93 60.674 0.065 7.13 4.7 8.85
6/7/2022 11:15:00 PM 15.9 60.62 0.065 7.07 4.68 8.85
6/7/2022 11:30:00 PM 15.88 60.584 0.065 7.08 4.3 8.85
6/7/2022 11:45:00 PM 15.85 60.53 0.059 7 5.42 8.86
6/8/2022 12:00:00 AM 15.82 60.476 0.065 7.07 4.51 8.87
6/8/2022 12:15:00 AM 15.79 60.422 0.065 7.09 6.73 8.87
6/8/2022 12:30:00 AM 15.75 60.35 0.066 7.14 4.63 8.88
6/8/2022 12:45:00 AM 15.7 60.26 0.066 7.07 4.73 8.89
6/8/2022 1:00:00 AM 15.66 60.188 0.066 7.09 4.56 8.9
6/8/2022 1:15:00 AM 15.6 60.08 0.066 7.05 4.63 8.91
6/8/2022 1:30:00 AM 15.54 59.972 0.066 7.11 4.45 8.92
6/8/2022 1:45:00 AM 15.47 59.846 0.066 7 4.67 8.93
6/8/2022 2:00:00 AM 15.41 59.738 0.066 7.13 4.59 8.94
6/8/2022 2:15:00 AM 15.34 59.612 0.066 7.16 4.52 8.96
6/8/2022 2:30:00 AM 15.28 59.504 0.066 7.14 4.64 8.98
6/8/2022 2:45:00 AM 15.22 59.396 0.066 7.16 4.62 8.99
6/8/2022 3:00:00 AM 15.17 59.306 0.066 7.14 4.55 9.01
6/8/2022 3:15:00 AM 15.12 59.216 0.066 7.15 4.79 9.02
6/8/2022 3:30:00 AM 15.07 59.126 0.066 7.13 4.56 9.04
6/8/2022 3:45:00 AM 15.02 59.036 0.066 7.16 4.22 9.05
6/8/2022 4:00:00 AM 14.97 58.946 0.066 7.12 4.25 9.07
6/8/2022 4:15:00 AM 14.92 58.856 0.066 7.18 4.28 9.08
6/8/2022 4:30:00 AM 14.87 58.766 0.066 7.1 4.35 9.1
6/8/2022 4:45:00 AM 14.81 58.658 0.066 7.1 4.4 9.11
6/8/2022 5:00:00 AM 14.76 58.568 0.066 7.17 5.55 9.12
6/8/2022 5:15:00 AM 14.71 58.478 0.066 7.17 4.38 9.14
6/8/2022 5:30:00 AM 14.66 58.388 0.066 7.13 5.75 9.16
6/8/2022 5:45:00 AM 14.61 58.298 0.066 7.15 4.13 9.17
6/8/2022 6:00:00 AM 14.56 58.208 0.063 7.12 5.29 9.2
6/8/2022 6:15:00 AM 14.52 58.136 0.065 7.16 4.08 9.23
6/8/2022 6:30:00 AM 14.46 58.028 0.063 7.15 4.58 9.27
6/8/2022 6:45:00 AM 14.42 57.956 0.065 7.17 5.3 9.34
6/8/2022 7:00:00 AM 14.41 57.938 0.065 7.12 3.88 9.39
6/8/2022 7:15:00 AM 14.39 57.902 0.065 7.23 6.53 9.45
6/8/2022 7:30:00 AM 14.39 57.902 0.065 7.27 4.91 9.53
6/8/2022 7:45:00 AM 14.4 57.92 0.065 7.23 3.79 9.6
6/8/2022 8:00:00 AM 14.44 57.992 0.065 7.27 3.57 9.66
6/8/2022 8:15:00 AM 14.53 58.154 0.065 7.26 3.58 9.73
6/8/2022 8:30:00 AM 14.62 58.316 0.063 7.26 4.83 9.78
6/8/2022 8:45:00 AM 14.73 58.514 0.065 7.33 3.84 9.81
6/8/2022 9:00:00 AM 14.83 58.694 0.065 7.27 3.83 9.85
6/8/2022 9:15:00 AM 14.91 58.838 0.063 7.37 4.02 9.88
6/8/2022 9:30:00 AM 14.98 58.964 0.064 7.31 3.78 9.91
6/8/2022 9:45:00 AM 14.93 58.874 0.064 7.47 3.57 9.91
6/8/2022 10:00:00 AM 15.02 59.036 0.062 7.47 6.24 9.96
6/8/2022 10:15:00 AM 15.14 59.252 0.061 7.54 4.8 9.99
6/8/2022 10:30:00 AM 15.32 59.576 0.064 7.39 3.29 10.03
6/8/2022 10:45:00 AM 15.35 59.63 0.064 7.61 3.25 10.04
6/8/2022 11:00:00 AM 15.43 59.774 0.061 7.48 4.6 10.05
6/8/2022 11:15:00 AM 15.67 60.206 0.064 7.46 3.18 10.06
6/8/2022 11:30:00 AM 16.19 61.142 0.057 7.76 3.99 10.04
6/8/2022 11:45:00 AM 16.37 61.466 0.063 7.61 3.21 10.02
6/8/2022 12:00:00 PM 16.83 62.294 0.06 7.8 6.61 9.99
6/8/2022 12:15:00 PM 16.83 62.294 0.063 7.72 3.18 9.94
6/8/2022 12:30:00 PM 17.39 63.302 0.059 7.84 3.76 9.91
6/8/2022 12:45:00 PM 17.57 63.626 0.062 7.83 3.59 9.88
6/8/2022 1:00:00 PM 18.03 64.454 0.063 7.84 5.1 9.83
6/8/2022 1:15:00 PM 18.25 64.85 0.063 7.62 3.02 9.76
6/8/2022 1:30:00 PM 18.51 65.318 0.063 7.81 3.02 9.73
6/8/2022 1:45:00 PM 18.33 64.994 0.06 7.74 4.13 9.66
6/8/2022 2:00:00 PM 18.72 65.696 0.063 7.65 2.89 9.64
6/8/2022 2:15:00 PM 19.09 66.362 0.063 7.62 2.89 9.59
6/8/2022 2:30:00 PM 19.74 67.532 0.063 7.73 3.21 9.53
6/8/2022 2:45:00 PM 20.06 68.108 0.063 7.79 2.81 9.47
6/8/2022 3:00:00 PM 20.37 68.666 0.063 7.76 2.79 9.39
6/8/2022 3:15:00 PM 20.57 69.026 0.063 7.66 2.79 9.32
6/8/2022 3:30:00 PM 20.7 69.26 0.063 7.65 3.5 9.25
6/8/2022 3:45:00 PM 20.65 69.17 0.063 7.67 2.75 9.18
6/8/2022 4:00:00 PM 20.65 69.17 0.063 7.63 2.76 9.12
6/8/2022 4:15:00 PM 20.54 68.972 0.063 7.6 2.75 9.05
6/8/2022 4:30:00 PM 20.63 69.134 0.062 7.62 2.87 9.01
6/8/2022 4:45:00 PM 20.67 69.206 0.063 7.61 2.75 8.97
6/8/2022 5:00:00 PM 20.64 69.152 0.063 7.54 2.74 8.92
6/8/2022 5:15:00 PM 20.64 69.152 0.063 7.56 2.74 8.86
6/8/2022 5:30:00 PM 20.64 69.152 0.061 7.57 6.5 8.8
6/8/2022 5:45:00 PM 20.66 69.188 0.061 7.57 4 8.79
6/8/2022 6:00:00 PM 20.65 69.17 0.062 7.54 2.75 8.76
6/8/2022 6:15:00 PM 20.6 69.08 0.063 7.51 2.75 8.69
6/8/2022 6:30:00 PM 20.6 69.08 0.06 7.49 3.33 8.65
6/8/2022 6:45:00 PM 20.53 68.954 0.063 7.43 2.77 8.57
6/8/2022 7:00:00 PM 20.49 68.882 0.057 7.45 3.36 8.53
6/8/2022 7:15:00 PM 20.43 68.774 0.063 7.37 2.8 8.47
6/8/2022 7:30:00 PM 20.35 68.63 0.061 7.41 3.33 8.41
6/8/2022 7:45:00 PM 20.24 68.432 0.064 7.37 6.25 8.33
6/8/2022 8:00:00 PM 20.13 68.234 0.064 7.28 2.72 8.27
6/8/2022 8:15:00 PM 20.01 68.018 0.064 7.32 2.8 8.2
6/8/2022 8:30:00 PM 19.9 67.82 0.062 7.29 3.48 8.15
6/8/2022 8:45:00 PM 19.79 67.622 0.064 7.22 2.95 8.09
6/8/2022 9:00:00 PM 19.69 67.442 0.063 7.25 3.51 8.04
6/8/2022 9:15:00 PM 19.58 67.244 0.064 7.19 4.25 8.01
6/8/2022 9:30:00 PM 19.48 67.064 0.06 7.19 4.68 7.98
6/8/2022 9:45:00 PM 19.39 66.902 0.066 7.16 3.97 7.96
6/8/2022 10:00:00 PM 19.3 66.74 0.066 7.16 2.96 7.96
6/8/2022 10:15:00 PM 19.22 66.596 0.065 7.17 3.41 7.95
6/8/2022 10:30:00 PM 19.16 66.488 0.059 7.15 3.59 7.96
6/8/2022 10:45:00 PM 19.08 66.344 0.066 7.14 3.35 7.96
6/8/2022 11:00:00 PM 19 66.2 0.066 7.14 3.04 7.97
6/8/2022 11:15:00 PM 18.92 66.056 0.066 7.14 3.2 7.98
6/8/2022 11:30:00 PM 18.83 65.894 0.066 7.11 3.39 7.99
6/8/2022 11:45:00 PM 18.75 65.75 0.066 7.13 3.43 8
6/9/2022 12:00:00 AM 18.66 65.588 0.065 7.09 3.96 8.04
6/9/2022 12:15:00 AM 18.53 65.354 0.065 7.13 3.69 8.09
6/9/2022 12:30:00 AM 18.42 65.156 0.1 7.25 48.3 8.15
6/9/2022 12:45:00 AM 18.36 65.048 0.072 7.12 6.02 8.1
6/9/2022 1:00:00 AM 18.24 64.832 0.071 7.08 6.06 8.12
6/9/2022 1:15:00 AM 18.12 64.616 0.076 7.19 35.39 8.2
6/9/2022 1:30:00 AM 18.04 64.472 0.071 7.13 13.22 8.19
6/9/2022 1:45:00 AM 17.97 64.346 0.068 7.06 7.61 8.15
6/9/2022 2:00:00 AM 17.91 64.238 0.065 7.08 4.85 8.14
6/9/2022 2:15:00 AM 17.85 64.13 0.066 7 4.16 8.13
6/9/2022 2:30:00 AM 17.78 64.004 0.066 7.05 4.07 8.13
6/9/2022 2:45:00 AM 17.72 63.896 0.066 7.06 7.89 8.15
6/9/2022 3:00:00 AM 17.65 63.77 0.06 7.09 5.15 8.16
6/9/2022 3:15:00 AM 17.58 63.644 0.062 7.08 6.17 8.17
6/9/2022 3:30:00 AM 17.51 63.518 0.065 7.07 5.26 8.19
6/9/2022 3:45:00 AM 17.44 63.392 0.066 7.1 8.85 8.22
6/9/2022 4:00:00 AM 17.37 63.266 0.066 7.09 4.38 8.25
6/9/2022 4:15:00 AM 17.3 63.14 0.066 7.09 4.41 8.29
6/9/2022 4:30:00 AM 17.23 63.014 0.064 7.08 5.54 8.32
6/9/2022 4:45:00 AM 17.14 62.852 0.066 7.09 5.86 8.35
6/9/2022 5:00:00 AM 17.05 62.69 0.062 7.01 8.12 8.38
6/9/2022 5:15:00 AM 16.95 62.51 0.067 7.04 9.35 8.42
6/9/2022 5:30:00 AM 16.86 62.348 0.067 7.04 11.35 8.47
6/9/2022 5:45:00 AM 16.77 62.186 0.064 7.08 12.68 8.51
6/9/2022 6:00:00 AM 16.68 62.024 0.065 7.02 12.61 8.57
6/9/2022 6:15:00 AM 16.6 61.88 0.061 7 12.99 8.62
6/9/2022 6:30:00 AM 16.51 61.718 0.065 7.14 13.51 8.67
6/9/2022 6:45:00 AM 16.41 61.538 0.065 7.12 12.49 8.72
6/9/2022 7:00:00 AM 16.3 61.34 0.065 7.1 17.14 8.78
6/9/2022 7:15:00 AM 16.18 61.124 0.077 7.07 19.22 8.84
6/9/2022 7:30:00 AM 16.06 60.908 0.065 7.17 18.95 8.9
6/9/2022 7:45:00 AM 15.94 60.692 0.065 7.22 15.52 8.96
6/9/2022 8:00:00 AM 15.84 60.512 0.064 7.16 17.27 9
6/9/2022 8:15:00 AM 15.77 60.386 0.063 7.17 15.62 9.04
6/9/2022 8:30:00 AM 15.72 60.296 0.065 7.19 17.79 9.09
6/9/2022 8:45:00 AM 15.7 60.26 0.065 7.22 15.19 9.15
6/9/2022 9:00:00 AM 15.69 60.242 0.065 7.18 14.26 9.19
6/9/2022 9:15:00 AM 15.72 60.296 0.064 7.22 14.41 9.25
6/9/2022 9:30:00 AM 15.74 60.332 0.064 7.23 15.47 9.3
6/9/2022 9:45:00 AM 15.8 60.44 0.064 7.18 16.21 9.33
6/9/2022 10:00:00 AM 15.88 60.584 0.058 7.23 16.1 9.37
6/9/2022 10:15:00 AM 15.95 60.71 0.064 7.31 15.63 9.42
6/9/2022 10:30:00 AM 15.96 60.728 0.063 7.28 15.08 9.42
6/9/2022 10:45:00 AM 15.97 60.746 0.064 7.32 13.99 9.42
6/9/2022 11:00:00 AM 15.96 60.728 0.064 7.3 13.41 9.4
6/9/2022 11:15:00 AM 16.01 60.818 0.064 7.33 12.82 9.42
6/9/2022 11:30:00 AM 16.07 60.926 0.064 7.32 11.97 9.44
6/9/2022 11:45:00 AM 16.24 61.232 0.064 7.35 11.7 9.51
6/9/2022 12:00:00 PM 16.25 61.25 0.064 7.32 11.95 9.5
6/9/2022 12:15:00 PM 16.24 61.232 0.064 7.31 10.95 9.5
6/9/2022 12:30:00 PM 16.22 61.196 0.063 7.42 10.84 9.46
6/9/2022 12:45:00 PM 16.21 61.178 0.063 7.39 1979.56 9.45
6/9/2022 1:00:00 PM 16.21 61.178 0.061 7.37 10.61 9.44
6/9/2022 1:15:00 PM 16.26 61.268 0.063 7.36 9.63 9.46
6/9/2022 1:30:00 PM 16.37 61.466 0.057 7.44 11.26 9.5
6/9/2022 1:45:00 PM 16.45 61.61 0.062 7.35 8.91 9.55
6/9/2022 2:00:00 PM 16.54 61.772 0.062 7.34 8.73 9.56
6/9/2022 2:15:00 PM 16.58 61.844 0.062 7.33 8.26 9.56
6/9/2022 2:30:00 PM 16.6 61.88 0.062 7.46 8.03 9.54
6/9/2022 2:45:00 PM 16.66 61.988 0.062 7.49 8.1 9.55
6/9/2022 3:00:00 PM 16.76 62.168 0.061 7.49 7.47 9.56
6/9/2022 3:15:00 PM 16.77 62.186 0.061 7.48 7.27 9.52
6/9/2022 3:30:00 PM 16.83 62.294 0.061 7.38 7.33 9.52
6/9/2022 3:45:00 PM 16.82 62.276 0.058 7.47 7.41 9.48
6/9/2022 4:00:00 PM 16.81 62.258 0.061 7.47 6.28 9.42
6/9/2022 4:15:00 PM 16.76 62.168 0.061 7.43 6.5 9.34
6/9/2022 4:30:00 PM 16.78 62.204 0.061 7.41 6.38 9.34
6/9/2022 4:45:00 PM 16.82 62.276 0.061 7.42 6.02 9.35
6/9/2022 5:00:00 PM 16.84 62.312 0.061 7.41 5.87 9.36
6/9/2022 5:15:00 PM 16.91 62.438 0.061 7.44 6.07 9.39
6/9/2022 5:30:00 PM 16.99 62.582 0.061 7.42 5.63 9.38
6/9/2022 5:45:00 PM 17.01 62.618 0.061 7.41 5.52 9.35
6/9/2022 6:00:00 PM 17.06 62.708 0.062 7.37 5.38 9.32
6/9/2022 6:15:00 PM 17.09 62.762 0.061 7.41 5.78 9.27
6/9/2022 6:30:00 PM 17.09 62.762 0.061 7.39 5.68 9.22
6/9/2022 6:45:00 PM 17.06 62.708 0.059 7.38 6.08 9.19
6/9/2022 7:00:00 PM 17 62.6 0.061 7.35 5.36 9.14
6/9/2022 7:15:00 PM 16.94 62.492 0.062 7.34 5.13 9.1
6/9/2022 7:30:00 PM 16.88 62.384 0.062 7.34 4.98 9.08
6/9/2022 7:45:00 PM 16.83 62.294 0.062 7.31 4.89 9.05
6/9/2022 8:00:00 PM 16.77 62.186 0.062 7.32 4.99 9.01
6/9/2022 8:15:00 PM 16.69 62.042 0.062 7.29 4.92 8.97
6/9/2022 8:30:00 PM 16.62 61.916 0.062 7.26 4.88 8.93
6/9/2022 8:45:00 PM 16.54 61.772 0.063 7.25 4.87 8.89
6/9/2022 9:00:00 PM 16.47 61.646 0.063 7.24 4.9 8.86
6/9/2022 9:15:00 PM 16.38 61.484 0.062 7.17 5.4 8.83
6/9/2022 9:30:00 PM 16.29 61.322 0.063 7.19 4.97 8.83
6/9/2022 9:45:00 PM 16.2 61.16 0.063 7.2 4.95 8.82
6/9/2022 10:00:00 PM 16.11 60.998 0.064 7.2 4.81 8.83
6/9/2022 10:15:00 PM 16 60.8 0.064 7.2 4.96 8.83
6/9/2022 10:30:00 PM 15.9 60.62 0.064 7.19 5.02 8.85
6/9/2022 10:45:00 PM 15.8 60.44 0.064 7.17 4.8 8.87
6/9/2022 11:00:00 PM 15.7 60.26 0.064 7.1 4.69 8.88
6/9/2022 11:15:00 PM 15.6 60.08 0.064 7.15 4.77 8.9
6/9/2022 11:30:00 PM 15.5 59.9 0.064 7.16 4.81 8.92
6/9/2022 11:45:00 PM 15.4 59.72 0.065 7.17 4.67 8.95
6/10/2022 12:00:00 AM 15.31 59.558 0.065 7.18 4.68 8.97
6/10/2022 12:15:00 AM 15.24 59.432 0.065 7.17 4.64 8.98
6/10/2022 12:30:00 AM 15.16 59.288 0.065 7.17 4.52 9
6/10/2022 12:45:00 AM 15.08 59.144 0.065 7.16 4.5 9.02
6/10/2022 1:00:00 AM 15.01 59.018 0.065 7.02 4.5 9.04
6/10/2022 1:15:00 AM 14.95 58.91 0.065 7.16 4.42 9.06
6/10/2022 1:30:00 AM 14.88 58.784 0.065 7.19 4.33 9.07
6/10/2022 1:45:00 AM 14.82 58.676 0.066 7.15 4.26 9.1
6/10/2022 2:00:00 AM 14.76 58.568 0.064 7.18 5.72 9.1
6/10/2022 2:15:00 AM 14.7 58.46 0.066 7.23 4.27 9.12
6/10/2022 2:30:00 AM 14.64 58.352 0.066 7.2 4.33 9.14
6/10/2022 2:45:00 AM 14.58 58.244 0.066 7.12 4.26 9.15
6/10/2022 3:00:00 AM 14.51 58.118 0.066 7.2 4.2 9.17
6/10/2022 3:15:00 AM 14.45 58.01 0.066 7.16 13.74 9.19
6/10/2022 3:30:00 AM 14.39 57.902 0.065 7.14 5.15 9.21
6/10/2022 3:45:00 AM 14.33 57.794 0.065 7.15 4.66 9.22
6/10/2022 4:00:00 AM 14.27 57.686 0.065 7.17 22.91 9.23
6/10/2022 4:15:00 AM 14.21 57.578 0.067 7.16 14.46 9.25
6/10/2022 4:30:00 AM 14.15 57.47 0.067 7.15 22.81 9.26
6/10/2022 4:45:00 AM 14.09 57.362 0.067 7.16 18.87 9.28
6/10/2022 5:00:00 AM 14.03 57.254 0.067 7.16 5.22 9.3
6/10/2022 5:15:00 AM 14.02 57.236 0.067 7.17 23.95 9.3
6/10/2022 5:30:00 AM 13.96 57.128 0.067 7.18 20.85 9.31
6/10/2022 5:45:00 AM 13.91 57.038 0.067 7.18 18.48 9.33
6/10/2022 6:00:00 AM 13.86 56.948 0.067 7.14 22.44 9.36
6/10/2022 6:15:00 AM 13.82 56.876 0.067 7.18 26.75 9.39
6/10/2022 6:30:00 AM 13.78 56.804 0.066 7.13 13.37 9.44
6/10/2022 6:45:00 AM 13.75 56.75 0.067 7.11 16.63 9.48
6/10/2022 7:00:00 AM 13.72 56.696 0.067 7.2 16.35 9.54
6/10/2022 7:15:00 AM 13.7 56.66 0.067 7.24 18.39 9.6
6/10/2022 7:30:00 AM 13.69 56.642 0.067 7.24 16.72 9.67
6/10/2022 7:45:00 AM 13.7 56.66 0.067 7.27 17.08 9.76
6/10/2022 8:00:00 AM 13.72 56.696 0.067 7.3 16.57 9.85
6/10/2022 8:15:00 AM 13.75 56.75 0.066 7.33 20.24 9.91
6/10/2022 8:30:00 AM 13.88 56.984 0.066 7.29 14.86 9.95
6/10/2022 8:45:00 AM 13.99 57.182 0.066 7.28 15.75 9.97
6/10/2022 9:00:00 AM 14.09 57.362 0.066 7.34 22.66 9.97
6/10/2022 9:15:00 AM 14.24 57.632 0.063 7.36 21.73 9.99
6/10/2022 9:30:00 AM 14.4 57.92 0.066 7.44 9.13 9.99
6/10/2022 9:45:00 AM 14.57 58.226 0.066 7.47 24.78 10.01
6/10/2022 10:00:00 AM 14.77 58.586 0.066 7.42 23.62 10.01
6/10/2022 10:15:00 AM 15.01 59.018 0.066 7.47 8.67 10.02
6/10/2022 10:30:00 AM 15.2 59.36 0.066 7.51 9.34 10
6/10/2022 10:45:00 AM 15.39 59.702 0.066 7.62 135.12 10
6/10/2022 11:00:00 AM 15.7 60.26 0.063 7.71 142.81 10
6/10/2022 11:15:00 AM 15.9 60.62 0.066 7.62 42.76 9.97
6/10/2022 11:30:00 AM 16.23 61.214 0.066 7.79 79.95 9.96
6/10/2022 11:45:00 AM 16.5 61.7 0.066 7.8 74.05 9.94
6/10/2022 12:00:00 PM 16.79 62.222 0.066 7.65 19.76 9.92
6/10/2022 12:15:00 PM 17.08 62.744 0.065 7.85 47.38 9.88
6/10/2022 12:30:00 PM 17.27 63.086 0.065 7.85 25.05 9.85
6/10/2022 12:45:00 PM 17.56 63.608 0.065 7.86 14.11 9.8
6/10/2022 1:00:00 PM 17.66 63.788 0.065 7.77 10.48 9.73
6/10/2022 1:15:00 PM 18.08 64.544 0.065 7.85 9.99 9.71
6/10/2022 1:30:00 PM 18.27 64.886 0.065 7.83 3.92 9.67
6/10/2022 1:45:00 PM 18.7 65.66 0.065 7.77 5.16 9.64
6/10/2022 2:00:00 PM 18.95 66.11 0.065 7.78 17.98 9.61
6/10/2022 2:15:00 PM 19.19 66.542 0.061 7.8 151.22 9.57
6/10/2022 2:30:00 PM 19.34 66.812 0.065 7.8 48.3 9.53
6/10/2022 2:45:00 PM 19.25 66.65 0.064 7.77 1748.12 9.48
6/10/2022 3:00:00 PM 19.28 66.704 0.062 7.76 35.22 9.43
6/10/2022 3:15:00 PM 19.48 67.064 0.064 7.69 3.67 9.41
6/10/2022 3:30:00 PM 19.61 67.298 0.065 7.75 7.78 9.39
6/10/2022 3:45:00 PM 19.68 67.424 0.064 7.78 7.81 9.37
6/10/2022 4:00:00 PM 19.71 67.478 0.064 7.72 3.72 9.3
6/10/2022 4:15:00 PM 19.64 67.352 0.064 7.69 11.43 9.26
6/10/2022 4:30:00 PM 19.58 67.244 0.064 7.73 13.24 9.22
6/10/2022 4:45:00 PM 19.63 67.334 0.064 7.7 19.22 9.2
6/10/2022 5:00:00 PM 19.66 67.388 0.064 7.64 6.51 9.17
6/10/2022 5:15:00 PM 19.58 67.244 0.064 7.61 12.96 9.13
6/10/2022 5:30:00 PM 19.56 67.208 0.064 7.59 3.49 9.08
6/10/2022 5:45:00 PM 19.51 67.118 0.064 7.57 12.93 9.04
6/10/2022 6:00:00 PM 19.44 66.992 0.064 7.55 31.45 8.98
6/10/2022 6:15:00 PM 19.4 66.92 0.064 7.52 23.01 8.93
6/10/2022 6:30:00 PM 19.36 66.848 0.064 7.49 38.64 8.88
6/10/2022 6:45:00 PM 19.3 66.74 0.065 7.48 89.02 8.82
6/10/2022 7:00:00 PM 19.24 66.632 0.065 7.44 23.26 8.78
6/10/2022 7:15:00 PM 19.16 66.488 0.065 7.42 5.84 8.74
6/10/2022 7:30:00 PM 19.07 66.326 0.064 7.37 13.85 8.7
6/10/2022 7:45:00 PM 18.98 66.164 0.065 7.37 9.2 8.66
6/10/2022 8:00:00 PM 18.87 65.966 0.065 7.35 8.49 8.62
6/10/2022 8:15:00 PM 18.75 65.75 0.065 7.3 69.49 8.56
6/10/2022 8:30:00 PM 18.62 65.516 0.065 7.3 150.6 8.51
6/10/2022 8:45:00 PM 18.49 65.282 0.066 7.28 123.26 8.46
6/10/2022 9:00:00 PM 18.36 65.048 0.066 7.27 86.71 8.41
6/10/2022 9:15:00 PM 18.23 64.814 0.065 7.26 137.41 8.38
6/10/2022 9:30:00 PM 18.1 64.58 0.066 7.25 56.3 8.35
6/10/2022 9:45:00 PM 17.97 64.346 0.066 7.15 88.94 8.34
6/10/2022 10:00:00 PM 17.85 64.13 0.066 7.19 95.61 8.34
6/10/2022 10:15:00 PM 17.73 63.914 0.066 7.16 73.48 8.35
6/10/2022 10:30:00 PM 17.61 63.698 0.066 7.16 77.56 8.36
6/10/2022 10:45:00 PM 17.48 63.464 0.067 7.18 52.89 8.37
6/10/2022 11:00:00 PM 17.35 63.23 0.067 7.14 70.85 8.4
6/10/2022 11:15:00 PM 17.22 62.996 0.067 7.17 69.64 8.41
6/10/2022 11:30:00 PM 17.1 62.78 0.067 7.15 48.19 8.44
6/10/2022 11:45:00 PM 16.97 62.546 0.067 7.12 63.75 8.47
6/11/2022 12:00:00 AM 16.84 62.312 0.067 7.09 72.75 8.49
6/11/2022 12:15:00 AM 16.72 62.096 0.067 7.16 64.91 8.52
6/11/2022 12:30:00 AM 16.61 61.898 0.067 7.17 44.41 8.54
6/11/2022 12:45:00 AM 16.49 61.682 0.067 7.14 48.08 8.57
6/11/2022 1:00:00 AM 16.38 61.484 0.067 7.15 52.76 8.6
6/11/2022 1:15:00 AM 16.27 61.286 0.061 7.1 71.54 8.62
6/11/2022 1:30:00 AM 16.16 61.088 0.068 7.14 35.31 8.66
6/11/2022 1:45:00 AM 16.05 60.89 0.068 7.17 61.42 8.68
6/11/2022 2:00:00 AM 15.94 60.692 0.068 7.18 24.68 8.71
6/11/2022 2:15:00 AM 15.83 60.494 0.068 7.17 55.95 8.74
6/11/2022 2:30:00 AM 15.74 60.332 0.068 7.14 36.49 8.76
6/11/2022 2:45:00 AM 15.63 60.134 0.068 7.14 47.92 8.78
6/11/2022 3:00:00 AM 15.52 59.936 0.066 7.13 10.71 8.81
6/11/2022 3:15:00 AM 15.41 59.738 0.068 7.14 16.6 8.84
6/11/2022 3:30:00 AM 15.32 59.576 0.068 7.15 44.54 8.86
6/11/2022 3:45:00 AM 15.23 59.414 0.068 7.02 24.55 8.89
6/11/2022 4:00:00 AM 15.14 59.252 0.068 7.13 59.37 8.91
6/11/2022 4:15:00 AM 15.05 59.09 0.068 7.16 24.41 8.93
6/11/2022 4:30:00 AM 14.97 58.946 0.068 7.16 36.63 8.96
6/11/2022 4:45:00 AM 14.88 58.784 0.068 7.14 58.5 8.99
6/11/2022 5:00:00 AM 14.8 58.64 0.068 7.13 24.85 9.01
6/11/2022 5:15:00 AM 14.72 58.496 0.068 7.14 7.75 9.03
6/11/2022 5:30:00 AM 14.64 58.352 0.069 7.17 32.02 9.06
6/11/2022 5:45:00 AM 14.56 58.208 0.069 7.16 10.98 9.09
6/11/2022 6:00:00 AM 14.49 58.082 0.069 7.16 12.18 9.12
6/11/2022 6:15:00 AM 14.42 57.956 0.069 7.17 4.37 9.17
6/11/2022 6:30:00 AM 14.36 57.848 0.069 7.18 19.59 9.22
6/11/2022 6:45:00 AM 14.31 57.758 0.069 7.2 17.84 9.29
6/11/2022 7:00:00 AM 14.26 57.668 0.069 7.19 16.46 9.36
6/11/2022 7:15:00 AM 14.23 57.614 0.069 7.21 11.57 9.46
6/11/2022 7:30:00 AM 14.21 57.578 0.068 7.2 27.45 9.55
6/11/2022 7:45:00 AM 14.2 57.56 0.068 7.25 11.54 9.64
6/11/2022 8:00:00 AM 14.22 57.596 0.068 7.32 13.21 9.75
6/11/2022 8:15:00 AM 14.23 57.614 0.068 7.32 16.91 9.81
6/11/2022 8:30:00 AM 14.21 57.578 0.068 7.36 11.78 9.84
6/11/2022 8:45:00 AM 14.21 57.578 0.068 7.37 29.92 9.87
6/11/2022 9:00:00 AM 14.21 57.578 0.068 7.38 3.65 9.91
6/11/2022 9:15:00 AM 14.24 57.632 0.068 7.35 30.98 9.97
6/11/2022 9:30:00 AM 14.34 57.812 0.068 7.5 10.01 10.05
6/11/2022 9:45:00 AM 14.43 57.974 0.068 7.54 36 10.09
6/11/2022 10:00:00 AM 14.57 58.226 0.068 7.48 37.41 10.16
6/11/2022 10:15:00 AM 14.82 58.676 0.067 7.62 54.55 10.19
6/11/2022 10:30:00 AM 14.99 58.982 0.067 7.67 27.9 10.21
6/11/2022 10:45:00 AM 15.04 59.072 0.067 7.65 66.14 10.23
6/11/2022 11:00:00 AM 15.16 59.288 0.067 7.7 60.3 10.23
6/11/2022 11:15:00 AM 15.35 59.63 0.067 7.78 26.1 10.24
6/11/2022 11:30:00 AM 15.87 60.566 0.065 7.84 30.95 10.22
6/11/2022 11:45:00 AM 15.94 60.692 0.067 7.79 41.33 10.19
6/11/2022 12:00:00 PM 16.09 60.962 0.064 7.87 79.41 10.19
6/11/2022 12:15:00 PM 16.5 61.7 0.063 7.9 36.51 10.16
6/11/2022 12:30:00 PM 17.15 62.87 0.063 7.71 23.06 10.1
6/11/2022 12:45:00 PM 17.5 63.5 0.066 7.85 7.24 10.03
6/11/2022 1:00:00 PM 17.89 64.202 0.066 7.87 45.88 9.98
6/11/2022 1:15:00 PM 18 64.4 0.066 7.68 6.97 9.89
6/11/2022 1:30:00 PM 17.78 64.004 0.066 7.66 3.07 9.75
6/11/2022 1:45:00 PM 17.65 63.77 0.063 7.63 4.15 9.69
6/11/2022 2:00:00 PM 17.72 63.896 0.066 7.75 2.9 9.71
6/11/2022 2:15:00 PM 18.11 64.598 0.066 7.77 2.97 9.71
6/11/2022 2:30:00 PM 18.57 65.426 0.066 7.82 2.99 9.7
6/11/2022 2:45:00 PM 19.1 66.38 0.066 7.84 31.15 9.67
6/11/2022 3:00:00 PM 19 66.2 0.066 7.79 62.13 9.59
6/11/2022 3:15:00 PM 19.36 66.848 0.066 7.77 43.84 9.55
6/11/2022 3:30:00 PM 19.37 66.866 0.066 7.79 15.52 9.51
6/11/2022 3:45:00 PM 19.19 66.542 0.066 7.67 82.07 9.35
6/11/2022 4:00:00 PM 18.98 66.164 0.066 7.66 120.1 9.32
6/11/2022 4:15:00 PM 19.11 66.398 0.066 7.66 2.99 9.31
6/11/2022 4:30:00 PM 18.93 66.074 0.063 7.62 10.78 9.22
6/11/2022 4:45:00 PM 18.79 65.82201 0.065 7.64 19.31 9.23
6/11/2022 5:00:00 PM 18.77 65.786 0.065 7.64 3.44 9.22
6/11/2022 5:15:00 PM 18.78 65.804 0.066 7.58 11.71 9.24
6/11/2022 5:30:00 PM 18.8 65.84 0.066 7.59 3.71 9.19
6/11/2022 5:45:00 PM 18.78 65.804 0.062 7.53 5.68 9.14
6/11/2022 6:00:00 PM 18.72 65.696 0.066 7.52 5.84 9.08
6/11/2022 6:15:00 PM 18.7 65.66 0.064 7.5 4.05 9.02
6/11/2022 6:30:00 PM 18.7 65.66 0.066 7.47 3.25 8.97
6/11/2022 6:45:00 PM 18.71 65.67799 0.066 7.45 3.42 8.92
6/11/2022 7:00:00 PM 18.69 65.642 0.063 7.39 4.58 8.86
6/11/2022 7:15:00 PM 18.63 65.534 0.066 7.39 5.12 8.8
6/11/2022 7:30:00 PM 18.55 65.39 0.066 7.32 3.86 8.75
6/11/2022 7:45:00 PM 18.45 65.21 0.066 7.32 8.79 8.69
6/11/2022 8:00:00 PM 18.36 65.048 0.066 7.31 7.31 8.64
6/11/2022 8:15:00 PM 18.27 64.886 0.064 7.27 251.69 8.59
6/11/2022 8:30:00 PM 18.17 64.706 0.067 7.16 3.71 8.54
6/11/2022 8:45:00 PM 18.06 64.508 0.067 7.24 3.3 8.49
6/11/2022 9:00:00 PM 17.95 64.31 0.067 7.22 3.37 8.45
6/11/2022 9:15:00 PM 17.83 64.094 0.067 7.21 3.6 8.42
6/11/2022 9:30:00 PM 17.72 63.896 0.067 7.19 3.7 8.4
6/11/2022 9:45:00 PM 17.63 63.734 0.067 7.18 6.89 8.39
6/11/2022 10:00:00 PM 17.53 63.554 0.067 7.1 3.89 8.38
6/11/2022 10:15:00 PM 17.44 63.392 0.067 7.14 6.6 8.39
6/11/2022 10:30:00 PM 17.35 63.23 0.068 7.12 4.23 8.39
6/11/2022 10:45:00 PM 17.26 63.068 0.068 7.09 5.34 8.41
6/11/2022 11:00:00 PM 17.18 62.924 0.068 7.16 3.48 8.42
6/11/2022 11:15:00 PM 17.1 62.78 0.068 7.16 3.81 8.43
6/11/2022 11:30:00 PM 17.01 62.618 0.066 7.12 4.56 8.45
6/11/2022 11:45:00 PM 16.94 62.492 0.068 7.14 3.46 8.45
6/12/2022 12:00:00 AM 16.87 62.366 0.068 7.15 4.08 8.48
6/12/2022 12:15:00 AM 16.78 62.204 0.068 7.16 3.66 8.49
6/12/2022 12:30:00 AM 16.7 62.06 0.068 7.15 3.77 8.51
6/12/2022 12:45:00 AM 16.62 61.916 0.068 7.15 3.72 8.53
6/12/2022 1:00:00 AM 16.54 61.772 0.068 7.13 3.89 8.55
6/12/2022 1:15:00 AM 16.46 61.628 0.068 7.13 3.75 8.56
6/12/2022 1:30:00 AM 16.39 61.502 0.068 7.13 3.7 8.58
6/12/2022 1:45:00 AM 16.31 61.358 0.068 7.13 3.8 8.6
6/12/2022 2:00:00 AM 16.23 61.214 0.069 7.11 3.67 8.63
6/12/2022 2:15:00 AM 16.15 61.07 0.069 7.14 5.4 8.63
6/12/2022 2:30:00 AM 16.08 60.944 0.069 7.13 3.72 8.66
6/12/2022 2:45:00 AM 16.01 60.818 0.067 7.09 4.46 8.68
6/12/2022 3:00:00 AM 15.95 60.71 0.069 7.11 3.87 8.7
6/12/2022 3:15:00 AM 15.88 60.584 0.069 7.12 3.76 8.71
6/12/2022 3:30:00 AM 15.82 60.476 0.069 7.1 3.71 8.73
6/12/2022 3:45:00 AM 15.75 60.35 0.069 7.1 3.88 8.74
6/12/2022 4:00:00 AM 15.67 60.206 0.069 7.12 3.82 8.76
6/12/2022 4:15:00 AM 15.61 60.098 0.07 7.09 3.88 8.78
6/12/2022 4:30:00 AM 15.54 59.972 0.071 7.09 3.93 8.8
6/12/2022 4:45:00 AM 15.47 59.846 0.07 7.1 4.28 8.81
6/12/2022 5:00:00 AM 15.4 59.72 0.07 7.09 3.68 8.83
6/12/2022 5:15:00 AM 15.34 59.612 0.067 7.08 4.92 8.85
6/12/2022 5:30:00 AM 15.28 59.504 0.071 7.11 3.68 8.87
6/12/2022 5:45:00 AM 15.23 59.414 0.071 7.09 3.53 8.89
6/12/2022 6:00:00 AM 15.18 59.324 0.071 7.11 4.07 8.92
6/12/2022 6:15:00 AM 15.14 59.252 0.065 7.12 4.92 8.96
6/12/2022 6:30:00 AM 15.1 59.18 0.07 7.14 5.23 9.01
6/12/2022 6:45:00 AM 15.07 59.126 0.07 7.14 3.57 9.09
6/12/2022 7:00:00 AM 15.05 59.09 0.069 7.2 3.5 9.15
6/12/2022 7:15:00 AM 15.04 59.072 0.069 7.21 3.5 9.24
6/12/2022 7:30:00 AM 15.02 59.036 0.066 7.21 4.46 9.27
6/12/2022 7:45:00 AM 15.02 59.036 0.069 7.25 3.45 9.36
6/12/2022 8:00:00 AM 15.05 59.09 0.066 7.24 4.64 9.46
6/12/2022 8:15:00 AM 15.06 59.108 0.069 7.26 3.46 9.52
6/12/2022 8:30:00 AM 15.27 59.486 0.069 7.36 3.37 9.65
6/12/2022 8:45:00 AM 15.31 59.558 0.069 7.34 3.39 9.7
6/12/2022 9:00:00 AM 15.28 59.504 0.069 7.33 3.32 9.71
6/12/2022 9:15:00 AM 15.35 59.63 0.069 7.37 3.49 9.76
6/12/2022 9:30:00 AM 15.54 59.972 0.069 7.37 3.5 9.81
6/12/2022 9:45:00 AM 15.88 60.584 0.069 7.47 3.58 9.83
6/12/2022 10:00:00 AM 16.13 61.034 0.068 7.54 3.72 9.85
6/12/2022 10:15:00 AM 16.22 61.196 0.068 7.55 3.5 9.86
6/12/2022 10:30:00 AM 16.26 61.268 0.068 7.54 3.58 9.85
6/12/2022 10:45:00 AM 16.36 61.448 0.068 7.61 3.52 9.88
6/12/2022 11:00:00 AM 16.43 61.574 0.068 7.59 3.54 9.87
6/12/2022 11:15:00 AM 16.49 61.682 0.068 7.64 3.67 9.88
6/12/2022 11:30:00 AM 16.61 61.898 0.068 7.6 3.44 9.9
6/12/2022 11:45:00 AM 16.65 61.97 0.068 7.66 3.47 9.84
6/12/2022 12:00:00 PM 16.69 62.042 0.067 7.71 3.53 9.86
6/12/2022 12:15:00 PM 16.9 62.42 0.067 7.76 3.91 9.86
6/12/2022 12:30:00 PM 16.95 62.51 0.067 7.74 3.18 9.81
6/12/2022 12:45:00 PM 17.19 62.942 0.067 7.86 3.11 9.85
6/12/2022 1:00:00 PM 17.43 63.374 0.067 7.84 3.1 9.81
6/12/2022 1:15:00 PM 17.35 63.23 0.067 7.74 3.14 9.71
6/12/2022 1:30:00 PM 17.3 63.14 0.067 7.6 3.09 9.59
6/12/2022 1:45:00 PM 17.31 63.158 0.067 7.66 3.08 9.58
6/12/2022 2:00:00 PM 17.43 63.374 0.066 7.56 4.51 9.57
6/12/2022 2:15:00 PM 17.46 63.428 0.064 7.63 4.38 9.53
6/12/2022 2:30:00 PM 17.7 63.86 0.067 7.78 3.17 9.6
6/12/2022 2:45:00 PM 17.75 63.95 0.067 7.74 3.27 9.58
6/12/2022 3:00:00 PM 17.88 64.184 0.066 7.73 3.63 9.57
6/12/2022 3:15:00 PM 17.87 64.166 0.067 7.79 3.1 9.52
6/12/2022 3:30:00 PM 17.95 64.31 0.064 7.73 4.72 9.53
6/12/2022 3:45:00 PM 18.04 64.472 0.065 7.76 3.45 9.48
6/12/2022 4:00:00 PM 18.4 65.12 0.065 7.73 3.44 9.5
6/12/2022 4:15:00 PM 18.65 65.57 0.063 7.68 4.13 9.49
6/12/2022 4:30:00 PM 18.55 65.39 0.067 7.69 2.95 9.41
6/12/2022 4:45:00 PM 18.57 65.426 0.066 7.73 3.32 9.41
6/12/2022 5:00:00 PM 18.65 65.57 0.066 7.71 2.87 9.38
6/12/2022 5:15:00 PM 18.68 65.624 0.066 7.72 3.69 9.34
6/12/2022 5:30:00 PM 18.71 65.67799 0.066 7.69 2.87 9.29
6/12/2022 5:45:00 PM 18.78 65.804 0.066 7.58 2.82 9.29
6/12/2022 6:00:00 PM 18.73 65.714 0.066 7.58 2.88 9.19
6/12/2022 6:15:00 PM 18.67 65.606 0.066 7.53 2.94 9.06
6/12/2022 6:30:00 PM 18.63 65.534 0.065 7.49 3.44 8.99
6/12/2022 6:45:00 PM 18.59 65.462 0.066 7.41 3.63 8.88
6/12/2022 7:00:00 PM 18.57 65.426 0.067 7.43 2.91 8.87
6/12/2022 7:15:00 PM 18.53 65.354 0.065 7.38 3.28 8.79
6/12/2022 7:30:00 PM 18.48 65.264 0.062 7.28 3.44 8.73
6/12/2022 7:45:00 PM 18.44 65.192 0.067 7.36 3.35 8.7
6/12/2022 8:00:00 PM 18.41 65.138 0.067 7.33 3.26 8.67
6/12/2022 8:15:00 PM 18.37 65.066 0.067 7.29 3.1 8.64
6/12/2022 8:30:00 PM 18.31 64.958 0.064 7.28 4.26 8.58
6/12/2022 8:45:00 PM 18.24 64.832 0.066 7.26 3.27 8.51
6/12/2022 9:00:00 PM 18.18 64.724 0.068 7.24 2.87 8.45
6/12/2022 9:15:00 PM 18.13 64.634 0.068 7.25 2.94 8.39
6/12/2022 9:30:00 PM 18.09 64.562 0.068 7.21 3 8.35
6/12/2022 9:45:00 PM 18.05 64.49 0.068 7.19 3.48 8.31
6/12/2022 10:00:00 PM 18 64.4 0.068 7.21 3.45 8.29
6/12/2022 10:15:00 PM 17.96 64.328 0.068 7.2 3.58 8.28
6/12/2022 10:30:00 PM 17.91 64.238 0.068 7.14 3.55 8.27
6/12/2022 10:45:00 PM 17.86 64.148 0.068 7.18 3.8 8.27
6/12/2022 11:00:00 PM 17.8 64.04 0.068 7.14 4.07 8.27
6/12/2022 11:15:00 PM 17.74 63.932 0.068 7.16 5.37 8.27
6/12/2022 11:30:00 PM 17.68 63.824 0.065 7.14 9.48 8.28
6/12/2022 11:45:00 PM 17.61 63.698 0.069 6.99 91.85 8.29
6/13/2022 12:00:00 AM 17.55 63.59 0.069 7.09 562.16 8.3
6/13/2022 12:15:00 AM 17.49 63.482 0.069 7.09 1189.56 8.31
6/13/2022 12:30:00 AM 17.43 63.374 0.069 7.13 110.64 8.33
6/13/2022 12:45:00 AM 17.38 63.284 0.069 7.15 1052.76 8.34
6/13/2022 1:00:00 AM 17.33 63.194 0.069 7.15 3.94 8.35
6/13/2022 1:15:00 AM 17.29 63.122 0.069 7.13 3.97 8.36
6/13/2022 1:30:00 AM 17.24 63.032 0.069 7.16 3.98 8.37
6/13/2022 1:45:00 AM 17.2 62.96 0.069 7.14 4.06 8.38
6/13/2022 2:00:00 AM 17.16 62.888 0.069 7.13 3.85 8.39
6/13/2022 2:15:00 AM 17.12 62.816 0.068 7.11 4.51 8.4
6/13/2022 2:30:00 AM 17.09 62.762 0.069 7.13 3.94 8.42
6/13/2022 2:45:00 AM 17.06 62.708 0.069 7.1 4.01 8.42
6/13/2022 3:00:00 AM 17.02 62.636 0.069 7.08 3.96 8.43
6/13/2022 3:15:00 AM 16.99 62.582 0.069 7.07 3.98 8.44
6/13/2022 3:30:00 AM 16.95 62.51 0.069 7.1 3.96 8.45
6/13/2022 3:45:00 AM 16.92 62.456 0.069 6.97 3.99 8.46
6/13/2022 4:00:00 AM 16.88 62.384 0.07 7.03 4.39 8.47
6/13/2022 4:15:00 AM 16.85 62.33 0.069 7.1 4.06 8.49
6/13/2022 4:30:00 AM 16.81 62.258 0.07 7.1 4.12 8.49
6/13/2022 4:45:00 AM 16.77 62.186 0.07 7.12 4.24 8.5
6/13/2022 5:00:00 AM 16.74 62.132 0.07 7.12 7.77 8.51
6/13/2022 5:15:00 AM 16.7 62.06 0.07 7.13 4.01 8.52
6/13/2022 5:30:00 AM 16.67 62.006 0.07 7.14 3.96 8.54
6/13/2022 5:45:00 AM 16.64 61.952 0.07 7.14 3.99 8.55
6/13/2022 6:00:00 AM 16.61 61.898 0.07 7.14 3.9 8.57
6/13/2022 6:15:00 AM 16.58 61.844 0.07 7.13 3.89 8.6
6/13/2022 6:30:00 AM 16.55 61.79 0.07 7.15 3.93 8.63
6/13/2022 6:45:00 AM 16.53 61.754 0.07 7.07 3.84 8.67
6/13/2022 7:00:00 AM 16.52 61.736 0.07 7.14 3.9 8.72
6/13/2022 7:15:00 AM 16.52 61.736 0.07 7.16 3.85 8.79
6/13/2022 7:30:00 AM 16.52 61.736 0.07 7.19 3.78 8.87
6/13/2022 7:45:00 AM 16.55 61.79 0.07 7.06 3.79 8.96
6/13/2022 8:00:00 AM 16.57 61.826 0.069 7.26 5.06 9.05
6/13/2022 8:15:00 AM 16.62 61.916 0.07 7.27 3.77 9.15
6/13/2022 8:30:00 AM 16.68 62.024 0.069 7.25 4.22 9.23
6/13/2022 8:45:00 AM 16.71 62.078 0.069 7.3 4.33 9.28
6/13/2022 9:00:00 AM 16.76 62.168 0.07 7.36 3.78 9.35
6/13/2022 9:15:00 AM 16.84 62.312 0.07 7.42 3.8 9.4
6/13/2022 9:30:00 AM 16.93 62.474 0.069 7.34 3.75 9.46
6/13/2022 9:45:00 AM 16.99 62.582 0.069 7.49 3.76 9.5
6/13/2022 10:00:00 AM 17.33 63.194 0.069 7.57 7.67 9.57
6/13/2022 10:15:00 AM 17.74 63.932 0.069 7.57 6.89 9.59
6/13/2022 10:30:00 AM 18.05 64.49 0.069 7.53 5.2 9.58
6/13/2022 10:45:00 AM 18.32 64.976 0.063 7.66 6.45 9.57
6/13/2022 11:00:00 AM 18.63 65.534 0.069 7.68 3.8 9.55
6/13/2022 11:15:00 AM 18.85 65.93 0.069 7.71 3.76 9.52
6/13/2022 11:30:00 AM 19.04 66.272 0.069 7.79 3.76 9.52
6/13/2022 11:45:00 AM 19.47 67.046 0.069 7.81 3.81 9.5
6/13/2022 12:00:00 PM 19.9 67.82 0.068 7.88 3.75 9.49
6/13/2022 12:15:00 PM 20.15 68.27 0.068 7.91 3.82 9.45
6/13/2022 12:30:00 PM 20.56 69.008 0.068 7.91 3.84 9.4
6/13/2022 12:45:00 PM 21 69.8 0.066 7.87 4.74 9.36
6/13/2022 1:00:00 PM 21.38 70.484 0.068 7.85 7.42 9.31
6/13/2022 1:15:00 PM 21.75 71.15 0.066 7.81 4.21 9.26
6/13/2022 1:30:00 PM 22.09 71.762 0.068 7.77 3.85 9.18
6/13/2022 1:45:00 PM 22.43 72.374 0.068 7.77 3.77 9.13
6/13/2022 2:00:00 PM 22.72 72.896 0.064 7.77 7.29 9.07
6/13/2022 2:15:00 PM 22.99 73.382 0.065 7.77 5.22 9
6/13/2022 2:30:00 PM 23.25 73.85 0.068 7.81 3.89 8.93
6/13/2022 2:45:00 PM 23.42 74.156 0.068 7.81 3.8 8.86
6/13/2022 3:00:00 PM 23.44 74.192 0.068 7.74 3.75 8.82
6/13/2022 3:15:00 PM 23.55 74.39 0.067 7.63 3.8 8.76
6/13/2022 3:30:00 PM 23.69 74.642 0.067 7.69 4.72 8.72
6/13/2022 3:45:00 PM 23.81 74.858 0.067 7.68 4.18 8.66
6/13/2022 4:00:00 PM 23.89 75.002 0.065 7.65 4.4 8.58
6/13/2022 4:15:00 PM 23.92 75.056 0.064 7.63 5.12 8.52
6/13/2022 4:30:00 PM 23.86 74.948 0.068 7.62 3.8 8.44
6/13/2022 4:45:00 PM 23.86 74.948 0.068 7.6 3.75 8.38
6/13/2022 5:00:00 PM 23.8 74.84 0.068 7.57 3.83 8.3
6/13/2022 5:15:00 PM 23.73 74.714 0.068 7.56 3.79 8.24
6/13/2022 5:30:00 PM 23.64 74.552 0.068 7.53 3.84 8.19
6/13/2022 5:45:00 PM 23.56 74.408 0.068 7.51 3.83 8.12
6/13/2022 6:00:00 PM 23.44 74.192 0.067 7.45 5.26 8.06
6/13/2022 6:15:00 PM 23.3 73.94 0.066 7.46 4.76 8.01
6/13/2022 6:30:00 PM 23.21 73.778 0.068 7.4 3.83 7.97
6/13/2022 6:45:00 PM 23.1 73.58 0.066 7.34 4.34 7.93
6/13/2022 7:00:00 PM 22.98 73.364 0.068 7.37 3.87 7.89
6/13/2022 7:15:00 PM 22.85 73.13 0.068 7.37 3.77 7.86
6/13/2022 7:30:00 PM 22.72 72.896 0.068 7.36 4.18 7.82
6/13/2022 7:45:00 PM 22.58 72.644 0.065 7.31 4.45 7.78
6/13/2022 8:00:00 PM 22.43 72.374 0.069 7.27 3.63 7.73
6/13/2022 8:15:00 PM 22.28 72.104 0.069 7.28 5.39 7.67
6/13/2022 8:30:00 PM 22.13 71.834 0.068 7.22 4.16 7.62
6/13/2022 8:45:00 PM 21.98 71.564 0.067 7.21 4.22 7.57
6/13/2022 9:00:00 PM 21.83 71.294 0.068 7.18 4.03 7.53
6/13/2022 9:15:00 PM 21.71 71.078 0.069 7.17 4.01 7.5
6/13/2022 9:30:00 PM 21.59 70.862 0.07 7.16 3.67 7.48
6/13/2022 9:45:00 PM 21.46 70.628 0.07 7.1 4.21 7.46
6/13/2022 10:00:00 PM 21.35 70.43 0.07 7.13 3.79 7.46
6/13/2022 10:15:00 PM 21.23 70.214 0.065 7.09 5.46 7.46
6/13/2022 10:30:00 PM 21.11 69.998 0.066 7.1 5.56 7.46
6/13/2022 10:45:00 PM 20.99 69.782 0.07 7.11 4.63 7.48
6/13/2022 11:00:00 PM 20.89 69.602 0.068 7.1 5.62 7.49
6/13/2022 11:15:00 PM 20.78 69.404 0.069 7.1 4.2 7.51
6/13/2022 11:30:00 PM 20.69 69.242 0.07 7.11 3.73 7.53
6/13/2022 11:45:00 PM 20.59 69.062 0.068 7.11 4.74 7.54
6/14/2022 12:00:00 AM 20.48 68.864 0.07 7.07 3.95 7.57
6/14/2022 12:15:00 AM 20.37 68.666 0.07 7.12 3.89 7.59
6/14/2022 12:30:00 AM 20.27 68.486 0.07 7.1 3.96 7.61
6/14/2022 12:45:00 AM 20.17 68.306 0.066 7.11 4.53 7.63
6/14/2022 1:00:00 AM 20.06 68.108 0.071 7.13 3.97 7.65
6/14/2022 1:15:00 AM 19.97 67.946 0.071 7.12 3.95 7.66
6/14/2022 1:30:00 AM 19.87 67.766 0.071 7.13 3.97 7.69
6/14/2022 1:45:00 AM 19.76 67.568 0.068 7.09 5.96 7.72
6/14/2022 2:00:00 AM 19.69 67.442 0.071 7.11 4.44 7.73
6/14/2022 2:15:00 AM 19.6 67.28 0.068 7.1 5.8 7.75
6/14/2022 2:30:00 AM 19.5 67.1 0.066 7.09 6.59 7.78
6/14/2022 2:45:00 AM 19.4 66.92 0.071 7.12 5.62 7.8
6/14/2022 3:00:00 AM 19.32 66.776 0.065 7.1 7.85 7.82
6/14/2022 3:15:00 AM 19.23 66.614 0.071 7.11 7.07 7.84
6/14/2022 3:30:00 AM 19.14 66.452 0.068 7.09 9.55 7.86
6/14/2022 3:45:00 AM 19.05 66.29 0.072 7.13 5.4 7.88
6/14/2022 4:00:00 AM 18.95 66.11 0.065 7.12 7.33 7.9
6/14/2022 4:15:00 AM 18.86 65.948 0.072 7.13 4.05 7.91
6/14/2022 4:30:00 AM 18.78 65.804 0.071 7.12 4.9 7.94
6/14/2022 4:45:00 AM 18.7 65.66 0.069 7.13 5.16 7.94
6/14/2022 5:00:00 AM 18.62 65.516 0.072 7.11 4.02 7.97
6/14/2022 5:15:00 AM 18.55 65.39 0.072 7.09 3.97 7.99
6/14/2022 5:30:00 AM 18.48 65.264 0.072 7.11 3.9 8.01
6/14/2022 5:45:00 AM 18.42 65.156 0.072 7.12 3.94 8.03
6/14/2022 6:00:00 AM 18.35 65.03 0.072 7.11 3.87 8.06
6/14/2022 6:15:00 AM 18.29 64.922 0.072 7.11 3.93 8.08
6/14/2022 6:30:00 AM 18.24 64.832 0.072 7.13 3.85 8.1
6/14/2022 6:45:00 AM 18.19 64.742 0.072 7.13 3.84 8.14
6/14/2022 7:00:00 AM 18.16 64.688 0.069 7.14 4.76 8.19
6/14/2022 7:15:00 AM 18.11 64.598 0.069 7.15 4.74 8.24
6/14/2022 7:30:00 AM 18.06 64.508 0.072 7.14 3.75 8.28
6/14/2022 7:45:00 AM 18.02 64.436 0.072 7.15 3.8 8.3
6/14/2022 8:00:00 AM 17.99 64.382 0.072 7.16 3.79 8.37
6/14/2022 8:15:00 AM 17.98 64.364 0.072 7.17 3.74 8.49
6/14/2022 8:30:00 AM 17.94 64.292 0.072 7.01 3.74 8.49
6/14/2022 8:45:00 AM 17.91 64.238 0.072 7.2 3.78 8.54
6/14/2022 9:00:00 AM 17.89 64.202 0.072 7.21 3.94 8.62
6/14/2022 9:15:00 AM 17.89 64.202 0.071 7.12 3.8 8.72
6/14/2022 9:30:00 AM 17.95 64.31 0.071 7.29 3.8 8.85
6/14/2022 9:45:00 AM 18.22 64.796 0.07 7.37 4.39 8.99
6/14/2022 10:00:00 AM 18.29 64.922 0.068 7.34 5.31 9
6/14/2022 10:15:00 AM 18.36 65.048 0.071 7.35 3.84 9.16
6/14/2022 10:30:00 AM 18.6 65.48 0.07 7.47 4.52 9.22
6/14/2022 10:45:00 AM 18.8 65.84 0.071 7.55 3.76 9.26
6/14/2022 11:00:00 AM 18.99 66.182 0.07 7.63 3.76 9.3
6/14/2022 11:15:00 AM 19.3 66.74 0.07 7.66 5.37 9.34
6/14/2022 11:30:00 AM 19.69 67.442 0.07 7.73 3.75 9.32
6/14/2022 11:45:00 AM 20.22 68.396 0.068 7.81 4.42 9.31
6/14/2022 12:00:00 PM 20.74 69.332 0.07 7.8 3.7 9.27
6/14/2022 12:15:00 PM 21.22 70.196 0.067 7.85 5.17 9.23
6/14/2022 12:30:00 PM 21.66 70.988 0.07 7.87 5.05 9.18
6/14/2022 12:45:00 PM 22.04 71.672 0.07 7.82 3.89 9.13
6/14/2022 1:00:00 PM 22.41 72.338 0.066 7.75 5.61 9.09
6/14/2022 1:15:00 PM 22.77 72.986 0.068 7.73 8.59 9.05
6/14/2022 1:30:00 PM 23.06 73.508 0.07 7.77 3.69 9.01
6/14/2022 1:45:00 PM 23.25 73.85 0.067 7.78 4.41 8.98
6/14/2022 2:00:00 PM 23.55 74.39 0.069 7.74 3.67 8.93
6/14/2022 2:15:00 PM 23.89 75.002 0.065 7.76 4.45 8.88
6/14/2022 2:30:00 PM 23.86 74.948 0.068 7.74 4.49 8.79
6/14/2022 2:45:00 PM 24.05 75.29 0.069 7.75 3.67 8.75
6/14/2022 3:00:00 PM 24.4 75.92 0.069 7.75 3.7 8.71
6/14/2022 3:15:00 PM 24.58 76.244 0.069 7.69 4.96 8.64
6/14/2022 3:30:00 PM 24.66 76.388 0.069 7.68 3.57 8.58
6/14/2022 3:45:00 PM 24.71 76.478 0.069 7.65 3.53 8.5
6/14/2022 4:00:00 PM 24.73 76.514 0.067 7.62 5.7 8.42
6/14/2022 4:15:00 PM 24.74 76.532 0.066 7.47 4.39 8.36
6/14/2022 4:30:00 PM 24.72 76.496 0.067 7.55 4.32 8.3
6/14/2022 4:45:00 PM 24.61 76.298 0.067 7.56 4.27 8.23
6/14/2022 5:00:00 PM 24.52 76.136 0.069 7.56 3.64 8.17
6/14/2022 5:15:00 PM 24.43 75.974 0.069 7.55 3.72 8.1
6/14/2022 5:30:00 PM 24.29 75.722 0.069 7.43 5.02 8.05
6/14/2022 5:45:00 PM 24.16 75.488 0.069 7.49 3.73 8
6/14/2022 6:00:00 PM 23.99 75.182 0.069 7.41 3.7 7.94
6/14/2022 6:15:00 PM 23.84 74.912 0.069 7.44 3.75 7.89
6/14/2022 6:30:00 PM 23.71 74.67799 0.069 7.44 3.63 7.86
6/14/2022 6:45:00 PM 23.59 74.462 0.066 7.39 4.44 7.81
6/14/2022 7:00:00 PM 23.46 74.228 0.065 7.38 8.72 7.78
6/14/2022 7:15:00 PM 23.31 73.958 0.069 7.36 4.68 7.74
6/14/2022 7:30:00 PM 23.18 73.724 0.069 7.33 3.72 7.69
6/14/2022 7:45:00 PM 23.02 73.436 0.069 7.29 4.54 7.65
6/14/2022 8:00:00 PM 22.86 73.148 0.069 7.31 3.83 7.62
6/14/2022 8:15:00 PM 22.71 72.878 0.069 7.28 3.66 7.58
6/14/2022 8:30:00 PM 22.55 72.59 0.069 7.24 3.81 7.53
6/14/2022 8:45:00 PM 22.4 72.32 0.069 7.23 3.61 7.5
6/14/2022 9:00:00 PM 22.26 72.068 0.07 7.21 3.68 7.46
6/14/2022 9:15:00 PM 22.13 71.834 0.07 7.16 3.86 7.44
6/14/2022 9:30:00 PM 22.02 71.636 0.07 7.17 3.89 7.41
6/14/2022 9:45:00 PM 21.91 71.438 0.07 7.17 3.83 7.4
6/14/2022 10:00:00 PM 21.79 71.222 0.069 7.13 4.78 7.4
6/14/2022 10:15:00 PM 21.68 71.024 0.07 7.16 4.14 7.39
6/14/2022 10:30:00 PM 21.57 70.826 0.07 7.13 3.94 7.4
6/14/2022 10:45:00 PM 21.45 70.61 0.07 7.12 3.99 7.41
6/14/2022 11:00:00 PM 21.34 70.412 0.07 7.13 4.03 7.43
6/14/2022 11:15:00 PM 21.21 70.17799 0.07 7.12 3.97 7.46
6/14/2022 11:30:00 PM 21.09 69.962 0.07 7.11 3.93 7.47
6/14/2022 11:45:00 PM 20.96 69.728 0.07 7.11 4.05 7.5
6/15/2022 12:00:00 AM 20.83 69.494 0.07 7 4.14 7.52
6/15/2022 12:15:00 AM 20.7 69.26 0.071 7.12 4.03 7.55
6/15/2022 12:30:00 AM 20.55 68.99 0.071 7.12 4.07 7.57
6/15/2022 12:45:00 AM 20.42 68.756 0.071 7.04 3.99 7.59
6/15/2022 1:00:00 AM 20.29 68.522 0.071 7.1 4.02 7.62
6/15/2022 1:15:00 AM 20.14 68.252 0.071 7 3.96 7.65
6/15/2022 1:30:00 AM 20.01 68.018 0.071 7.14 4.05 7.67
6/15/2022 1:45:00 AM 19.89 67.802 0.071 7.08 4.12 7.7
6/15/2022 2:00:00 AM 19.76 67.568 0.071 7.12 4.32 7.73
6/15/2022 2:15:00 AM 19.64 67.352 0.071 7.11 4.08 7.75
6/15/2022 2:30:00 AM 19.53 67.154 0.071 7.15 4 7.79
6/15/2022 2:45:00 AM 19.41 66.938 0.071 7.15 3.92 7.81
6/15/2022 3:00:00 AM 19.29 66.722 0.07 7.15 4.01 7.85
6/15/2022 3:15:00 AM 19.16 66.488 0.071 7.14 4.1 7.87
6/15/2022 3:30:00 AM 19.04 66.272 0.071 7.1 4 7.9
6/15/2022 3:45:00 AM 18.93 66.074 0.071 7.12 4.09 7.93
6/15/2022 4:00:00 AM 18.81 65.858 0.07 7.12 4.61 7.95
6/15/2022 4:15:00 AM 18.7 65.66 0.071 7.14 4.06 7.97
6/15/2022 4:30:00 AM 18.58 65.444 0.071 7.14 4.06 8.01
6/15/2022 4:45:00 AM 18.47 65.246 0.072 7.15 4.08 8.03
6/15/2022 5:00:00 AM 18.35 65.03 0.072 7.11 4.06 8.06
6/15/2022 5:15:00 AM 18.23 64.814 0.072 7.15 4.02 8.08
6/15/2022 5:30:00 AM 18.13 64.634 0.068 7.14 6.15 8.11
6/15/2022 5:45:00 AM 18.03 64.454 0.073 7.13 4.06 8.14
6/15/2022 6:00:00 AM 17.93 64.274 0.074 6.92 4.03 8.19
6/15/2022 6:15:00 AM 17.85 64.13 0.075 7.15 3.95 8.24
6/15/2022 6:30:00 AM 17.77 63.986 0.075 7.17 3.91 8.29
6/15/2022 6:45:00 AM 17.69 63.842 0.073 7.16 4.77 8.36
6/15/2022 7:00:00 AM 17.63 63.734 0.073 7.2 3.91 8.43
6/15/2022 7:15:00 AM 17.6 63.68 0.072 7.21 4.74 8.52
6/15/2022 7:30:00 AM 17.58 63.644 0.072 7.23 3.84 8.6
6/15/2022 7:45:00 AM 17.61 63.698 0.072 7.25 3.85 8.69
6/15/2022 8:00:00 AM 17.63 63.734 0.071 7.28 3.8 8.8
6/15/2022 8:15:00 AM 17.71 63.878 0.071 7.3 3.9 8.87
6/15/2022 8:30:00 AM 17.85 64.13 0.071 7.32 3.87 8.95
6/15/2022 8:45:00 AM 18.03 64.454 0.071 7.36 4.02 9.02
6/15/2022 9:00:00 AM 18.21 64.778 0.071 7.37 3.95 9.06
6/15/2022 9:15:00 AM 18.4 65.12 0.071 7.43 6.17 9.12
6/15/2022 9:30:00 AM 18.62 65.516 0.07 7.29 5.27 9.18
6/15/2022 9:45:00 AM 18.79 65.82201 0.07 7.55 4.59 9.23
6/15/2022 10:00:00 AM 19.09 66.362 0.071 7.63 3.86 9.25
6/15/2022 10:15:00 AM 19.44 66.992 0.071 7.61 3.91 9.27
6/15/2022 10:30:00 AM 19.76 67.568 0.071 7.68 3.93 9.27
6/15/2022 10:45:00 AM 20.09 68.162 0.071 7.74 3.82 9.26
6/15/2022 11:00:00 AM 20.37 68.666 0.071 7.8 3.91 9.26
6/15/2022 11:15:00 AM 20.7 69.26 0.067 7.82 6.66 9.24
6/15/2022 11:30:00 AM 21.07 69.926 0.071 7.82 3.71 9.22
6/15/2022 11:45:00 AM 21.47 70.646 0.067 7.93 6.17 9.19
6/15/2022 12:00:00 PM 21.89 71.402 0.067 7.89 4.82 9.16
6/15/2022 12:15:00 PM 22.27 72.086 0.067 7.96 5.61 9.14
6/15/2022 12:30:00 PM 22.67 72.806 0.066 7.99 8.1 9.11
6/15/2022 12:45:00 PM 22.96 73.328 0.07 7.98 3.95 9.13
6/15/2022 1:00:00 PM 23.31 73.958 0.07 7.96 5.23 9.1
6/15/2022 1:15:00 PM 23.53 74.354 0.053 7.89 5.1 9.02
6/15/2022 1:30:00 PM 23.92 75.056 0.068 7.87 4.41 8.97
6/15/2022 1:45:00 PM 24.21 75.578 0.067 7.86 3.68 8.92
6/15/2022 2:00:00 PM 24.43 75.974 0.07 7.87 4.55 8.89
6/15/2022 2:15:00 PM 24.63 76.334 0.069 7.87 3.68 8.85
6/15/2022 2:30:00 PM 24.83 76.694 0.069 7.92 3.62 8.8
6/15/2022 2:45:00 PM 25.01 77.018 0.069 7.92 3.59 8.76
6/15/2022 3:00:00 PM 25.27 77.486 0.069 7.87 3.81 8.7
6/15/2022 3:15:00 PM 25.4 77.72 0.069 7.82 3.53 8.62
6/15/2022 3:30:00 PM 25.5 77.9 0.069 7.81 3.64 8.56
6/15/2022 3:45:00 PM 25.62 78.116 0.069 7.8 3.52 8.51
6/15/2022 4:00:00 PM 25.76 78.368 0.066 7.8 4.58 8.45
6/15/2022 4:15:00 PM 25.79 78.422 0.069 7.67 5.14 8.39
6/15/2022 4:30:00 PM 25.82 78.476 0.069 7.72 3.21 8.32
6/15/2022 4:45:00 PM 25.88 78.584 0.066 7.65 4.86 8.27
6/15/2022 5:00:00 PM 25.79 78.422 0.067 7.63 8.5 8.19
6/15/2022 5:15:00 PM 25.75 78.35 0.063 7.55 12.03 8.09
6/15/2022 5:30:00 PM 25.7 78.26 0.068 7.49 9.83 7.99
6/15/2022 5:45:00 PM 25.62 78.116 0.067 7.54 9.65 7.93
6/15/2022 6:00:00 PM 25.46 77.828 0.07 7.47 4 7.84
6/15/2022 6:15:00 PM 25.31 77.558 0.07 7.41 3.98 7.77
6/15/2022 6:30:00 PM 25.19 77.342 0.07 7.4 5.07 7.71
6/15/2022 6:45:00 PM 25.06 77.108 0.07 7.4 4.03 7.64
6/15/2022 7:00:00 PM 24.94 76.892 0.071 7.37 3.41 7.59
6/15/2022 7:15:00 PM 24.82 76.676 0.071 7.34 3.76 7.54
6/15/2022 7:30:00 PM 24.69 76.442 0.071 7.31 3.71 7.47
6/15/2022 7:45:00 PM 24.57 76.226 0.071 7.29 4.6 7.42
6/15/2022 8:00:00 PM 24.43 75.974 0.071 7.26 3.96 7.37
6/15/2022 8:15:00 PM 24.31 75.758 0.071 7.26 3.83 7.32
6/15/2022 8:30:00 PM 24.18 75.524 0.071 7.24 3.93 7.26
6/15/2022 8:45:00 PM 24.06 75.308 0.072 7.2 3.93 7.2
6/15/2022 9:00:00 PM 23.95 75.11 0.072 7.19 5.3 7.15
6/15/2022 9:15:00 PM 23.84 74.912 0.072 7.16 3.95 7.1
6/15/2022 9:30:00 PM 23.74 74.732 0.072 7.16 4.13 7.06
6/15/2022 9:45:00 PM 23.65 74.57 0.072 7.16 4.07 7.03
6/15/2022 10:00:00 PM 23.57 74.426 0.072 7.12 4.12 7.01
6/15/2022 10:15:00 PM 23.5 74.3 0.073 7.11 4.05 6.99
6/15/2022 10:30:00 PM 23.43 74.174 0.073 7.11 4.1 6.99
6/15/2022 10:45:00 PM 23.36 74.048 0.073 7.08 4.4 6.98
6/15/2022 11:00:00 PM 23.3 73.94 0.073 6.73 4.23 6.98
6/15/2022 11:15:00 PM 23.23 73.814 0.073 7.08 5.35 6.99
6/15/2022 11:30:00 PM 23.16 73.688 0.073 7.04 4.25 7
6/15/2022 11:45:00 PM 23.09 73.562 0.073 7.04 4.26 7
6/16/2022 12:00:00 AM 23.03 73.454 0.073 7.03 4.28 7.01
6/16/2022 12:15:00 AM 22.96 73.328 0.073 7.05 4.48 7.02
6/16/2022 12:30:00 AM 22.88 73.184 0.073 7.01 4.26 7.02
6/16/2022 12:45:00 AM 22.81 73.058 0.073 7.05 5.75 7.03
6/16/2022 1:00:00 AM 22.73 72.914 0.073 7.04 4.47 7.05
6/16/2022 1:15:00 AM 22.67 72.806 0.073 7.05 4.38 7.07
6/16/2022 1:30:00 AM 22.6 72.68 0.073 7.05 4.3 7.07
6/16/2022 1:45:00 AM 22.53 72.554 0.073 7.05 4.41 7.09
6/16/2022 2:00:00 AM 22.46 72.42799 0.074 7.02 4.29 7.11
6/16/2022 2:15:00 AM 22.4 72.32 0.073 6.98 4.31 7.13
6/16/2022 2:30:00 AM 22.34 72.212 0.073 7.05 4.26 7.13
6/16/2022 2:45:00 AM 22.28 72.104 0.073 7.05 4.44 7.16
6/16/2022 3:00:00 AM 22.2 71.96 0.073 7.05 5.48 7.17
6/16/2022 3:15:00 AM 22.13 71.834 0.074 7.06 4.4 7.17
6/16/2022 3:30:00 AM 22.06 71.708 0.074 7.06 4.45 7.18
6/16/2022 3:45:00 AM 22 71.6 0.074 7.05 4.47 7.19
6/16/2022 4:00:00 AM 21.92 71.456 0.074 7.05 4.43 7.21
6/16/2022 4:15:00 AM 21.87 71.366 0.074 7.03 4.51 7.21
6/16/2022 4:30:00 AM 21.8 71.24 0.073 7.05 4.99 7.23
6/16/2022 4:45:00 AM 21.75 71.15 0.074 7.06 5.37 7.25
6/16/2022 5:00:00 AM 21.69 71.042 0.074 7.05 4.32 7.27
6/16/2022 5:15:00 AM 21.64 70.952 0.074 7.06 4.41 7.29
6/16/2022 5:30:00 AM 21.59 70.862 0.074 7.04 4.43 7.3
6/16/2022 5:45:00 AM 21.54 70.772 0.074 7.05 4.35 7.32
6/16/2022 6:00:00 AM 21.5 70.7 0.071 7.03 5.82 7.34
6/16/2022 6:15:00 AM 21.45 70.61 0.074 7.05 4.36 7.37
6/16/2022 6:30:00 AM 21.41 70.538 0.074 7.06 4.36 7.4
6/16/2022 6:45:00 AM 21.37 70.466 0.074 7.03 5.48 7.42
6/16/2022 7:00:00 AM 21.34 70.412 0.074 7.04 4.26 7.47
6/16/2022 7:15:00 AM 21.32 70.376 0.073 7.04 5.75 7.55
6/16/2022 7:30:00 AM 21.33 70.394 0.073 7 4.81 7.66
6/16/2022 7:45:00 AM 21.34 70.412 0.074 7.08 4.35 7.77
6/16/2022 8:00:00 AM 21.38 70.484 0.074 7.1 4.24 7.9
6/16/2022 8:15:00 AM 21.43 70.574 0.074 7.12 4.22 8.05
6/16/2022 8:30:00 AM 21.49 70.682 0.07 7.12 5.72 8.13
6/16/2022 8:45:00 AM 21.6 70.88 0.074 7.2 4.9 8.26
6/16/2022 9:00:00 AM 21.74 71.132 0.073 7.2 4.15 8.34
6/16/2022 9:15:00 AM 21.95 71.51 0.073 7.26 4.82 8.44
6/16/2022 9:30:00 AM 22.13 71.834 0.073 7.3 4.6 8.51
6/16/2022 9:45:00 AM 22.24 72.032 0.068 7.35 5.53 8.52
6/16/2022 10:00:00 AM 22.5 72.5 0.073 7.4 4.19 8.6
6/16/2022 10:15:00 AM 22.69 72.842 0.073 7.4 5.42 8.59
6/16/2022 10:30:00 AM 22.74 72.932 0.072 7.43 4.68 8.55
6/16/2022 10:45:00 AM 23.18 73.724 0.073 7.51 4.2 8.69
6/16/2022 11:00:00 AM 23.31 73.958 0.073 7.47 4.16 8.63
6/16/2022 11:15:00 AM 23.64 74.552 0.071 7.57 4.61 8.71
6/16/2022 11:30:00 AM 23.9 75.02 0.069 7.68 5.46 8.72
6/16/2022 11:45:00 AM 23.85 74.93 0.072 7.49 4.67 8.58
6/16/2022 12:00:00 PM 24.15 75.47 0.07 7.69 5.33 8.71
6/16/2022 12:15:00 PM 24.4 75.92 0.072 7.8 5.73 8.7
6/16/2022 12:30:00 PM 24.55 76.19 0.072 7.67 5.49 8.68
6/16/2022 12:45:00 PM 24.73 76.514 0.07 7.8 6.12 8.69
6/16/2022 1:00:00 PM 24.87 76.766 0.072 7.77 7.63 8.69
6/16/2022 1:15:00 PM 24.94 76.892 0.072 7.79 4.16 8.64
6/16/2022 1:30:00 PM 25.05 77.09 0.071 7.78 4.39 8.62
6/16/2022 1:45:00 PM 25.07 77.126 0.071 7.7 6.36 8.59
6/16/2022 2:00:00 PM 25.21 77.378 0.071 7.81 4.43 8.59
6/16/2022 2:15:00 PM 25.62 78.116 0.071 7.85 4.29 8.58
6/16/2022 2:30:00 PM 25.88 78.584 0.071 7.77 4.08 8.51
6/16/2022 2:45:00 PM 25.92 78.656 0.069 7.62 4.87 8.42
6/16/2022 3:00:00 PM 26.36 79.448 0.071 7.75 4.78 8.41
6/16/2022 3:15:00 PM 26.75 80.15 0.071 7.73 4.18 8.33
6/16/2022 3:30:00 PM 26.73 80.114 0.071 7.66 4.69 8.23
6/16/2022 3:45:00 PM 26.84 80.312 0.071 7.66 4.28 8.16
6/16/2022 4:00:00 PM 26.91 80.438 0.071 7.68 4.78 8.12
6/16/2022 4:15:00 PM 26.72 80.096 0.071 7.66 10.35 8.02
6/16/2022 4:30:00 PM 26.69 80.042 0.071 7.62 4.46 7.98
6/16/2022 4:45:00 PM 26.46 79.628 0.072 7.54 4.93 7.76
6/16/2022 5:00:00 PM 26.29 79.32201 0.072 7.4 5.01 7.62
6/16/2022 5:15:00 PM 26.08 78.944 0.072 7.41 4.21 7.4
6/16/2022 5:30:00 PM 25.79 78.422 0.072 7.33 7.69 7.24
6/16/2022 5:45:00 PM 25.57 78.026 0.175 7.27 11.3 7.13
6/16/2022 6:00:00 PM 25.43 77.774 0.082 7.29 4.63 7.02
6/16/2022 6:15:00 PM 25.24 77.432 0.074 7.25 4.17 6.96
6/16/2022 6:30:00 PM 25.05 77.09 0.074 7.23 3.44 6.92
6/16/2022 6:45:00 PM 24.88 76.784 0.074 7.22 4.2 6.91
6/16/2022 7:00:00 PM 24.69 76.442 0.073 7.21 4.97 6.93
6/16/2022 7:15:00 PM 24.58 76.244 0.073 7.2 6.19 6.97
6/16/2022 7:30:00 PM 24.47 76.046 0.075 7.17 5.74 6.98
6/16/2022 7:45:00 PM 24.35 75.83 0.074 7.18 3.09 6.97
6/16/2022 8:00:00 PM 24.25 75.65 0.072 7.14 3.83 6.97
6/16/2022 8:15:00 PM 24.15 75.47 0.074 7.11 3.92 6.96
6/16/2022 8:30:00 PM 24.08 75.344 0.073 7.16 5.37 6.99
6/16/2022 8:45:00 PM 23.97 75.146 0.073 7.17 4.9 6.98
6/16/2022 9:00:00 PM 23.86 74.948 0.074 6.95 4.55 6.96
6/16/2022 9:15:00 PM 23.76 74.768 0.074 7.16 5.58 6.94
6/16/2022 9:30:00 PM 23.65 74.57 0.074 7.14 6.65 6.92
6/16/2022 9:45:00 PM 23.54 74.372 0.074 6.88 5.05 6.93
6/16/2022 10:00:00 PM 23.44 74.192 0.074 7.13 4.56 6.93
6/16/2022 10:15:00 PM 23.35 74.03 0.073 7.13 4.27 6.94
6/16/2022 10:30:00 PM 23.26 73.868 0.073 7.13 4.24 6.94
6/16/2022 10:45:00 PM 23.17 73.706 0.072 7.12 5.17 6.96
6/16/2022 11:00:00 PM 23.1 73.58 0.073 7.1 5.25 6.98
6/16/2022 11:15:00 PM 23.02 73.436 0.072 7.12 5.16 6.99
6/16/2022 11:30:00 PM 22.94 73.292 0.072 7.12 6.18 7.01
6/16/2022 11:45:00 PM 22.86 73.148 0.073 7.11 4.95 7.02
6/17/2022 12:00:00 AM 22.79 73.022 0.073 7.1 5.89 7.04
6/17/2022 12:15:00 AM 22.72 72.896 0.073 7.11 4.87 7.07
6/17/2022 12:30:00 AM 22.64 72.752 0.073 7.13 5.53 7.08
6/17/2022 12:45:00 AM 22.57 72.626 0.073 7.09 6.12 7.1
6/17/2022 1:00:00 AM 22.5 72.5 0.073 7.12 6.05 7.12
6/17/2022 1:15:00 AM 22.42 72.356 0.073 7.15 5.07 7.15
6/17/2022 1:30:00 AM 22.34 72.212 0.073 7.14 4.67 7.17
6/17/2022 1:45:00 AM 22.27 72.086 0.073 7.14 4.62 7.18
6/17/2022 2:00:00 AM 22.2 71.96 0.072 7.11 5.4 7.2
6/17/2022 2:15:00 AM 22.11 71.798 0.073 7.16 4.61 7.23
6/17/2022 2:30:00 AM 22.04 71.672 0.071 7.09 5.46 7.25
6/17/2022 2:45:00 AM 21.97 71.546 0.069 7.11 6.23 7.28
6/17/2022 3:00:00 AM 21.9 71.42 0.072 7.15 5.17 7.29
6/17/2022 3:15:00 AM 21.83 71.294 0.072 6.99 6.31 7.31
6/17/2022 3:30:00 AM 21.75 71.15 0.072 7.14 5.26 7.33
6/17/2022 3:45:00 AM 21.67 71.006 0.072 7.12 6.81 7.35
6/17/2022 4:00:00 AM 21.6 70.88 0.071 7.11 6.49 7.36
6/17/2022 4:15:00 AM 21.52 70.736 0.072 7.15 5.57 7.38
6/17/2022 4:30:00 AM 21.45 70.61 0.072 7.14 4.86 7.39
6/17/2022 4:45:00 AM 21.38 70.484 0.072 7.13 4.93 7.41
6/17/2022 5:00:00 AM 21.32 70.376 0.072 7.13 4.88 7.43
6/17/2022 5:15:00 AM 21.26 70.268 0.072 7.15 4.63 7.45
6/17/2022 5:30:00 AM 21.19 70.142 0.072 7.12 4.6 7.46
6/17/2022 5:45:00 AM 21.13 70.034 0.071 7.12 5.16 7.48
6/17/2022 6:00:00 AM 21.08 69.944 0.072 7.14 4.35 7.51
6/17/2022 6:15:00 AM 21.03 69.854 0.072 7.14 4.45 7.54
6/17/2022 6:30:00 AM 20.99 69.782 0.072 7.06 4.68 7.59
6/17/2022 6:45:00 AM 20.96 69.728 0.072 7.15 4.87 7.66
6/17/2022 7:00:00 AM 20.94 69.692 0.072 7.18 4.82 7.75
6/17/2022 7:15:00 AM 20.93 69.674 0.072 7.12 4.37 7.84
6/17/2022 7:30:00 AM 20.93 69.674 0.072 7.19 3.46 7.91
6/17/2022 7:45:00 AM 20.96 69.728 0.071 7.2 4.27 8.01
6/17/2022 8:00:00 AM 21.01 69.818 0.071 7.23 4.08 8.09
6/17/2022 8:15:00 AM 21.08 69.944 0.071 7.22 4.09 8.15
6/17/2022 8:30:00 AM 21.2 70.16 0.071 7.28 3.21 8.24
6/17/2022 8:45:00 AM 21.34 70.412 0.071 7.27 3.69 8.29
6/17/2022 9:00:00 AM 21.48 70.664 0.071 7.34 4.16 8.34
6/17/2022 9:15:00 AM 21.62 70.916 0.071 7.35 3.45 8.38
6/17/2022 9:30:00 AM 21.8 71.24 0.07 7.31 4.04 8.43
6/17/2022 9:45:00 AM 22.01 71.618 0.071 7.14 3.51 8.49
6/17/2022 10:00:00 AM 22.23 72.014 0.071 7.43 3.47 8.52
6/17/2022 10:15:00 AM 22.49 72.482 0.07 7.43 4.52 8.56
6/17/2022 10:30:00 AM 22.61 72.698 0.07 7.44 3.44 8.55
6/17/2022 10:45:00 AM 22.77 72.986 0.069 7.49 3.49 8.56
6/17/2022 11:00:00 AM 23.02 73.436 0.069 7.56 5.39 8.63
6/17/2022 11:15:00 AM 23.1 73.58 0.069 7.6 9.78 8.6
6/17/2022 11:30:00 AM 23.29 73.922 0.068 7.69 8.47 8.62
6/17/2022 11:45:00 AM 23.4 74.12 0.07 7.67 3.05 8.59
6/17/2022 12:00:00 PM 23.78 74.804 0.07 7.7 381.72 8.63
6/17/2022 12:15:00 PM 23.93 75.074 0.069 7.8 5.02 8.62
6/17/2022 12:30:00 PM 23.95 75.11 0.07 7.78 3.64 8.58
6/17/2022 12:45:00 PM 24.07 75.326 0.07 7.74 4.51 8.56
6/17/2022 1:00:00 PM 24.39 75.902 0.07 7.79 2.99 8.58
6/17/2022 1:15:00 PM 24.79 76.622 0.07 7.67 2.95 8.61
6/17/2022 1:30:00 PM 24.78 76.604 0.069 7.71 3.69 8.5
6/17/2022 1:45:00 PM 25.15 77.27 0.07 7.77 3.03 8.57
6/17/2022 2:00:00 PM 25.32 77.576 0.07 7.76 2.85 8.49
6/17/2022 2:15:00 PM 25.62 78.116 0.07 7.55 2.96 8.48
6/17/2022 2:30:00 PM 25.79 78.422 0.07 7.79 2.98 8.44
6/17/2022 2:45:00 PM 25.75 78.35 0.07 7.74 2.75 8.37
6/17/2022 3:00:00 PM 25.78 78.404 0.07 7.7 2.7 8.32
6/17/2022 3:15:00 PM 25.87 78.566 0.07 7.66 4.53 8.27
6/17/2022 3:30:00 PM 25.98 78.764 0.07 7.51 2.82 8.2
6/17/2022 3:45:00 PM 25.8 78.44 0.07 7.64 2.77 8.13
6/17/2022 4:00:00 PM 25.71 78.278 0.069 7.55 4.15 8.12
6/17/2022 4:15:00 PM 25.68 78.224 0.07 7.58 3.33 8.04
6/17/2022 4:30:00 PM 25.66 78.188 0.07 7.55 4 8
6/17/2022 4:45:00 PM 25.56 78.008 0.07 7.53 3.41 7.96
6/17/2022 5:00:00 PM 25.41 77.738 0.071 7.49 3.64 7.92
6/17/2022 5:15:00 PM 25.23 77.414 0.071 7.39 3.43 7.88
6/17/2022 5:30:00 PM 25.09 77.162 0.071 7.32 3.23 7.85
6/17/2022 5:45:00 PM 24.9 76.82 0.071 7.45 3.76 7.82
6/17/2022 6:00:00 PM 24.74 76.532 0.071 7.22 3.71 7.78
6/17/2022 6:15:00 PM 24.53 76.154 0.071 7.38 2.99 7.72
6/17/2022 6:30:00 PM 24.44 75.992 0.071 7.42 3.43 7.7
6/17/2022 6:45:00 PM 24.33 75.794 0.071 7.38 3.7 7.62
6/17/2022 7:00:00 PM 24.15 75.47 0.071 7.36 3.66 7.57
6/17/2022 7:15:00 PM 24.05 75.29 0.071 7.33 3.81 7.52
6/17/2022 7:30:00 PM 23.85 74.93 0.072 7.31 3.74 7.45
6/17/2022 7:45:00 PM 23.66 74.588 0.072 7.29 3.87 7.39
6/17/2022 8:00:00 PM 23.52 74.336 0.072 7.27 3.95 7.35
6/17/2022 8:15:00 PM 23.38 74.084 0.072 7.24 5 7.32
6/17/2022 8:30:00 PM 23.23 73.814 0.072 7.23 4.11 7.26
6/17/2022 8:45:00 PM 23.08 73.544 0.072 7.21 4 7.22
6/17/2022 9:00:00 PM 22.96 73.328 0.073 7.19 3.83 7.15
6/17/2022 9:15:00 PM 22.84 73.112 0.073 7.18 4.15 7.13
6/17/2022 9:30:00 PM 22.71 72.878 0.073 7.17 4.05 7.09
6/17/2022 9:45:00 PM 22.56 72.608 0.073 7.17 4.09 7.08
6/17/2022 10:00:00 PM 22.43 72.374 0.073 7.16 4.64 7.08
6/17/2022 10:15:00 PM 22.29 72.122 0.073 7.14 4.08 7.06
6/17/2022 10:30:00 PM 22.15 71.87 0.073 7.13 4.21 7.08
6/17/2022 10:45:00 PM 22.05 71.69 0.073 7.13 4.36 7.09
6/17/2022 11:00:00 PM 21.94 71.492 0.073 7.13 4.37 7.08
6/17/2022 11:15:00 PM 21.83 71.294 0.074 7.11 3.65 7.07
6/17/2022 11:30:00 PM 21.7 71.06 0.074 7.12 3.37 7.08
6/17/2022 11:45:00 PM 21.58 70.844 0.074 7.11 3.84 7.09
6/18/2022 12:00:00 AM 21.48 70.664 0.074 7.11 3.74 7.1
6/18/2022 12:15:00 AM 21.32 70.376 0.074 7.1 3.64 7.11
6/18/2022 12:30:00 AM 21.18 70.124 0.074 7.11 3.78 7.15
6/18/2022 12:45:00 AM 21 69.8 0.074 7.11 4.06 7.2
6/18/2022 1:00:00 AM 20.86 69.548 0.074 7.11 3.89 7.19
6/18/2022 1:15:00 AM 20.76 69.368 0.074 7.12 3.76 7.23
6/18/2022 1:30:00 AM 20.66 69.188 0.074 7.1 3.68 7.25
6/18/2022 1:45:00 AM 20.48 68.864 0.074 7.08 3.44 7.3
6/18/2022 2:00:00 AM 20.39 68.702 0.074 7.08 3.25 7.32
6/18/2022 2:15:00 AM 20.27 68.486 0.074 7.09 3.77 7.34
6/18/2022 2:30:00 AM 20.14 68.252 0.074 6.92 3.63 7.37
6/18/2022 2:45:00 AM 20 68 0.075 7.09 4 7.38
6/18/2022 3:00:00 AM 19.91 67.838 0.074 7.09 3.9 7.41
6/18/2022 3:15:00 AM 19.81 67.658 0.075 7.1 3.74 7.44
6/18/2022 3:30:00 AM 19.73 67.514 0.075 7.1 3.65 7.47
6/18/2022 3:45:00 AM 19.64 67.352 0.075 7.11 3.89 7.5
6/18/2022 4:00:00 AM 19.58 67.244 0.075 7.11 3.89 7.52
6/18/2022 4:15:00 AM 19.47 67.046 0.075 7.07 3.4 7.55
6/18/2022 4:30:00 AM 19.37 66.866 0.076 7.12 3.57 7.57
6/18/2022 4:45:00 AM 19.3 66.74 0.077 7.12 3.9 7.6
6/18/2022 5:00:00 AM 19.2 66.56 0.077 7.03 3.82 7.61
6/18/2022 5:15:00 AM 19.09 66.362 0.077 7.11 3.53 7.64
6/18/2022 5:30:00 AM 19 66.2 0.077 7.12 3.87 7.67
6/18/2022 5:45:00 AM 18.91 66.038 0.077 7.12 3.81 7.71
6/18/2022 6:00:00 AM 18.8 65.84 0.077 7.12 3.92 7.72
6/18/2022 6:15:00 AM 18.7 65.66 0.077 7.1 3.53 7.76
6/18/2022 6:30:00 AM 18.58 65.444 0.079 7.13 3.33 7.83
6/18/2022 6:45:00 AM 18.44 65.192 0.08 7.12 3.7 7.86
6/18/2022 7:00:00 AM 18.34 65.012 0.079 7.15 3.99 7.95
6/18/2022 7:15:00 AM 18.28 64.904 0.077 7.16 3.61 8.02
6/18/2022 7:30:00 AM 18.21 64.778 0.076 7.15 3.51 8.07
6/18/2022 7:45:00 AM 18.14 64.652 0.076 7.15 3.61 8.12
6/18/2022 8:00:00 AM 18.06 64.508 0.075 7.15 3.69 8.17
6/18/2022 8:15:00 AM 17.97 64.346 0.075 7.15 3.61 8.23
6/18/2022 8:30:00 AM 17.87 64.166 0.075 7.18 3.5 8.36
6/18/2022 8:45:00 AM 17.85 64.13 0.075 7.19 3.96 8.48
6/18/2022 9:00:00 AM 17.75 63.95 0.074 7.15 3.71 8.6
6/18/2022 9:15:00 AM 17.76 63.968 0.074 7.22 3.76 8.74
6/18/2022 9:30:00 AM 17.76 63.968 0.074 7.27 3.77 8.79
6/18/2022 9:45:00 AM 17.74 63.932 0.074 7.28 3.92 8.86
6/18/2022 10:00:00 AM 17.65 63.77 0.074 7.27 4.06 8.92
6/18/2022 10:15:00 AM 17.65 63.77 0.074 7.36 4.04 9
6/18/2022 10:30:00 AM 17.6 63.68 0.073 7.41 3.65 9.1
6/18/2022 10:45:00 AM 17.64 63.752 0.073 7.44 3.34 9.12
6/18/2022 11:00:00 AM 17.64 63.752 0.073 7.37 3.98 9.17
6/18/2022 11:15:00 AM 17.63 63.734 0.073 7.47 3.86 9.22
6/18/2022 11:30:00 AM 17.63 63.734 0.073 7.51 3.49 9.28
6/18/2022 11:45:00 AM 17.74 63.932 0.073 7.57 3.8 9.36
6/18/2022 12:00:00 PM 17.96 64.328 0.073 7.69 3.52 9.4
6/18/2022 12:15:00 PM 18.47 65.246 0.073 7.8 4.49 9.41
6/18/2022 12:30:00 PM 18.79 65.82201 0.073 7.74 5.04 9.39
6/18/2022 12:45:00 PM 19.18 66.524 0.069 7.72 5.52 9.41
6/18/2022 1:00:00 PM 19.91 67.838 0.072 7.74 4.3 9.4
6/18/2022 1:15:00 PM 20.43 68.774 0.039 7.81 5.57 9.37
6/18/2022 1:30:00 PM 20.97 69.746 0.072 7.69 4.54 9.3
6/18/2022 1:45:00 PM 21.22 70.196 0.072 7.68 4 9.24
6/18/2022 2:00:00 PM 21.67 71.006 0.072 7.65 4.31 9.21
6/18/2022 2:15:00 PM 22.07 71.726 0.072 7.61 4.13 9.15
6/18/2022 2:30:00 PM 22.38 72.284 0.072 7.62 4.79 9.09
6/18/2022 2:45:00 PM 22.47 72.446 0.072 7.71 4.37 9
6/18/2022 3:00:00 PM 22.59 72.662 0.072 7.58 4.3 8.94
6/18/2022 3:15:00 PM 22.73 72.914 0.072 7.63 4.53 8.88
6/18/2022 3:30:00 PM 22.82 73.076 0.072 7.63 4.56 8.83
6/18/2022 3:45:00 PM 22.78 73.004 0.072 7.6 4.37 8.82
6/18/2022 4:00:00 PM 22.65 72.77 0.072 7.61 4.62 8.76
6/18/2022 4:15:00 PM 22.5 72.5 0.072 7.49 4.38 8.7
6/18/2022 4:30:00 PM 22.36 72.248 0.072 7.55 4.6 8.65
6/18/2022 4:45:00 PM 22.21 71.978 0.072 7.56 4.38 8.59
6/18/2022 5:00:00 PM 21.93 71.474 0.072 7.47 7.9 8.58
6/18/2022 5:15:00 PM 21.66 70.988 0.072 7.49 2.98 8.53
6/18/2022 5:30:00 PM 21.42 70.556 0.072 7.51 3.62 8.5
6/18/2022 5:45:00 PM 21.24 70.232 0.072 7.46 3.99 8.44
6/18/2022 6:00:00 PM 21.06 69.908 0.072 7.46 4.3 8.4
6/18/2022 6:15:00 PM 20.95 69.71 0.072 7.43 3.97 8.34
6/18/2022 6:30:00 PM 20.78 69.404 0.072 7.44 4.24 8.3
6/18/2022 6:45:00 PM 20.59 69.062 0.072 7.39 4.36 8.26
6/18/2022 7:00:00 PM 20.48 68.864 0.073 7.39 4.53 8.23
6/18/2022 7:15:00 PM 20.35 68.63 0.072 7.32 4.27 8.2
6/18/2022 7:30:00 PM 20.25 68.45 0.072 7.36 4.76 8.16
6/18/2022 7:45:00 PM 20.17 68.306 0.072 7.32 4.19 8.13
6/18/2022 8:00:00 PM 20 68 0.072 7.3 4.35 8.1
6/18/2022 8:15:00 PM 19.81 67.658 0.072 7.3 4.47 8.07
6/18/2022 8:30:00 PM 19.62 67.316 0.072 7.27 4.12 8.03
6/18/2022 8:45:00 PM 19.42 66.956 0.072 7.27 4.27 7.99
6/18/2022 9:00:00 PM 19.26 66.668 0.072 7.21 4.27 7.95
6/18/2022 9:15:00 PM 19.09 66.362 0.073 7.21 3.96 7.92
6/18/2022 9:30:00 PM 18.87 65.966 0.073 7.23 4.34 7.9
6/18/2022 9:45:00 PM 18.68 65.624 0.073 7.19 4.23 7.9
6/18/2022 10:00:00 PM 18.51 65.318 0.073 7.17 4.09 7.9
6/18/2022 10:15:00 PM 18.33 64.994 0.073 7.19 4.31 7.91
6/18/2022 10:30:00 PM 18.18 64.724 0.073 7.19 4.35 7.92
6/18/2022 10:45:00 PM 18.02 64.436 0.074 7.17 4.41 7.94
6/18/2022 11:00:00 PM 17.87 64.166 0.073 7.18 4.12 7.96
6/18/2022 11:15:00 PM 17.7 63.86 0.074 7.16 4.64 7.99
6/18/2022 11:30:00 PM 17.53 63.554 0.074 7.16 4.98 8.02
6/18/2022 11:45:00 PM 17.39 63.302 0.074 7.16 4.26 8.05
6/19/2022 12:00:00 AM 17.25 63.05 0.074 7.15 4.97 8.08
6/19/2022 12:15:00 AM 17.1 62.78 0.074 7.16 4.64 8.11
6/19/2022 12:30:00 AM 16.95 62.51 0.074 7.15 5.18 8.14
6/19/2022 12:45:00 AM 16.81 62.258 0.074 7.1 4.67 8.19
6/19/2022 1:00:00 AM 16.66 61.988 0.074 7.11 4.66 8.21
6/19/2022 1:15:00 AM 16.53 61.754 0.074 7.1 4.6 8.23
6/19/2022 1:30:00 AM 16.41 61.538 0.074 7.1 5.18 8.28
6/19/2022 1:45:00 AM 16.25 61.25 0.075 7.06 4.78 8.29
6/19/2022 2:00:00 AM 16.12 61.016 0.075 7.08 4.53 8.31
6/19/2022 2:15:00 AM 16 60.8 0.075 7.08 5.22 8.35
6/19/2022 2:30:00 AM 15.88 60.584 0.075 7.08 4.73 8.39
6/19/2022 2:45:00 AM 15.74 60.332 0.075 7.05 4.65 8.42
6/19/2022 3:00:00 AM 15.63 60.134 0.075 7.07 5.22 8.45
6/19/2022 3:15:00 AM 15.51 59.918 0.075 7.02 4.63 8.49
6/19/2022 3:30:00 AM 15.37 59.666 0.075 7.08 4.51 8.54
6/19/2022 3:45:00 AM 15.25 59.45 0.075 7.08 4.33 8.55
6/19/2022 4:00:00 AM 15.16 59.288 0.074 7.05 5.98 8.59
6/19/2022 4:15:00 AM 15.03 59.054 0.075 7.01 5.14 8.62
6/19/2022 4:30:00 AM 14.9 58.82 0.075 7.1 5.31 8.66
6/19/2022 4:45:00 AM 14.78 58.604 0.075 7.1 4.76 8.7
6/19/2022 5:00:00 AM 14.67 58.406 0.075 7.1 4.6 8.74
6/19/2022 5:15:00 AM 14.54 58.172 0.075 7.05 4.61 8.77
6/19/2022 5:30:00 AM 14.43 57.974 0.075 7.1 4.59 8.8
6/19/2022 5:45:00 AM 14.31 57.758 0.075 7.11 4.71 8.86
6/19/2022 6:00:00 AM 14.18 57.524 0.075 7.12 4.58 8.91
6/19/2022 6:15:00 AM 14.07 57.326 0.075 7.07 4.54 8.98
6/19/2022 6:30:00 AM 14.02 57.236 0.075 7.13 4.63 9.02
6/19/2022 6:45:00 AM 13.93 57.074 0.075 7.13 4.59 9.1
6/19/2022 7:00:00 AM 13.87 56.966 0.074 7.16 4.69 9.16
6/19/2022 7:15:00 AM 13.86 56.948 0.074 7.18 4.97 9.28
6/19/2022 7:30:00 AM 13.9 57.02 0.074 7.22 4.85 9.36
6/19/2022 7:45:00 AM 13.97 57.146 0.074 7.2 4.86 9.45
6/19/2022 8:00:00 AM 14.09 57.362 0.074 7.24 4.7 9.49
6/19/2022 8:15:00 AM 14.27 57.686 0.074 7.23 4.94 9.58
6/19/2022 8:30:00 AM 14.49 58.082 0.074 7.29 4.92 9.64
6/19/2022 8:45:00 AM 14.71 58.478 0.074 7.31 5.34 9.68
6/19/2022 9:00:00 AM 14.89 58.802 0.074 7.34 5.3 9.76
6/19/2022 9:15:00 AM 15 59 0.074 7.39 4.86 9.81
6/19/2022 9:30:00 AM 15.21 59.378 0.073 7.41 4.87 9.83
6/19/2022 9:45:00 AM 15.44 59.792 0.073 7.44 5.2 9.85
6/19/2022 10:00:00 AM 15.77 60.386 0.073 7.49 5.06 9.85
6/19/2022 10:15:00 AM 16.18 61.124 0.073 7.48 4.85 9.86
6/19/2022 10:30:00 AM 16.62 61.916 0.073 7.49 5.26 9.8
6/19/2022 10:45:00 AM 17.03 62.654 0.073 7.59 4.96 9.79
6/19/2022 11:00:00 AM 17.41 63.338 0.073 7.63 4.88 9.76
6/19/2022 11:15:00 AM 17.81 64.058 0.073 7.6 4.97 9.74
6/19/2022 11:30:00 AM 18.12 64.616 0.073 7.62 5.18 9.74
6/19/2022 11:45:00 AM 18.45 65.21 0.072 7.77 4.78 9.69
6/19/2022 12:00:00 PM 18.89 66.002 0.073 7.8 4.65 9.67
6/19/2022 12:15:00 PM 19.32 66.776 0.072 7.71 4.8 9.58
6/19/2022 12:30:00 PM 19.7 67.46 0.072 7.7 5.02 9.54
6/19/2022 12:45:00 PM 20.05 68.09 0.072 7.83 6.24 9.52
6/19/2022 1:00:00 PM 20.37 68.666 0.072 7.79 4.74 9.46
6/19/2022 1:15:00 PM 20.81 69.458 0.072 7.79 10.13 9.39
6/19/2022 1:30:00 PM 21.22 70.196 0.072 7.73 4.69 9.32
6/19/2022 1:45:00 PM 21.45 70.61 0.068 7.67 6.41 9.28
6/19/2022 2:00:00 PM 21.65 70.97 0.072 7.7 4.71 9.24
6/19/2022 2:15:00 PM 21.95 71.51 0.072 7.7 4.71 9.24
6/19/2022 2:30:00 PM 22.13 71.834 0.072 7.72 5.17 9.21
6/19/2022 2:45:00 PM 22.31 72.158 0.072 7.69 4.91 9.09
6/19/2022 3:00:00 PM 22.27 72.086 0.072 7.68 5.06 9.01
6/19/2022 3:15:00 PM 22.29 72.122 0.072 7.65 4.72 8.98
6/19/2022 3:30:00 PM 22.34 72.212 0.072 7.63 5.29 8.97
6/19/2022 3:45:00 PM 22.24 72.032 0.07 7.6 5.32 8.91
6/19/2022 4:00:00 PM 22.27 72.086 0.066 7.55 5.75 8.85
6/19/2022 4:15:00 PM 22.17 71.906 0.072 7.55 5.04 8.82
6/19/2022 4:30:00 PM 22.03 71.654 0.072 7.47 5.02 8.74
6/19/2022 4:45:00 PM 21.92 71.456 0.072 7.55 5.1 8.73
6/19/2022 5:00:00 PM 21.7 71.06 0.068 7.52 5.53 8.7
6/19/2022 5:15:00 PM 21.51 70.718 0.072 7.5 7.78 8.66
6/19/2022 5:30:00 PM 21.32 70.376 0.071 7.48 8 8.61
6/19/2022 5:45:00 PM 21.07 69.926 0.072 7.47 5.02 8.56
6/19/2022 6:00:00 PM 20.93 69.674 0.07 7.44 6.07 8.51
6/19/2022 6:15:00 PM 20.76 69.368 0.071 7.42 5.64 8.49
6/19/2022 6:30:00 PM 20.53 68.954 0.072 7.33 2.46 8.42
6/19/2022 6:45:00 PM 20.4 68.72 0.072 7.43 2.65 8.38
6/19/2022 7:00:00 PM 20.24 68.432 0.073 7.39 2.42 8.34
6/19/2022 7:15:00 PM 20.08 68.144 0.073 7.36 2.47 8.29
6/19/2022 7:30:00 PM 19.96 67.92799 0.073 7.36 2.47 8.23
6/19/2022 7:45:00 PM 19.83 67.694 0.073 7.31 2.04 8.19
6/19/2022 8:00:00 PM 19.71 67.478 0.073 7.32 2.09 8.16
6/19/2022 8:15:00 PM 19.56 67.208 0.073 7.33 2.11 8.15
6/19/2022 8:30:00 PM 19.4 66.92 0.073 7.31 2.19 8.11
6/19/2022 8:45:00 PM 19.21 66.578 0.074 7.3 2.21 8.07
6/19/2022 9:00:00 PM 19.05 66.29 0.073 7.28 2.26 8.05
6/19/2022 9:15:00 PM 18.86 65.948 0.074 7.25 2.27 8
6/19/2022 9:30:00 PM 18.66 65.588 0.074 7.24 2.31 7.97
6/19/2022 9:45:00 PM 18.44 65.192 0.075 7.22 2.34 7.97
6/19/2022 10:00:00 PM 18.26 64.868 0.075 7.23 2.38 7.98
6/19/2022 10:15:00 PM 18.1 64.58 0.074 7.14 2.47 7.98
6/19/2022 10:30:00 PM 17.91 64.238 0.075 7.21 2.31 7.98
6/19/2022 10:45:00 PM 17.78 64.004 0.073 7.16 3.14 8
6/19/2022 11:00:00 PM 17.61 63.698 0.075 7.2 2.6 8.02
6/19/2022 11:15:00 PM 17.47 63.446 0.075 7.2 2.66 8.04
6/19/2022 11:30:00 PM 17.32 63.176 0.075 7.2 2.63 8.08
6/19/2022 11:45:00 PM 17.16 62.888 0.075 7.2 2.68 8.09
6/20/2022 12:00:00 AM 17.01 62.618 0.075 7.19 2.65 8.11
6/20/2022 12:15:00 AM 16.86 62.348 0.075 7.19 2.67 8.14
6/20/2022 12:30:00 AM 16.75 62.15 0.075 7.2 2.65 8.17
6/20/2022 12:45:00 AM 16.61 61.898 0.075 7.12 2.79 8.21
6/20/2022 1:00:00 AM 16.49 61.682 0.075 7.18 2.69 8.23
6/20/2022 1:15:00 AM 16.4 61.52 0.075 7.11 2.82 8.27
6/20/2022 1:30:00 AM 16.26 61.268 0.075 7.19 2.9 8.28
6/20/2022 1:45:00 AM 16.15 61.07 0.075 7.18 2.86 8.3
6/20/2022 2:00:00 AM 16.05 60.89 0.075 7.18 2.94 8.33
6/20/2022 2:15:00 AM 15.94 60.692 0.075 7.15 3 8.36
6/20/2022 2:30:00 AM 15.83 60.494 0.075 7.19 3.09 8.4
6/20/2022 2:45:00 AM 15.72 60.296 0.075 7.18 3.01 8.42
6/20/2022 3:00:00 AM 15.64 60.152 0.075 7.18 2.98 8.45
6/20/2022 3:15:00 AM 15.57 60.026 0.075 7.19 2.93 8.51
6/20/2022 3:30:00 AM 15.48 59.864 0.075 7.05 2.93 8.53
6/20/2022 3:45:00 AM 15.41 59.738 0.075 7.18 2.9 8.55
6/20/2022 4:00:00 AM 15.37 59.666 0.075 7.15 3.08 8.57
6/20/2022 4:15:00 AM 15.27 59.486 0.075 7.18 3.91 8.58
6/20/2022 4:30:00 AM 15.2 59.36 0.076 7.14 2.97 8.6
6/20/2022 4:45:00 AM 15.16 59.288 0.075 7.18 2.88 8.62
6/20/2022 5:00:00 AM 15.08 59.144 0.075 7.17 2.93 8.64
6/20/2022 5:15:00 AM 15.04 59.072 0.075 7.18 2.79 8.66
6/20/2022 5:30:00 AM 14.98 58.964 0.075 7.17 2.84 8.67
6/20/2022 5:45:00 AM 14.92 58.856 0.075 7.17 2.77 8.71
6/20/2022 6:00:00 AM 14.87 58.766 0.075 7.16 2.68 8.72
6/20/2022 6:15:00 AM 14.83 58.694 0.075 7.17 2.78 8.76
6/20/2022 6:30:00 AM 14.79 58.622 0.075 7.15 2.72 8.81
6/20/2022 6:45:00 AM 14.73 58.514 0.076 7.17 2.63 8.83
6/20/2022 7:00:00 AM 14.7 58.46 0.076 7.18 2.6 8.89
6/20/2022 7:15:00 AM 14.67 58.406 0.076 7.18 2.61 8.94
6/20/2022 7:30:00 AM 14.64 58.352 0.075 7.2 2.63 9.01
6/20/2022 7:45:00 AM 14.63 58.334 0.075 7.21 2.7 9.12
6/20/2022 8:00:00 AM 14.64 58.352 0.075 7.22 2.64 9.2
6/20/2022 8:15:00 AM 14.68 58.424 0.075 7.22 2.99 9.35
6/20/2022 8:30:00 AM 14.7 58.46 0.074 7.27 2.75 9.39
6/20/2022 8:45:00 AM 14.7 58.46 0.075 7.27 2.7 9.47
6/20/2022 9:00:00 AM 14.75 58.55 0.074 7.28 2.72 9.58
6/20/2022 9:15:00 AM 14.79 58.622 0.074 7.31 2.56 9.62
6/20/2022 9:30:00 AM 14.89 58.802 0.074 7.36 2.51 9.75
6/20/2022 9:45:00 AM 15.01 59.018 0.074 7.39 2.53 9.79
6/20/2022 10:00:00 AM 15.12 59.216 0.073 7.43 2.61 9.87
6/20/2022 10:15:00 AM 15.21 59.378 0.074 7.46 2.54 9.91
6/20/2022 10:30:00 AM 15.36 59.648 0.073 7.52 2.54 9.98
6/20/2022 10:45:00 AM 15.58 60.044 0.073 7.47 2.58 10.03
6/20/2022 11:00:00 AM 15.91 60.638 0.073 7.69 2.54 10.06
6/20/2022 11:15:00 AM 16.55 61.79 0.073 7.67 2.82 10.03
6/20/2022 11:30:00 AM 16.9 62.42 0.073 7.74 2.65 10.02
6/20/2022 11:45:00 AM 17.35 63.23 0.073 7.7 2.62 10.05
6/20/2022 12:00:00 PM 17.9 64.22 0.073 7.78 2.55 9.98
6/20/2022 12:15:00 PM 18.12 64.616 0.072 7.86 3.4 9.95
6/20/2022 12:30:00 PM 18.59 65.462 0.072 7.91 2.62 9.93
6/20/2022 12:45:00 PM 18.89 66.002 0.073 7.85 2.54 9.86
6/20/2022 1:00:00 PM 18.9 66.02 0.072 7.78 2.53 9.82
6/20/2022 1:15:00 PM 19.54 67.172 0.072 7.77 2.46 9.77
6/20/2022 1:30:00 PM 19.5 67.1 0.072 7.82 2.63 9.71
6/20/2022 1:45:00 PM 19.72 67.496 0.072 7.75 2.52 9.66
6/20/2022 2:00:00 PM 20.27 68.486 0.072 7.82 2.44 9.62
6/20/2022 2:15:00 PM 20.83 69.494 0.072 7.71 2.55 9.56
6/20/2022 2:30:00 PM 21.24 70.232 0.072 7.88 2.59 9.53
6/20/2022 2:45:00 PM 21.13 70.034 0.071 7.8 2.55 9.4
6/20/2022 3:00:00 PM 20.76 69.368 0.072 7.8 2.61 9.35
6/20/2022 3:15:00 PM 20.44 68.792 0.07 7.8 4.27 9.32
6/20/2022 3:30:00 PM 20.34 68.612 0.071 7.81 2.61 9.34
6/20/2022 3:45:00 PM 20.29 68.522 0.071 7.84 2.56 9.35
6/20/2022 4:00:00 PM 20.28 68.504 0.071 7.79 2.63 9.3
6/20/2022 4:15:00 PM 20.16 68.288 0.071 7.77 2.69 9.22
6/20/2022 4:30:00 PM 20 68 0.071 7.73 2.65 9.16
6/20/2022 4:45:00 PM 19.91 67.838 0.071 7.67 2.72 9.12
6/20/2022 5:00:00 PM 19.85 67.73 0.071 7.72 2.7 9.16
6/20/2022 5:15:00 PM 19.86 67.748 0.071 7.71 2.65 9.18
6/20/2022 5:30:00 PM 19.79 67.622 0.071 7.68 2.61 9.16
6/20/2022 5:45:00 PM 19.74 67.532 0.071 7.64 2.68 9.12
6/20/2022 6:00:00 PM 19.68 67.424 0.071 7.64 2.68 9.05
6/20/2022 6:15:00 PM 19.49 67.082 0.071 7.57 2.66 8.94
6/20/2022 6:30:00 PM 19.4 66.92 0.072 7.5 3.44 8.8
6/20/2022 6:45:00 PM 19.32 66.776 0.072 7.47 3.09 8.73
6/20/2022 7:00:00 PM 19.21 66.578 0.072 7.45 2.95 8.67
6/20/2022 7:15:00 PM 19.04 66.272 0.072 7.31 2.73 8.63
6/20/2022 7:30:00 PM 19 66.2 0.072 7.39 2.76 8.57
6/20/2022 7:45:00 PM 18.93 66.074 0.073 7.38 3.15 8.48
6/20/2022 8:00:00 PM 18.86 65.948 0.073 7.35 3.06 8.41
6/20/2022 8:15:00 PM 18.78 65.804 0.073 7.33 3.09 8.37
6/20/2022 8:30:00 PM 18.67 65.606 0.073 7.3 2.89 8.33
6/20/2022 8:45:00 PM 18.56 65.408 0.073 7.28 3.05 8.28
6/20/2022 9:00:00 PM 18.48 65.264 0.073 7.28 3.26 8.24
6/20/2022 9:15:00 PM 18.41 65.138 0.073 7.25 3.49 8.18
6/20/2022 9:30:00 PM 18.34 65.012 0.073 7.23 3.46 8.18
6/20/2022 9:45:00 PM 18.27 64.886 0.073 7.2 3.15 8.15
6/20/2022 10:00:00 PM 18.21 64.778 0.073 7.17 3.27 8.14
6/20/2022 10:15:00 PM 18.15 64.67 0.073 7.17 3.24 8.12
6/20/2022 10:30:00 PM 18.09 64.562 0.073 7.16 2.88 8.11
6/20/2022 10:45:00 PM 18.03 64.454 0.073 7.15 3.07 8.08
6/20/2022 11:00:00 PM 17.98 64.364 0.073 7.14 3.04 8.09
6/20/2022 11:15:00 PM 17.93 64.274 0.073 7.15 3.11 8.09
6/20/2022 11:30:00 PM 17.87 64.166 0.074 7.15 3.15 8.08
6/20/2022 11:45:00 PM 17.81 64.058 0.074 7.15 3.12 8.08
6/21/2022 12:00:00 AM 17.76 63.968 0.074 7.14 2.99 8.07
6/21/2022 12:15:00 AM 17.71 63.878 0.074 7.15 2.97 8.09
6/21/2022 12:30:00 AM 17.66 63.788 0.074 7.13 2.85 8.08
6/21/2022 12:45:00 AM 17.61 63.698 0.074 7.14 2.98 8.08
6/21/2022 1:00:00 AM 17.57 63.626 0.074 7.13 2.86 8.09
6/21/2022 1:15:00 AM 17.52 63.536 0.074 7.11 3.01 8.1
6/21/2022 1:30:00 AM 17.48 63.464 0.074 7.15 2.97 8.1
6/21/2022 1:45:00 AM 17.42 63.356 0.074 7.14 2.98 8.11
6/21/2022 2:00:00 AM 17.37 63.266 0.074 6.98 2.88 8.12
6/21/2022 2:15:00 AM 17.31 63.158 0.074 7.11 3.49 8.11
6/21/2022 2:30:00 AM 17.26 63.068 0.075 7.12 3.12 8.15
6/21/2022 2:45:00 AM 17.21 62.978 0.075 7.13 2.95 8.15
6/21/2022 3:00:00 AM 17.16 62.888 0.075 7.13 2.94 8.17
6/21/2022 3:15:00 AM 17.12 62.816 0.075 7.12 2.98 8.18
6/21/2022 3:30:00 AM 17.08 62.744 0.074 7.12 2.95 8.2
6/21/2022 3:45:00 AM 17.03 62.654 0.075 7.11 2.75 8.2
6/21/2022 4:00:00 AM 16.99 62.582 0.075 7.11 2.79 8.21
6/21/2022 4:15:00 AM 16.94 62.492 0.075 7.11 2.88 8.23
6/21/2022 4:30:00 AM 16.89 62.402 0.075 7.1 2.77 8.22
6/21/2022 4:45:00 AM 16.83 62.294 0.075 7.11 2.78 8.26
6/21/2022 5:00:00 AM 16.77 62.186 0.075 7.11 2.74 8.27
6/21/2022 5:15:00 AM 16.72 62.096 0.075 7.12 2.72 8.28
6/21/2022 5:30:00 AM 16.7 62.06 0.075 7.11 2.76 8.31
6/21/2022 5:45:00 AM 16.67 62.006 0.075 7.11 2.79 8.3
6/21/2022 6:00:00 AM 16.65 61.97 0.076 7.13 2.71 8.33
6/21/2022 6:15:00 AM 16.63 61.934 0.077 7.14 2.54 8.36
6/21/2022 6:30:00 AM 16.61 61.898 0.077 7.13 2.67 8.39
6/21/2022 6:45:00 AM 16.59 61.862 0.078 7.1 2.66 8.41
6/21/2022 7:00:00 AM 16.59 61.862 0.078 7.13 2.63 8.49
6/21/2022 7:15:00 AM 16.64 61.952 0.077 7.16 2.56 8.66
6/21/2022 7:30:00 AM 16.59 61.862 0.077 7.16 2.66 8.62
6/21/2022 7:45:00 AM 16.53 61.754 0.077 7.14 3.6 8.5
6/21/2022 8:00:00 AM 16.38 61.484 0.081 7.1 4.79 8.57
6/21/2022 8:15:00 AM 16.35 61.43 1.67 7.73 494.57 8.85
6/21/2022 8:30:00 AM 16.12 61.016 0.334 7.96 268.15 9.08
6/21/2022 8:45:00 AM 16.1 60.98 0.141 7.54 65.82 9
6/21/2022 9:00:00 AM 16.18 61.124 0.096 7.36 14.31 8.85
6/21/2022 9:15:00 AM 16.2 61.16 0.078 7.3 7.16 8.87
6/21/2022 9:30:00 AM 16.28 61.304 0.074 7.24 6.84 8.94
6/21/2022 9:45:00 AM 16.53 61.754 0.072 7.33 6.55 9.07
6/21/2022 10:00:00 AM 16.7 62.06 0.071 7.36 6.66 9.18
6/21/2022 10:15:00 AM 16.94 62.492 0.071 7.38 7.02 9.27
6/21/2022 10:30:00 AM 17.35 63.23 0.071 7.36 8.12 9.34
6/21/2022 10:45:00 AM 17.7 63.86 0.072 7.43 7.77 9.37
6/21/2022 11:00:00 AM 18.01 64.418 0.071 7.51 7.32 9.39
6/21/2022 11:15:00 AM 18.33 64.994 0.071 7.51 7.59 9.38
6/21/2022 11:30:00 AM 18.68 65.624 0.071 7.55 7.33 9.38
6/21/2022 11:45:00 AM 19.05 66.29 0.071 7.45 7.28 9.38
6/21/2022 12:00:00 PM 19.34 66.812 0.07 7.55 6.88 9.38
6/21/2022 12:15:00 PM 19.58 67.244 0.069 7.72 8.35 9.37
6/21/2022 12:30:00 PM 19.81 67.658 0.071 7.74 8.1 9.31
6/21/2022 12:45:00 PM 20.17 68.306 0.073 7.72 7.78 9.21
6/21/2022 1:00:00 PM 20.49 68.882 0.073 7.59 7.59 9.15
6/21/2022 1:15:00 PM 20.79 69.422 0.074 7.69 9.58 9.1
6/21/2022 1:30:00 PM 21.08 69.944 0.075 7.65 10.33 9.07
6/21/2022 1:45:00 PM 21.32 70.376 0.076 7.48 11.05 9.05
6/21/2022 2:00:00 PM 21.54 70.772 0.076 7.52 12.91 9.02
6/21/2022 2:15:00 PM 21.73 71.114 0.077 7.63 14.45 8.98
6/21/2022 2:30:00 PM 21.87 71.366 0.076 7.69 14.44 8.96
6/21/2022 2:45:00 PM 22 71.6 0.075 7.72 13.25 8.92
6/21/2022 3:00:00 PM 22.14 71.852 0.075 7.41 11.44 8.88
6/21/2022 3:15:00 PM 22.27 72.086 0.075 7.53 10.03 8.84
6/21/2022 3:30:00 PM 22.38 72.284 0.075 7.56 9.24 8.79
6/21/2022 3:45:00 PM 22.47 72.446 0.075 7.52 8.5 8.74
6/21/2022 4:00:00 PM 22.54 72.57201 0.075 7.54 8.95 8.7
6/21/2022 4:15:00 PM 22.6 72.68 0.075 7.5 10.64 8.65
6/21/2022 4:30:00 PM 22.65 72.77 0.075 7.48 14.27 8.58
6/21/2022 4:45:00 PM 22.66 72.788 0.075 7.5 18.79 8.52
6/21/2022 5:00:00 PM 22.66 72.788 0.075 7.47 23.36 8.44
6/21/2022 5:15:00 PM 22.65 72.77 0.075 7.45 25.74 8.37
6/21/2022 5:30:00 PM 22.62 72.716 0.075 7.41 26.15 8.32
6/21/2022 5:45:00 PM 22.58 72.644 0.075 7.38 24.99 8.25
6/21/2022 6:00:00 PM 22.54 72.57201 0.075 7.4 23.35 8.18
6/21/2022 6:15:00 PM 22.51 72.518 0.074 7.37 21.1 8.14
6/21/2022 6:30:00 PM 22.49 72.482 0.074 7.33 18.05 8.1
6/21/2022 6:45:00 PM 22.46 72.42799 0.074 7.34 16.14 8.05
6/21/2022 7:00:00 PM 22.41 72.338 0.074 7.31 14.26 8
6/21/2022 7:15:00 PM 22.35 72.23 0.073 7.3 12.99 7.95
6/21/2022 7:30:00 PM 22.29 72.122 0.073 7.27 11.54 7.89
6/21/2022 7:45:00 PM 22.23 72.014 0.072 7.25 10.41 7.85
6/21/2022 8:00:00 PM 22.16 71.888 0.072 7.23 9.53 7.8
6/21/2022 8:15:00 PM 22.07 71.726 0.072 7.22 8.96 7.76
6/21/2022 8:30:00 PM 21.97 71.546 0.072 7.21 8.3 7.72
6/21/2022 8:45:00 PM 21.89 71.402 0.071 7.19 7.97 7.68
6/21/2022 9:00:00 PM 21.8 71.24 0.072 7.17 7.38 7.65
6/21/2022 9:15:00 PM 21.72 71.096 0.071 7.04 7.21 7.61
6/21/2022 9:30:00 PM 21.63 70.934 0.071 7.15 7.01 7.6
6/21/2022 9:45:00 PM 21.54 70.772 0.071 7.14 7.15 7.58
6/21/2022 10:00:00 PM 21.44 70.592 0.072 7.12 7.25 7.56
6/21/2022 10:15:00 PM 21.34 70.412 0.072 7.11 7.28 7.57
6/21/2022 10:30:00 PM 21.24 70.232 0.072 7.11 7.19 7.58
6/21/2022 10:45:00 PM 21.13 70.034 0.072 7.1 6.97 7.59
6/21/2022 11:00:00 PM 21.01 69.818 0.072 7.11 7.09 7.6
6/21/2022 11:15:00 PM 20.91 69.638 0.072 7.12 6.7 7.61
6/21/2022 11:30:00 PM 20.81 69.458 0.073 7.13 6.46 7.63
6/21/2022 11:45:00 PM 20.71 69.278 0.073 7.15 6.26 7.64
6/22/2022 12:00:00 AM 20.61 69.098 0.073 7.12 6.79 7.66
6/22/2022 12:15:00 AM 20.51 68.918 0.073 7.11 6.29 7.67
6/22/2022 12:30:00 AM 20.41 68.738 0.073 7.11 6.26 7.69
6/22/2022 12:45:00 AM 20.32 68.576 0.073 7.11 6.26 7.7
6/22/2022 1:00:00 AM 20.22 68.396 0.073 7.12 6.01 7.72
6/22/2022 1:15:00 AM 20.13 68.234 0.073 7.1 5.8 7.74
6/22/2022 1:30:00 AM 20.03 68.054 0.073 7.11 5.86 7.76
6/22/2022 1:45:00 AM 19.94 67.892 0.073 7.11 5.82 7.77
6/22/2022 2:00:00 AM 19.85 67.73 0.074 7.11 5.81 7.79
6/22/2022 2:15:00 AM 19.76 67.568 0.074 7.09 5.53 7.81
6/22/2022 2:30:00 AM 19.67 67.406 0.074 7.1 5.47 7.82
6/22/2022 2:45:00 AM 19.59 67.262 0.074 7.05 5.48 7.83
6/22/2022 3:00:00 AM 19.51 67.118 0.074 7.03 5.3 7.85
6/22/2022 3:15:00 AM 19.44 66.992 0.074 7.09 5.13 7.87
6/22/2022 3:30:00 AM 19.36 66.848 0.074 7.08 5.03 7.88
6/22/2022 3:45:00 AM 19.29 66.722 0.074 7.1 4.85 7.9
6/22/2022 4:00:00 AM 19.22 66.596 0.074 7.1 4.82 7.9
6/22/2022 4:15:00 AM 19.16 66.488 0.074 7.1 4.96 7.92
6/22/2022 4:30:00 AM 19.09 66.362 0.074 7.07 4.7 7.94
6/22/2022 4:45:00 AM 19.02 66.236 0.074 7.04 4.59 7.95
6/22/2022 5:00:00 AM 18.96 66.128 0.074 7.12 4.52 7.97
6/22/2022 5:15:00 AM 18.9 66.02 0.074 7.13 4.22 7.99
6/22/2022 5:30:00 AM 18.84 65.912 0.074 7.12 4.25 8
6/22/2022 5:45:00 AM 18.78 65.804 0.075 7.12 4.08 8.01
6/22/2022 6:00:00 AM 18.72 65.696 0.075 7.16 4.01 8.03
6/22/2022 6:15:00 AM 18.66 65.588 0.075 7.16 3.91 8.07
6/22/2022 6:30:00 AM 18.62 65.516 0.075 7.16 3.79 8.1
6/22/2022 6:45:00 AM 18.58 65.444 0.075 7.18 3.8 8.14
6/22/2022 7:00:00 AM 18.54 65.372 0.075 7.19 3.73 8.19
6/22/2022 7:15:00 AM 18.51 65.318 0.075 7.22 3.69 8.26
6/22/2022 7:30:00 AM 18.5 65.3 0.075 7.23 3.58 8.34
6/22/2022 7:45:00 AM 18.54 65.372 0.075 7.25 3.49 8.48
6/22/2022 8:00:00 AM 18.54 65.372 0.075 7.27 3.44 8.57
6/22/2022 8:15:00 AM 18.64 65.552 0.075 7.29 3.41 8.69
6/22/2022 8:30:00 AM 18.76 65.768 0.075 7.31 3.37 8.78
6/22/2022 8:45:00 AM 18.88 65.984 0.075 7.35 3.3 8.86
6/22/2022 9:00:00 AM 19.02 66.236 0.075 7.39 3.33 8.92
6/22/2022 9:15:00 AM 19.09 66.362 0.074 7.42 3.23 9
6/22/2022 9:30:00 AM 19.28 66.704 0.074 7.47 3.18 9.08
6/22/2022 9:45:00 AM 19.44 66.992 0.074 7.52 3.08 9.15
6/22/2022 10:00:00 AM 19.73 67.514 0.074 7.57 3.09 9.17
6/22/2022 10:15:00 AM 20 68 0.074 7.54 3.03 9.22
6/22/2022 10:30:00 AM 20.29 68.522 0.074 7.64 3.07 9.25
6/22/2022 10:45:00 AM 20.53 68.954 0.074 7.7 2.96 9.27
6/22/2022 11:00:00 AM 20.87 69.566 0.074 7.69 2.97 9.28
6/22/2022 11:15:00 AM 21.3 70.34 0.074 7.76 2.99 9.31
6/22/2022 11:30:00 AM 21.68 71.024 0.074 7.83 2.88 9.29
6/22/2022 11:45:00 AM 22.11 71.798 0.074 7.94 3.41 9.28
6/22/2022 12:00:00 PM 22.56 72.608 0.073 7.87 2.9 9.27
6/22/2022 12:15:00 PM 23.01 73.418 0.073 8.02 2.94 9.25
6/22/2022 12:30:00 PM 23.45 74.21 0.073 8.07 2.84 9.22
6/22/2022 12:45:00 PM 23.66 74.588 0.073 8.05 2.91 9.19
6/22/2022 1:00:00 PM 24.1 75.38 0.073 7.92 2.77 9.13
6/22/2022 1:15:00 PM 24.17 75.506 0.073 7.96 2.76 9.04
6/22/2022 1:30:00 PM 24.23 75.614 0.073 7.96 2.8 9.01
6/22/2022 1:45:00 PM 24.73 76.514 0.073 8 5.47 8.97
6/22/2022 2:00:00 PM 25.08 77.144 0.069 7.96 5.45 8.95
6/22/2022 2:15:00 PM 25.04 77.07201 0.073 7.95 8.65 8.86
6/22/2022 2:30:00 PM 25.51 77.918 0.073 7.98 2.94 8.82
6/22/2022 2:45:00 PM 25.87 78.566 0.073 7.92 2.73 8.78
6/22/2022 3:00:00 PM 26.06 78.908 0.073 7.93 2.74 8.69
6/22/2022 3:15:00 PM 26.21 79.17799 0.073 7.91 2.72 8.65
6/22/2022 3:30:00 PM 26.37 79.466 0.073 7.88 3.94 8.58
6/22/2022 3:45:00 PM 26.42 79.556 0.07 7.85 4.53 8.46
6/22/2022 4:00:00 PM 26.41 79.538 0.073 7.83 3.49 8.37
6/22/2022 4:15:00 PM 26.56 79.808 0.071 7.83 4.68 8.35
6/22/2022 4:30:00 PM 26.6 79.88 0.073 7.85 2.61 8.31
6/22/2022 4:45:00 PM 26.54 79.772 0.073 7.8 2.53 8.25
6/22/2022 5:00:00 PM 26.32 79.376 0.073 7.77 3.12 8.13
6/22/2022 5:15:00 PM 26.06 78.908 0.074 7.67 2.57 7.95
6/22/2022 5:30:00 PM 25.91 78.638 0.074 7.63 2.61 7.85
6/22/2022 5:45:00 PM 25.7 78.26 0.074 7.53 2.57 7.64
6/22/2022 6:00:00 PM 25.18 77.324 0.072 7.38 6.88 7.53
6/22/2022 6:15:00 PM 24.99 76.982 0.195 7.67 63.8 7.44
6/22/2022 6:30:00 PM 24.79 76.622 0.093 7.45 5.54 7.3
6/22/2022 6:45:00 PM 24.56 76.208 0.08 7.36 3.68 7.19
6/22/2022 7:00:00 PM 24.36 75.848 0.076 7.31 3.42 7.11
6/22/2022 7:15:00 PM 24.18 75.524 0.075 7.27 3.45 7.1
6/22/2022 7:30:00 PM 24.03 75.254 0.074 7.25 3.36 7.12
6/22/2022 7:45:00 PM 23.93 75.074 0.074 7.22 3.34 7.18
6/22/2022 8:00:00 PM 23.87 74.966 0.075 7.21 3.45 7.25
6/22/2022 8:15:00 PM 23.79 74.82201 0.076 7.23 3.67 7.28
6/22/2022 8:30:00 PM 23.69 74.642 0.076 7.22 7.5 7.27
6/22/2022 8:45:00 PM 23.58 74.444 0.077 7.21 3.57 7.24
6/22/2022 9:00:00 PM 23.46 74.228 0.077 7.2 4.41 7.2
6/22/2022 9:15:00 PM 23.35 74.03 0.077 7.18 3.45 7.17
6/22/2022 9:30:00 PM 23.24 73.832 0.078 7.17 3.53 7.15
6/22/2022 9:45:00 PM 23.13 73.634 0.078 7.11 3.6 7.14
6/22/2022 10:00:00 PM 23.02 73.436 0.078 7.11 3.45 7.14
6/22/2022 10:15:00 PM 22.91 73.238 0.078 7.12 3.72 7.14
6/22/2022 10:30:00 PM 22.8 73.04 0.078 7.13 3.96 7.15
6/22/2022 10:45:00 PM 22.7 72.86 0.078 7.12 3.84 7.17
6/22/2022 11:00:00 PM 22.59 72.662 0.078 7.11 3.75 7.19
6/22/2022 11:15:00 PM 22.47 72.446 0.079 7.08 3.84 7.21
6/22/2022 11:30:00 PM 22.35 72.23 0.079 7.1 3.97 7.24
6/22/2022 11:45:00 PM 22.23 72.014 0.079 7.11 4.27 7.27
6/23/2022 12:00:00 AM 22.11 71.798 0.08 7.09 4.41 7.31
6/23/2022 12:15:00 AM 21.96 71.528 0.082 7.13 4.49 7.36
6/23/2022 12:30:00 AM 21.85 71.33 0.082 7.15 398.31 7.4
6/23/2022 12:45:00 AM 21.75 71.15 0.083 7.15 9.43 7.42
6/23/2022 1:00:00 AM 21.65 70.97 0.083 7.15 14 7.44
6/23/2022 1:15:00 AM 21.56 70.808 0.084 6.99 4.69 7.47
6/23/2022 1:30:00 AM 21.47 70.646 0.085 7.13 4.88 7.49
6/23/2022 1:45:00 AM 21.37 70.466 0.085 7.13 4.76 7.52
6/23/2022 2:00:00 AM 21.28 70.304 0.086 7.16 4.67 7.55
6/23/2022 2:15:00 AM 21.2 70.16 0.086 7.19 4.68 7.57
6/23/2022 2:30:00 AM 21.12 70.016 0.086 7.18 4.78 7.59
6/23/2022 2:45:00 AM 21.05 69.89 0.086 7.18 4.83 7.61
6/23/2022 3:00:00 AM 20.98 69.764 0.086 7.18 4.69 7.62
6/23/2022 3:15:00 AM 20.93 69.674 0.086 7.17 4.84 7.64
6/23/2022 3:30:00 AM 20.86 69.548 0.086 7.18 4.57 7.65
6/23/2022 3:45:00 AM 20.8 69.44 0.086 7.17 4.61 7.67
6/23/2022 4:00:00 AM 20.73 69.314 0.086 7.19 4.71 7.68
6/23/2022 4:15:00 AM 20.66 69.188 0.086 7.18 4.74 7.7
6/23/2022 4:30:00 AM 20.6 69.08 0.086 7.16 5.12 7.7
6/23/2022 4:45:00 AM 20.54 68.972 0.086 7.18 5.32 7.71
6/23/2022 5:00:00 AM 20.49 68.882 0.085 7.19 5.74 7.73
6/23/2022 5:15:00 AM 20.44 68.792 0.085 7.18 5.99 7.74
6/23/2022 5:30:00 AM 20.37 68.666 0.085 7.2 6.29 7.76
6/23/2022 5:45:00 AM 20.31 68.558 0.085 7.2 6.28 7.78
6/23/2022 6:00:00 AM 20.26 68.468 0.084 7.19 6.11 7.8
6/23/2022 6:15:00 AM 20.21 68.378 0.084 7.2 5.91 7.82
6/23/2022 6:30:00 AM 20.14 68.252 0.083 7.2 5.72 7.86
6/23/2022 6:45:00 AM 20.07 68.126 0.083 7.18 5.29 7.91
6/23/2022 7:00:00 AM 20.03 68.054 0.082 7.22 5.01 7.98
6/23/2022 7:15:00 AM 19.99 67.982 0.081 7.25 4.66 8.05
6/23/2022 7:30:00 AM 19.94 67.892 0.081 7.27 4.48 8.13
6/23/2022 7:45:00 AM 19.92 67.856 0.081 7.29 4.31 8.25
6/23/2022 8:00:00 AM 19.99 67.982 0.08 7.3 4.08 8.38
6/23/2022 8:15:00 AM 20 68 0.08 7.32 3.99 8.46
6/23/2022 8:30:00 AM 20.03 68.054 0.08 7.19 3.82 8.51
6/23/2022 8:45:00 AM 20.09 68.162 0.079 7.37 3.8 8.55
6/23/2022 9:00:00 AM 20.17 68.306 0.079 7.4 3.67 8.59
6/23/2022 9:15:00 AM 20.3 68.54 0.079 7.39 3.63 8.64
6/23/2022 9:30:00 AM 20.45 68.81 0.079 7.44 3.53 8.69
6/23/2022 9:45:00 AM 20.62 69.116 0.078 7.47 3.49 8.74
6/23/2022 10:00:00 AM 20.81 69.458 0.078 7.52 3.37 8.79
6/23/2022 10:15:00 AM 21.02 69.836 0.078 7.54 3.37 8.83
6/23/2022 10:30:00 AM 21.26 70.268 0.078 7.52 3.27 8.86
6/23/2022 10:45:00 AM 21.52 70.736 0.077 7.59 3.19 8.89
6/23/2022 11:00:00 AM 21.82 71.276 0.077 7.74 3.22 8.92
6/23/2022 11:15:00 AM 22.13 71.834 0.077 7.71 3.22 8.94
6/23/2022 11:30:00 AM 22.44 72.392 0.077 7.81 3.09 8.95
6/23/2022 11:45:00 AM 22.76 72.968 0.077 7.95 3.1 8.96
6/23/2022 12:00:00 PM 23.06 73.508 0.077 7.86 3.03 8.97
6/23/2022 12:15:00 PM 23.4 74.12 0.076 8.03 3.03 8.97
6/23/2022 12:30:00 PM 23.74 74.732 0.076 8.06 2.96 8.96
6/23/2022 12:45:00 PM 24.08 75.344 0.076 7.99 3.67 8.95
6/23/2022 1:00:00 PM 24.4 75.92 0.076 7.94 2.89 8.92
6/23/2022 1:15:00 PM 24.73 76.514 0.076 7.82 2.85 8.9
6/23/2022 1:30:00 PM 25 77 0.076 8.02 2.87 8.87
6/23/2022 1:45:00 PM 25.17 77.306 0.072 7.92 4.7 8.81
6/23/2022 2:00:00 PM 25.3 77.54 0.076 7.97 2.76 8.76
6/23/2022 2:15:00 PM 25.45 77.81 0.076 7.99 2.72 8.71
6/23/2022 2:30:00 PM 25.48 77.864 0.076 7.98 2.68 8.65
6/23/2022 2:45:00 PM 25.61 78.098 0.076 7.97 2.66 8.59
6/23/2022 3:00:00 PM 26.02 78.836 0.076 7.99 2.69 8.61
6/23/2022 3:15:00 PM 25.98 78.764 0.076 7.98 2.66 8.53
6/23/2022 3:30:00 PM 26.06 78.908 0.076 7.96 2.6 8.49
6/23/2022 3:45:00 PM 25.6 78.08 0.076 7.84 2.47 8.31
6/23/2022 4:00:00 PM 25.69 78.242 0.076 7.83 2.52 8.31
6/23/2022 4:15:00 PM 25.82 78.476 0.076 7.82 2.51 8.27
6/23/2022 4:30:00 PM 25.88 78.584 0.076 7.79 2.49 8.27
6/23/2022 4:45:00 PM 25.85 78.53 0.076 7.79 2.52 8.26
6/23/2022 5:00:00 PM 25.79 78.422 0.077 7.8 2.41 8.23
6/23/2022 5:15:00 PM 25.78 78.404 0.076 7.78 2.47 8.22
6/23/2022 5:30:00 PM 25.66 78.188 0.076 7.75 2.43 8.16
6/23/2022 5:45:00 PM 25.61 78.098 0.077 7.71 2.52 8.09
6/23/2022 6:00:00 PM 25.53 77.954 0.077 7.69 2.46 8.07
6/23/2022 6:15:00 PM 25.4 77.72 0.077 7.7 2.45 8.02
6/23/2022 6:30:00 PM 25.27 77.486 0.077 7.61 2.43 7.96
6/23/2022 6:45:00 PM 25.14 77.252 0.077 7.6 2.49 7.88
6/23/2022 7:00:00 PM 25 77 0.077 7.4 2.54 7.79
6/23/2022 7:15:00 PM 24.89 76.802 0.078 7.48 2.48 7.69
6/23/2022 7:30:00 PM 24.74 76.532 0.078 7.45 2.46 7.6
6/23/2022 7:45:00 PM 24.61 76.298 0.078 7.42 2.47 7.52
6/23/2022 8:00:00 PM 24.46 76.028 0.078 7.41 2.48 7.46
6/23/2022 8:15:00 PM 24.3 75.74 0.078 7.4 2.47 7.39
6/23/2022 8:30:00 PM 24.13 75.434 0.079 7.36 2.53 7.33
6/23/2022 8:45:00 PM 23.96 75.128 0.079 7.34 2.52 7.27
6/23/2022 9:00:00 PM 23.79 74.82201 0.079 7.29 2.56 7.22
6/23/2022 9:15:00 PM 23.65 74.57 0.079 7.3 2.73 7.18
6/23/2022 9:30:00 PM 23.51 74.318 0.079 7.27 2.83 7.15
6/23/2022 9:45:00 PM 23.4 74.12 0.079 7.25 2.83 7.13
6/23/2022 10:00:00 PM 23.29 73.922 0.079 7.23 2.96 7.12
6/23/2022 10:15:00 PM 23.18 73.724 0.079 7.2 2.78 7.12
6/23/2022 10:30:00 PM 23.07 73.526 0.079 7.19 2.89 7.12
6/23/2022 10:45:00 PM 22.97 73.346 0.079 7.18 3.16 7.12
6/23/2022 11:00:00 PM 22.87 73.166 0.079 7.17 2.91 7.13
6/23/2022 11:15:00 PM 22.75 72.95 0.08 7.16 2.9 7.13
6/23/2022 11:30:00 PM 22.64 72.752 0.08 7.17 2.84 7.15
6/23/2022 11:45:00 PM 22.53 72.554 0.08 7.04 2.91 7.16
6/24/2022 12:00:00 AM 22.43 72.374 0.08 7.16 2.79 7.18
6/24/2022 12:15:00 AM 22.32 72.176 0.08 7.16 2.82 7.2
6/24/2022 12:30:00 AM 22.2 71.96 0.08 7.16 2.87 7.22
6/24/2022 12:45:00 AM 22.07 71.726 0.08 7.15 2.9 7.24
6/24/2022 1:00:00 AM 21.94 71.492 0.081 7.16 2.78 7.26
6/24/2022 1:15:00 AM 21.81 71.258 0.081 7.05 2.71 7.28
6/24/2022 1:30:00 AM 21.69 71.042 0.081 7.17 2.66 7.3
6/24/2022 1:45:00 AM 21.56 70.808 0.081 7.15 2.75 7.32
6/24/2022 2:00:00 AM 21.44 70.592 0.081 7.11 2.84 7.34
6/24/2022 2:15:00 AM 21.33 70.394 0.081 7.16 2.87 7.38
6/24/2022 2:30:00 AM 21.22 70.196 0.081 7.15 2.76 7.4
6/24/2022 2:45:00 AM 21.09 69.962 0.081 7.16 2.66 7.43
6/24/2022 3:00:00 AM 21 69.8 0.081 7.15 2.77 7.45
6/24/2022 3:15:00 AM 20.9 69.62 0.081 7.14 2.64 7.46
6/24/2022 3:30:00 AM 20.8 69.44 0.081 7.16 2.65 7.49
6/24/2022 3:45:00 AM 20.71 69.278 0.081 7.14 2.64 7.51
6/24/2022 4:00:00 AM 20.62 69.116 0.081 7.16 2.67 7.53
6/24/2022 4:15:00 AM 20.53 68.954 0.082 7.16 2.72 7.54
6/24/2022 4:30:00 AM 20.45 68.81 0.083 7.15 2.58 7.57
6/24/2022 4:45:00 AM 20.36 68.648 0.084 7.16 2.61 7.58
6/24/2022 5:00:00 AM 20.29 68.522 0.084 7.16 2.59 7.61
6/24/2022 5:15:00 AM 20.22 68.396 0.083 7.15 2.6 7.62
6/24/2022 5:30:00 AM 20.16 68.288 0.083 7.16 2.48 7.63
6/24/2022 5:45:00 AM 20.1 68.18 0.084 7.15 2.55 7.65
6/24/2022 6:00:00 AM 20.04 68.07201 0.084 7.14 12.54 7.67
6/24/2022 6:15:00 AM 19.99 67.982 0.085 7.16 2.42 7.72
6/24/2022 6:30:00 AM 19.94 67.892 0.084 7.14 2.36 7.75
6/24/2022 6:45:00 AM 19.9 67.82 0.083 7.15 2.38 7.8
6/24/2022 7:00:00 AM 19.87 67.766 0.083 7.16 2.37 7.86
6/24/2022 7:15:00 AM 19.84 67.712 0.082 7.17 2.35 7.94
6/24/2022 7:30:00 AM 19.81 67.658 0.082 7.17 2.28 8.03
6/24/2022 7:45:00 AM 19.81 67.658 0.082 7.2 2.31 8.12
6/24/2022 8:00:00 AM 19.81 67.658 0.082 7.23 2.42 8.2
6/24/2022 8:15:00 AM 19.81 67.658 0.081 7.24 2.22 8.28
6/24/2022 8:30:00 AM 19.82 67.676 0.081 7.26 2.23 8.37
6/24/2022 8:45:00 AM 19.83 67.694 0.081 7.27 2.24 8.47
6/24/2022 9:00:00 AM 19.86 67.748 0.081 7.31 2.22 8.55
6/24/2022 9:15:00 AM 19.9 67.82 0.081 7.32 2.19 8.64
6/24/2022 9:30:00 AM 19.93 67.874 0.081 7.36 2.19 8.71
6/24/2022 9:45:00 AM 19.97 67.946 0.081 7.38 2.16 8.78
6/24/2022 10:00:00 AM 20.01 68.018 0.08 7.43 2.2 8.85
6/24/2022 10:15:00 AM 20.09 68.162 0.08 7.49 2.19 8.97
6/24/2022 10:30:00 AM 20.25 68.45 0.08 7.61 2.17 9.11
6/24/2022 10:45:00 AM 20.47 68.846 0.08 7.62 2.14 9.15
6/24/2022 11:00:00 AM 20.95 69.71 0.08 7.8 2.22 9.25
6/24/2022 11:15:00 AM 21.45 70.61 0.08 7.74 2.1 9.24
6/24/2022 11:30:00 AM 21.91 71.438 0.08 7.84 2.19 9.24
6/24/2022 11:45:00 AM 22.45 72.41 0.08 7.93 2.16 9.23
6/24/2022 12:00:00 PM 22.99 73.382 0.079 7.89 2.13 9.21
6/24/2022 12:15:00 PM 23.56 74.408 0.079 8.01 2.13 9.21
6/24/2022 12:30:00 PM 23.83 74.894 0.079 8.08 2.06 9.16
6/24/2022 12:45:00 PM 24.41 75.938 0.079 8.08 2.07 9.14
6/24/2022 1:00:00 PM 24.78 76.604 0.079 8.11 4.59 9.1
6/24/2022 1:15:00 PM 24.84 76.712 0.079 7.94 2.83 8.98
6/24/2022 1:30:00 PM 24.75 76.55 0.079 7.9 2.35 8.87
6/24/2022 1:45:00 PM 25.38 77.684 0.077 8 3.02 8.96
6/24/2022 2:00:00 PM 25.87 78.566 0.078 8.06 3.24 8.91
6/24/2022 2:15:00 PM 25.84 78.512 0.079 7.95 4.32 8.85
6/24/2022 2:30:00 PM 25.72 78.296 0.078 7.88 4.19 8.75
6/24/2022 2:45:00 PM 26.14 79.052 0.076 7.96 2.1 8.72
6/24/2022 3:00:00 PM 25.96 78.728 0.076 7.89 4.38 8.59
6/24/2022 3:15:00 PM 26.32 79.376 0.079 7.93 2.54 8.61
6/24/2022 3:30:00 PM 26.6 79.88 0.079 7.95 3.29 8.58
6/24/2022 3:45:00 PM 26.69 80.042 0.077 7.98 4.64 8.55
6/24/2022 4:00:00 PM 26.71 80.078 0.076 7.97 4.45 8.48
6/24/2022 4:15:00 PM 26.75 80.15 0.078 7.92 2.87 8.44
6/24/2022 4:30:00 PM 26.71 80.078 0.078 7.9 2.05 8.37
6/24/2022 4:45:00 PM 26.38 79.484 0.078 7.84 42.69 8.3
6/24/2022 5:00:00 PM 26.35 79.43 0.077 7.87 3.28 8.26
6/24/2022 5:15:00 PM 26.27 79.286 0.078 7.83 2.12 8.2
6/24/2022 5:30:00 PM 26.17 79.106 0.079 7.77 2.17 8.09
6/24/2022 5:45:00 PM 26.08 78.944 0.078 7.75 2.21 8.08
6/24/2022 6:00:00 PM 25.9 78.62 0.079 7.69 2.24 7.98
6/24/2022 6:15:00 PM 25.72 78.296 0.079 7.64 2.23 7.88
6/24/2022 6:30:00 PM 25.54 77.972 0.079 7.61 2.27 7.79
6/24/2022 6:45:00 PM 25.43 77.774 0.079 7.58 2.24 7.74
6/24/2022 7:00:00 PM 25.25 77.45 0.079 7.54 2.32 7.67
6/24/2022 7:15:00 PM 25.08 77.144 0.079 7.52 2.35 7.62
6/24/2022 7:30:00 PM 24.92 76.856 0.079 7.47 2.42 7.53
6/24/2022 7:45:00 PM 24.76 76.568 0.08 7.44 2.34 7.48
6/24/2022 8:00:00 PM 24.58 76.244 0.08 7.43 2.27 7.41
6/24/2022 8:15:00 PM 24.4 75.92 0.08 7.4 2.31 7.34
6/24/2022 8:30:00 PM 24.19 75.542 0.081 7.37 2.31 7.28
6/24/2022 8:45:00 PM 24.02 75.236 0.081 7.36 2.26 7.22
6/24/2022 9:00:00 PM 23.83 74.894 0.081 7.16 2.34 7.15
6/24/2022 9:15:00 PM 23.66 74.588 0.081 7.31 2.48 7.11
6/24/2022 9:30:00 PM 23.48 74.264 0.081 7.26 2.49 7.07
6/24/2022 9:45:00 PM 23.32 73.976 0.082 7.27 2.52 7.05
6/24/2022 10:00:00 PM 23.17 73.706 0.082 7.26 2.53 7.05
6/24/2022 10:15:00 PM 23.02 73.436 0.082 7.23 2.51 7.04
6/24/2022 10:30:00 PM 22.87 73.166 0.082 7.06 2.48 7.03
6/24/2022 10:45:00 PM 22.74 72.932 0.082 7.22 2.54 7.06
6/24/2022 11:00:00 PM 22.59 72.662 0.082 7.18 2.51 7.07
6/24/2022 11:15:00 PM 22.45 72.41 0.082 7.21 2.61 7.09
6/24/2022 11:30:00 PM 22.31 72.158 0.082 7.21 2.61 7.11
6/24/2022 11:45:00 PM 22.18 71.924 0.082 7.11 2.51 7.13
6/25/2022 12:00:00 AM 22.05 71.69 0.082 7.18 2.7 7.16
6/25/2022 12:15:00 AM 21.92 71.456 0.082 7.19 2.65 7.17
6/25/2022 12:30:00 AM 21.78 71.204 0.082 7.19 2.49 7.2
6/25/2022 12:45:00 AM 21.66 70.988 0.082 7.17 2.56 7.22
6/25/2022 1:00:00 AM 21.52 70.736 0.082 7.18 2.58 7.25
6/25/2022 1:15:00 AM 21.39 70.502 0.082 7.17 2.78 7.28
6/25/2022 1:30:00 AM 21.25 70.25 0.082 7.17 2.68 7.31
6/25/2022 1:45:00 AM 21.12 70.016 0.082 7.17 2.62 7.33
6/25/2022 2:00:00 AM 20.99 69.782 0.082 7.16 2.62 7.35
6/25/2022 2:15:00 AM 20.86 69.548 0.082 7.17 2.7 7.39
6/25/2022 2:30:00 AM 20.72 69.296 0.082 7.16 2.64 7.43
6/25/2022 2:45:00 AM 20.6 69.08 0.082 7.17 2.88 7.45
6/25/2022 3:00:00 AM 20.46 68.828 0.082 7.16 3.79 7.47
6/25/2022 3:15:00 AM 20.33 68.594 0.082 7.16 3.32 7.49
6/25/2022 3:30:00 AM 20.2 68.36 0.082 7.15 4.19 7.51
6/25/2022 3:45:00 AM 20.07 68.126 0.082 6.92 3.06 7.54
6/25/2022 4:00:00 AM 19.94 67.892 0.082 7.15 3.3 7.56
6/25/2022 4:15:00 AM 19.81 67.658 0.082 7.16 2.89 7.59
6/25/2022 4:30:00 AM 19.69 67.442 0.082 7.06 2.68 7.63
6/25/2022 4:45:00 AM 19.57 67.226 0.082 7.15 2.69 7.67
6/25/2022 5:00:00 AM 19.44 66.992 0.082 7.14 2.68 7.69
6/25/2022 5:15:00 AM 19.33 66.794 0.082 7.15 2.69 7.72
6/25/2022 5:30:00 AM 19.21 66.578 0.083 7.15 2.59 7.75
6/25/2022 5:45:00 AM 19.09 66.362 0.083 6.98 2.59 7.78
6/25/2022 6:00:00 AM 18.98 66.164 0.083 7.15 2.52 7.83
6/25/2022 6:15:00 AM 18.87 65.966 0.083 7.14 2.43 7.88
6/25/2022 6:30:00 AM 18.78 65.804 0.083 7.15 2.43 7.94
6/25/2022 6:45:00 AM 18.69 65.642 0.083 7.18 2.49 8
6/25/2022 7:00:00 AM 18.61 65.498 0.082 7.18 2.6 8.07
6/25/2022 7:15:00 AM 18.57 65.426 0.082 7.2 2.48 8.19
6/25/2022 7:30:00 AM 18.59 65.462 0.082 7.21 3.22 8.29
6/25/2022 7:45:00 AM 18.61 65.498 0.082 7.23 2.41 8.41
6/25/2022 8:00:00 AM 18.7 65.66 0.081 7.25 2.56 8.51
6/25/2022 8:15:00 AM 18.83 65.894 0.081 7.26 2.36 8.61
6/25/2022 8:30:00 AM 18.98 66.164 0.081 7.22 2.33 8.69
6/25/2022 8:45:00 AM 19.15 66.47 0.081 7.33 2.42 8.76
6/25/2022 9:00:00 AM 19.37 66.866 0.081 7.34 2.34 8.83
6/25/2022 9:15:00 AM 19.62 67.316 0.081 7.36 2.4 8.89
6/25/2022 9:30:00 AM 19.9 67.82 0.081 7.4 2.41 8.95
6/25/2022 9:45:00 AM 20.18 68.324 0.081 7.43 2.43 9
6/25/2022 10:00:00 AM 20.59 69.062 0.081 7.46 2.38 9.03
6/25/2022 10:15:00 AM 20.96 69.728 0.081 7.49 2.38 9.03
6/25/2022 10:30:00 AM 21.36 70.448 0.081 7.49 2.3 9.06
6/25/2022 10:45:00 AM 21.74 71.132 0.08 7.52 2.34 9.07
6/25/2022 11:00:00 AM 22.09 71.762 0.08 7.67 2.37 9.08
6/25/2022 11:15:00 AM 22.49 72.482 0.08 7.63 2.32 9.08
6/25/2022 11:30:00 AM 22.87 73.166 0.08 7.75 2.35 9.08
6/25/2022 11:45:00 AM 23.29 73.922 0.08 7.9 2.35 9.05
6/25/2022 12:00:00 PM 23.67 74.606 0.079 7.8 2.28 9.05
6/25/2022 12:15:00 PM 24.1 75.38 0.079 7.99 2.2 9.02
6/25/2022 12:30:00 PM 24.5 76.1 0.079 8 2.19 8.99
6/25/2022 12:45:00 PM 24.94 76.892 0.079 7.74 2.23 8.95
6/25/2022 1:00:00 PM 25.39 77.702 0.079 7.9 2.24 8.93
6/25/2022 1:15:00 PM 25.75 78.35 0.079 7.92 2.13 8.89
6/25/2022 1:30:00 PM 26.16 79.088 0.079 7.95 3.07 8.84
6/25/2022 1:45:00 PM 26.51 79.718 0.078 7.88 2.1 8.79
6/25/2022 2:00:00 PM 26.73 80.114 0.078 7.89 2.99 8.74
6/25/2022 2:15:00 PM 26.96 80.528 0.078 7.91 1.99 8.68
6/25/2022 2:30:00 PM 27.19 80.942 0.078 7.92 2.23 8.63
6/25/2022 2:45:00 PM 27.36 81.248 0.078 7.94 2.16 8.54
6/25/2022 3:00:00 PM 27.6 81.68 0.079 7.9 1.87 8.48
6/25/2022 3:15:00 PM 27.68 81.824 0.077 7.86 3.35 8.42
6/25/2022 3:30:00 PM 27.7 81.86 0.078 7.84 1.9 8.34
6/25/2022 3:45:00 PM 27.71 81.878 0.078 7.85 3.5 8.28
6/25/2022 4:00:00 PM 27.69 81.842 0.078 7.78 2.39 8.18
6/25/2022 4:15:00 PM 27.68 81.824 0.078 7.69 1.94 8.14
6/25/2022 4:30:00 PM 27.57 81.626 0.078 7.79 3.52 8.09
6/25/2022 4:45:00 PM 27.49 81.482 0.078 7.78 1.93 8.06
6/25/2022 5:00:00 PM 27.38 81.284 0.079 7.72 1.94 7.96
6/25/2022 5:15:00 PM 27.12 80.816 0.079 7.69 1.93 7.9
6/25/2022 5:30:00 PM 26.99 80.582 0.079 7.67 8.75 7.86
6/25/2022 5:45:00 PM 26.86 80.348 0.079 7.64 2.01 7.82
6/25/2022 6:00:00 PM 26.7 80.06 0.079 7.52 2.05 7.74
6/25/2022 6:15:00 PM 26.51 79.718 0.079 7.58 2.01 7.7
6/25/2022 6:30:00 PM 26.33 79.394 0.079 7.56 2.01 7.63
6/25/2022 6:45:00 PM 26.16 79.088 0.079 7.53 2.07 7.56
6/25/2022 7:00:00 PM 26 78.8 0.079 7.49 2.1 7.49
6/25/2022 7:15:00 PM 25.85 78.53 0.08 7.4 2.12 7.45
6/25/2022 7:30:00 PM 25.68 78.224 0.08 7.43 2.12 7.35
6/25/2022 7:45:00 PM 25.51 77.918 0.08 7.4 2.14 7.28
6/25/2022 8:00:00 PM 25.34 77.612 0.08 7.38 2.15 7.23
6/25/2022 8:15:00 PM 25.15 77.27 0.08 7.36 2.16 7.16
6/25/2022 8:30:00 PM 24.98 76.964 0.08 7.31 2.23 7.12
6/25/2022 8:45:00 PM 24.79 76.622 0.081 7.29 2.26 7.03
6/25/2022 9:00:00 PM 24.62 76.316 0.081 7.28 2.36 6.98
6/25/2022 9:15:00 PM 24.42 75.956 0.082 7.24 2.34 6.93
6/25/2022 9:30:00 PM 24.24 75.632 0.081 7.22 2.41 6.88
6/25/2022 9:45:00 PM 24.07 75.326 0.082 7.18 2.39 6.88
6/25/2022 10:00:00 PM 23.89 75.002 0.082 7.18 2.64 6.86
6/25/2022 10:15:00 PM 23.73 74.714 0.082 7.17 2.49 6.86
6/25/2022 10:30:00 PM 23.57 74.426 0.082 7.12 2.45 6.84
6/25/2022 10:45:00 PM 23.42 74.156 0.082 7.16 2.52 6.86
6/25/2022 11:00:00 PM 23.28 73.904 0.082 7.15 2.45 6.86
6/25/2022 11:15:00 PM 23.15 73.67 0.082 7.15 2.5 6.89
6/25/2022 11:30:00 PM 23.03 73.454 0.082 6.94 2.5 6.92
6/25/2022 11:45:00 PM 22.9 73.22 0.082 7.14 2.56 6.92
6/26/2022 12:00:00 AM 22.76 72.968 0.082 7.13 2.57 6.94
6/26/2022 12:15:00 AM 22.65 72.77 0.082 7.13 2.5 6.96
6/26/2022 12:30:00 AM 22.52 72.536 0.082 7.13 2.58 6.96
6/26/2022 12:45:00 AM 22.39 72.302 0.082 7.05 2.53 6.99
6/26/2022 1:00:00 AM 22.28 72.104 0.082 7.13 2.52 7.03
6/26/2022 1:15:00 AM 22.19 71.942 0.082 7.14 2.66 7.07
6/26/2022 1:30:00 AM 22.07 71.726 0.082 7.01 2.63 7.09
6/26/2022 1:45:00 AM 21.95 71.51 0.082 7.13 2.58 7.11
6/26/2022 2:00:00 AM 21.85 71.33 0.082 7.14 2.61 7.13
6/26/2022 2:15:00 AM 21.72 71.096 0.082 7.13 2.62 7.15
6/26/2022 2:30:00 AM 21.63 70.934 0.082 7.14 2.64 7.19
6/26/2022 2:45:00 AM 21.52 70.736 0.082 7.15 2.58 7.2
6/26/2022 3:00:00 AM 21.43 70.574 0.082 7.15 2.6 7.23
6/26/2022 3:15:00 AM 21.34 70.412 0.082 7.15 2.61 7.26
6/26/2022 3:30:00 AM 21.22 70.196 0.082 7.15 2.54 7.26
6/26/2022 3:45:00 AM 21.11 69.998 0.082 7.14 2.72 7.28
6/26/2022 4:00:00 AM 21.02 69.836 0.082 7.15 2.69 7.31
6/26/2022 4:15:00 AM 20.9 69.62 0.082 7.06 2.59 7.31
6/26/2022 4:30:00 AM 20.81 69.458 0.082 7.14 2.61 7.35
6/26/2022 4:45:00 AM 20.75 69.35 0.082 7.15 2.57 7.38
6/26/2022 5:00:00 AM 20.65 69.17 0.083 7.15 2.52 7.4
6/26/2022 5:15:00 AM 20.6 69.08 0.083 7.16 2.55 7.43
6/26/2022 5:30:00 AM 20.52 68.936 0.083 7.16 2.55 7.45
6/26/2022 5:45:00 AM 20.44 68.792 0.083 7.17 2.48 7.48
6/26/2022 6:00:00 AM 20.37 68.666 0.083 7.15 2.45 7.51
6/26/2022 6:15:00 AM 20.31 68.558 0.083 7.16 2.53 7.56
6/26/2022 6:30:00 AM 20.26 68.468 0.082 7.18 2.39 7.63
6/26/2022 6:45:00 AM 20.2 68.36 0.082 7.18 2.33 7.71
6/26/2022 7:00:00 AM 20.17 68.306 0.082 7.2 2.31 7.84
6/26/2022 7:15:00 AM 20.16 68.288 0.082 7.21 2.25 7.98
6/26/2022 7:30:00 AM 20.18 68.324 0.082 7.24 2.39 8.07
6/26/2022 7:45:00 AM 20.18 68.324 0.082 7.24 2.26 8.12
6/26/2022 8:00:00 AM 20.18 68.324 0.082 7.26 2.22 8.24
6/26/2022 8:15:00 AM 20.28 68.504 0.082 7.27 2.24 8.39
6/26/2022 8:30:00 AM 20.45 68.81 0.081 7.31 2.18 8.51
6/26/2022 8:45:00 AM 20.56 69.008 0.081 7.33 2.27 8.57
6/26/2022 9:00:00 AM 20.8 69.44 0.081 7.21 2.23 8.67
6/26/2022 9:15:00 AM 21.02 69.836 0.081 7.41 2.15 8.77
6/26/2022 9:30:00 AM 21.28 70.304 0.081 7.45 2.13 8.84
6/26/2022 9:45:00 AM 21.56 70.808 0.08 7.4 2.13 8.9
6/26/2022 10:00:00 AM 21.9 71.42 0.08 7.48 2.16 8.93
6/26/2022 10:15:00 AM 22.25 72.05 0.08 7.6 2.05 8.95
6/26/2022 10:30:00 AM 22.66 72.788 0.08 7.6 2.08 8.94
6/26/2022 10:45:00 AM 23.01 73.418 0.08 7.63 2.23 8.98
6/26/2022 11:00:00 AM 23.37 74.066 0.08 7.77 2.09 8.97
6/26/2022 11:15:00 AM 23.45 74.21 0.079 7.81 2.03 9
6/26/2022 11:30:00 AM 23.61 74.498 0.079 7.67 2.07 8.98
6/26/2022 11:45:00 AM 23.91 75.038 0.079 7.82 2.01 8.98
6/26/2022 12:00:00 PM 24.12 75.416 0.079 7.94 2.05 8.97
6/26/2022 12:15:00 PM 24.36 75.848 0.079 8.06 2.03 8.94
6/26/2022 12:30:00 PM 24.89 76.802 0.079 8.19 2.02 8.97
6/26/2022 12:45:00 PM 25.33 77.594 0.079 8.14 2.08 8.94
6/26/2022 1:00:00 PM 25.78 78.404 0.078 8.19 2.04 8.91
6/26/2022 1:15:00 PM 26.06 78.908 0.078 8.22 2.09 8.92
6/26/2022 1:30:00 PM 26.2 79.16 0.078 8.3 2.11 8.91
6/26/2022 1:45:00 PM 26.46 79.628 0.078 8.17 2.01 8.77
6/26/2022 2:00:00 PM 26.22 79.196 0.078 8.02 2.02 8.66
6/26/2022 2:15:00 PM 25.87 78.566 0.075 8.07 3.59 8.62
6/26/2022 2:30:00 PM 25.68 78.224 0.078 8.04 2.99 8.57
6/26/2022 2:45:00 PM 25.57 78.026 0.078 8.06 2.05 8.57
6/26/2022 3:00:00 PM 25.51 77.918 0.078 8.03 3.06 8.54
6/26/2022 3:15:00 PM 25.47 77.846 0.078 8.09 2.06 8.59
6/26/2022 3:30:00 PM 25.72 78.296 0.078 8.08 2.04 8.62
6/26/2022 3:45:00 PM 25.7 78.26 0.078 8.08 2.83 8.51
6/26/2022 4:00:00 PM 25.56 78.008 0.078 8.04 2.05 8.5
6/26/2022 4:15:00 PM 25.63 78.134 0.078 8.03 1.99 8.52
6/26/2022 4:30:00 PM 25.57 78.026 0.078 8.08 2.1 8.5
6/26/2022 4:45:00 PM 25.33 77.594 0.077 8.05 2.91 8.45
6/26/2022 5:00:00 PM 25.25 77.45 0.077 7.98 2.07 8.39
6/26/2022 5:15:00 PM 25.16 77.288 0.036 7.89 3.04 8.29
6/26/2022 5:30:00 PM 25.15 77.27 0.078 7.89 2.11 8.33
6/26/2022 5:45:00 PM 25.07 77.126 0.076 7.67 2.33 8.21
6/26/2022 6:00:00 PM 24.95 76.91 0.078 7.7 2.05 8.06
6/26/2022 6:15:00 PM 24.79 76.622 0.079 7.59 2.03 7.83
6/26/2022 6:30:00 PM 24.64 76.352 0.079 7.54 2.06 7.69
6/26/2022 6:45:00 PM 24.52 76.136 0.079 7.49 2.03 7.6
6/26/2022 7:00:00 PM 24.41 75.938 0.079 7.23 5.48 7.52
6/26/2022 7:15:00 PM 24.31 75.758 0.078 7.4 3.19 7.42
6/26/2022 7:30:00 PM 24.21 75.578 0.08 7.35 3.69 7.34
6/26/2022 7:45:00 PM 24.11 75.398 0.081 7.32 2.11 7.25
6/26/2022 8:00:00 PM 24 75.2 0.081 7.31 2.17 7.18
6/26/2022 8:15:00 PM 23.91 75.038 0.077 7.29 3.87 7.15
6/26/2022 8:30:00 PM 23.82 74.876 0.081 7.27 2.35 7.1
6/26/2022 8:45:00 PM 23.72 74.696 0.081 7.26 2.32 7.04
6/26/2022 9:00:00 PM 23.65 74.57 0.081 7.23 2.35 7
6/26/2022 9:15:00 PM 23.57 74.426 0.081 7.23 2.42 6.98
6/26/2022 9:30:00 PM 23.49 74.282 0.082 7.21 2.43 6.94
6/26/2022 9:45:00 PM 23.42 74.156 0.082 7.19 2.38 6.93
6/26/2022 10:00:00 PM 23.34 74.012 0.082 7.18 2.49 6.93
6/26/2022 10:15:00 PM 23.27 73.886 0.082 7.17 2.52 6.86
6/26/2022 10:30:00 PM 23.21 73.778 0.082 7.16 2.55 6.84
6/26/2022 10:45:00 PM 23.16 73.688 0.082 7.14 2.56 6.87
6/26/2022 11:00:00 PM 23.09 73.562 0.082 7.13 2.69 6.86
6/26/2022 11:15:00 PM 23.01 73.418 0.082 7.13 2.7 6.82
6/26/2022 11:30:00 PM 22.94 73.292 0.082 7.01 3.04 6.82
6/26/2022 11:45:00 PM 22.89 73.202 0.082 7.12 2.94 6.87
6/27/2022 12:00:00 AM 22.83 73.094 0.082 7.11 3.14 6.9
6/27/2022 12:15:00 AM 22.77 72.986 0.078 7.1 4.45 6.91
6/27/2022 12:30:00 AM 22.72 72.896 0.08 7.11 3.91 6.94
6/27/2022 12:45:00 AM 22.61 72.698 0.183 7.51 86.95 7.22
6/27/2022 1:00:00 AM 22.56 72.608 0.092 7.28 5.77 7.11
6/27/2022 1:15:00 AM 22.5 72.5 0.084 7.24 3.59 7.11
6/27/2022 1:30:00 AM 22.42 72.356 0.085 7.22 3.67 7.1
6/27/2022 1:45:00 AM 22.36 72.248 0.083 7.2 3.57 7.09
6/27/2022 2:00:00 AM 22.3 72.14 0.082 7.2 3.5 7.09
6/27/2022 2:15:00 AM 22.23 72.014 0.081 7.19 3.5 7.1
6/27/2022 2:30:00 AM 22.17 71.906 0.081 7.2 4.39 7.11
6/27/2022 2:45:00 AM 22.12 71.816 0.081 7.19 3.57 7.12
6/27/2022 3:00:00 AM 22.06 71.708 0.081 7.2 3.57 7.15
6/27/2022 3:15:00 AM 22.01 71.618 0.081 7.21 3.57 7.15
6/27/2022 3:30:00 AM 21.96 71.528 0.081 7.21 3.65 7.17
6/27/2022 3:45:00 AM 21.9 71.42 0.08 7.2 3.43 7.18
6/27/2022 4:00:00 AM 21.85 71.33 0.08 7.04 3.51 7.21
6/27/2022 4:15:00 AM 21.79 71.222 0.08 7.18 3.52 7.22
6/27/2022 4:30:00 AM 21.73 71.114 0.08 7.18 5.15 7.24
6/27/2022 4:45:00 AM 21.68 71.024 0.08 7.18 4.22 7.25
6/27/2022 5:00:00 AM 21.62 70.916 0.08 7.18 3.7 7.27
6/27/2022 5:15:00 AM 21.56 70.808 0.08 7.19 3.48 7.29
6/27/2022 5:30:00 AM 21.48 70.664 0.081 7.18 3.37 7.31
6/27/2022 5:45:00 AM 21.41 70.538 0.08 7.18 3.24 7.35
6/27/2022 6:00:00 AM 21.33 70.394 0.082 7.19 3.14 7.38
6/27/2022 6:15:00 AM 21.25 70.25 0.082 7.19 3.13 7.42
6/27/2022 6:30:00 AM 21.18 70.124 0.082 7.21 3.11 7.47
6/27/2022 6:45:00 AM 21.09 69.962 0.081 7.22 3.07 7.52
6/27/2022 7:00:00 AM 21 69.8 0.08 7.23 3.19 7.58
6/27/2022 7:15:00 AM 20.96 69.728 0.08 7.23 3.11 7.68
6/27/2022 7:30:00 AM 20.96 69.728 0.079 7.27 3.06 7.81
6/27/2022 7:45:00 AM 20.93 69.674 0.079 7.26 2.96 7.9
6/27/2022 8:00:00 AM 20.95 69.71 0.079 7.29 2.98 8.02
6/27/2022 8:15:00 AM 21.04 69.872 0.079 7.31 2.96 8.13
6/27/2022 8:30:00 AM 21.1 69.98 0.079 7.33 2.95 8.24
6/27/2022 8:45:00 AM 21.12 70.016 0.078 7.32 2.96 8.3
6/27/2022 9:00:00 AM 21.05 69.89 0.078 7.37 2.93 8.37
6/27/2022 9:15:00 AM 21.14 70.052 0.078 7.41 3 8.44
6/27/2022 9:30:00 AM 21.18 70.124 0.078 7.44 3.15 8.56
6/27/2022 9:45:00 AM 21.4 70.52 0.078 7.47 3.27 8.64
6/27/2022 10:00:00 AM 21.68 71.024 0.078 7.55 3.47 8.78
6/27/2022 10:15:00 AM 21.89 71.402 0.078 7.6 3.54 8.81
6/27/2022 10:30:00 AM 22.02 71.636 0.077 7.62 3.6 8.86